<?xml version="1.0" encoding="UTF-8" standalone="no" ?>
<gpx xmlns="http://www.topografix.com/GPX/1/1" xmlns:xsi="http://www.w3.org/2001/XMLSchema-instance" xsi:schemaLocation="http://www.topografix.com/GPX/1/1 http://www.topografix.com/GPX/1/1/gpx.xsd" version="1.1" creator="VisuGPX - https://www.visugpx.com">
  <metadata>
    <name>lundi 2016 01 25</name>
    <desc><![CDATA[rando du lundi]]></desc>
  </metadata>
  <trk>
    <name><![CDATA[lundi 2016 01 25]]></name>
    <trkseg>
      <trkpt lat="48.8573" lon="2.34755">
        <ele>40.400001525879</ele>
        <time>2016-01-25T19:21:07.000Z</time>
      </trkpt>
      <trkpt lat="48.85726" lon="2.34758">
        <ele>40.400001525879</ele>
        <time>2016-01-25T19:21:08.000Z</time>
      </trkpt>
      <trkpt lat="48.85743" lon="2.34725">
        <ele>40.400001525879</ele>
        <time>2016-01-25T19:21:24.000Z</time>
      </trkpt>
      <trkpt lat="48.85735" lon="2.34724">
        <ele>40.400001525879</ele>
        <time>2016-01-25T19:21:31.000Z</time>
      </trkpt>
      <trkpt lat="48.85737" lon="2.34725">
        <ele>40.400001525879</ele>
        <time>2016-01-25T19:21:35.000Z</time>
      </trkpt>
      <trkpt lat="48.85745" lon="2.34743">
        <ele>40.400001525879</ele>
        <time>2016-01-25T19:21:54.000Z</time>
      </trkpt>
      <trkpt lat="48.85757" lon="2.34752">
        <ele>40</ele>
        <time>2016-01-25T19:22:00.000Z</time>
      </trkpt>
      <trkpt lat="48.85773" lon="2.34764">
        <ele>39.599998474121</ele>
        <time>2016-01-25T19:22:25.000Z</time>
      </trkpt>
      <trkpt lat="48.85784" lon="2.34775">
        <ele>40.599998474121</ele>
        <time>2016-01-25T19:22:34.000Z</time>
      </trkpt>
      <trkpt lat="48.85793" lon="2.34795">
        <ele>41.200000762939</ele>
        <time>2016-01-25T19:23:01.000Z</time>
      </trkpt>
      <trkpt lat="48.85807" lon="2.34812">
        <ele>42.599998474121</ele>
        <time>2016-01-25T19:23:06.000Z</time>
      </trkpt>
      <trkpt lat="48.85825" lon="2.34822">
        <ele>44.400001525879</ele>
        <time>2016-01-25T19:23:13.000Z</time>
      </trkpt>
      <trkpt lat="48.85826" lon="2.34822">
        <ele>44.599998474121</ele>
        <time>2016-01-25T19:23:14.000Z</time>
      </trkpt>
      <trkpt lat="48.85837" lon="2.34818">
        <ele>46</ele>
        <time>2016-01-25T19:23:21.000Z</time>
      </trkpt>
      <trkpt lat="48.85857" lon="2.3482">
        <ele>47.799999237061</ele>
        <time>2016-01-25T19:23:48.000Z</time>
      </trkpt>
      <trkpt lat="48.85873" lon="2.34831">
        <ele>48</ele>
        <time>2016-01-25T19:23:54.000Z</time>
      </trkpt>
      <trkpt lat="48.85891" lon="2.34839">
        <ele>48</ele>
        <time>2016-01-25T19:24:03.000Z</time>
      </trkpt>
      <trkpt lat="48.85909" lon="2.34855">
        <ele>48</ele>
        <time>2016-01-25T19:24:10.000Z</time>
      </trkpt>
      <trkpt lat="48.85928" lon="2.34868">
        <ele>48</ele>
        <time>2016-01-25T19:24:15.000Z</time>
      </trkpt>
      <trkpt lat="48.85947" lon="2.34884">
        <ele>48</ele>
        <time>2016-01-25T19:24:21.000Z</time>
      </trkpt>
      <trkpt lat="48.85964" lon="2.34893">
        <ele>48.200000762939</ele>
        <time>2016-01-25T19:24:25.000Z</time>
      </trkpt>
      <trkpt lat="48.85983" lon="2.34905">
        <ele>48.599998474121</ele>
        <time>2016-01-25T19:24:30.000Z</time>
      </trkpt>
      <trkpt lat="48.86" lon="2.34916">
        <ele>48.799999237061</ele>
        <time>2016-01-25T19:24:34.000Z</time>
      </trkpt>
      <trkpt lat="48.86019" lon="2.3492">
        <ele>48.799999237061</ele>
        <time>2016-01-25T19:24:37.000Z</time>
      </trkpt>
      <trkpt lat="48.8604" lon="2.34927">
        <ele>48.400001525879</ele>
        <time>2016-01-25T19:24:41.000Z</time>
      </trkpt>
      <trkpt lat="48.86055" lon="2.34936">
        <ele>48</ele>
        <time>2016-01-25T19:24:44.000Z</time>
      </trkpt>
      <trkpt lat="48.86075" lon="2.34944">
        <ele>47.400001525879</ele>
        <time>2016-01-25T19:24:48.000Z</time>
      </trkpt>
      <trkpt lat="48.86096" lon="2.34955">
        <ele>46.799999237061</ele>
        <time>2016-01-25T19:24:52.000Z</time>
      </trkpt>
      <trkpt lat="48.86115" lon="2.34969">
        <ele>46.400001525879</ele>
        <time>2016-01-25T19:24:56.000Z</time>
      </trkpt>
      <trkpt lat="48.8613" lon="2.34978">
        <ele>46.599998474121</ele>
        <time>2016-01-25T19:24:59.000Z</time>
      </trkpt>
      <trkpt lat="48.8615" lon="2.34991">
        <ele>46.599998474121</ele>
        <time>2016-01-25T19:25:03.000Z</time>
      </trkpt>
      <trkpt lat="48.8616" lon="2.34991">
        <ele>46.799999237061</ele>
        <time>2016-01-25T19:25:04.000Z</time>
      </trkpt>
      <trkpt lat="48.86172" lon="2.35001">
        <ele>46.799999237061</ele>
        <time>2016-01-25T19:25:07.000Z</time>
      </trkpt>
      <trkpt lat="48.86188" lon="2.35015">
        <ele>47.200000762939</ele>
        <time>2016-01-25T19:25:11.000Z</time>
      </trkpt>
      <trkpt lat="48.8621" lon="2.35019">
        <ele>47.599998474121</ele>
        <time>2016-01-25T19:25:14.000Z</time>
      </trkpt>
      <trkpt lat="48.86223" lon="2.3502">
        <ele>47.599998474121</ele>
        <time>2016-01-25T19:25:16.000Z</time>
      </trkpt>
      <trkpt lat="48.86242" lon="2.35029">
        <ele>48</ele>
        <time>2016-01-25T19:25:20.000Z</time>
      </trkpt>
      <trkpt lat="48.86259" lon="2.35041">
        <ele>48.400001525879</ele>
        <time>2016-01-25T19:25:24.000Z</time>
      </trkpt>
      <trkpt lat="48.86267" lon="2.35047">
        <ele>48.599998474121</ele>
        <time>2016-01-25T19:25:26.000Z</time>
      </trkpt>
      <trkpt lat="48.86284" lon="2.35059">
        <ele>48.599998474121</ele>
        <time>2016-01-25T19:25:30.000Z</time>
      </trkpt>
      <trkpt lat="48.86305" lon="2.35067">
        <ele>48.400001525879</ele>
        <time>2016-01-25T19:25:34.000Z</time>
      </trkpt>
      <trkpt lat="48.86309" lon="2.35066">
        <ele>48.400001525879</ele>
        <time>2016-01-25T19:25:35.000Z</time>
      </trkpt>
      <trkpt lat="48.86329" lon="2.35071">
        <ele>48.200000762939</ele>
        <time>2016-01-25T19:25:52.000Z</time>
      </trkpt>
      <trkpt lat="48.86336" lon="2.35075">
        <ele>48.200000762939</ele>
        <time>2016-01-25T19:25:58.000Z</time>
      </trkpt>
      <trkpt lat="48.8635" lon="2.35094">
        <ele>48</ele>
        <time>2016-01-25T19:26:05.000Z</time>
      </trkpt>
      <trkpt lat="48.86366" lon="2.35109">
        <ele>47.599998474121</ele>
        <time>2016-01-25T19:26:12.000Z</time>
      </trkpt>
      <trkpt lat="48.86386" lon="2.35122">
        <ele>47.599998474121</ele>
        <time>2016-01-25T19:26:19.000Z</time>
      </trkpt>
      <trkpt lat="48.86404" lon="2.3513">
        <ele>47.400001525879</ele>
        <time>2016-01-25T19:26:24.000Z</time>
      </trkpt>
      <trkpt lat="48.86424" lon="2.35142">
        <ele>47.200000762939</ele>
        <time>2016-01-25T19:26:29.000Z</time>
      </trkpt>
      <trkpt lat="48.86442" lon="2.35159">
        <ele>46.799999237061</ele>
        <time>2016-01-25T19:26:35.000Z</time>
      </trkpt>
      <trkpt lat="48.86459" lon="2.35166">
        <ele>46.599998474121</ele>
        <time>2016-01-25T19:26:41.000Z</time>
      </trkpt>
      <trkpt lat="48.86483" lon="2.35176">
        <ele>46.400001525879</ele>
        <time>2016-01-25T19:26:46.000Z</time>
      </trkpt>
      <trkpt lat="48.865" lon="2.35188">
        <ele>46.400001525879</ele>
        <time>2016-01-25T19:26:50.000Z</time>
      </trkpt>
      <trkpt lat="48.86517" lon="2.35205">
        <ele>46.599998474121</ele>
        <time>2016-01-25T19:26:55.000Z</time>
      </trkpt>
      <trkpt lat="48.86536" lon="2.35219">
        <ele>47.200000762939</ele>
        <time>2016-01-25T19:27:00.000Z</time>
      </trkpt>
      <trkpt lat="48.86556" lon="2.35232">
        <ele>47.799999237061</ele>
        <time>2016-01-25T19:27:05.000Z</time>
      </trkpt>
      <trkpt lat="48.86569" lon="2.35241">
        <ele>48.400001525879</ele>
        <time>2016-01-25T19:27:09.000Z</time>
      </trkpt>
      <trkpt lat="48.86575" lon="2.35242">
        <ele>48.400001525879</ele>
        <time>2016-01-25T19:27:11.000Z</time>
      </trkpt>
      <trkpt lat="48.86588" lon="2.35237">
        <ele>48.400001525879</ele>
        <time>2016-01-25T19:27:17.000Z</time>
      </trkpt>
      <trkpt lat="48.86596" lon="2.35237">
        <ele>48.400001525879</ele>
        <time>2016-01-25T19:27:22.000Z</time>
      </trkpt>
      <trkpt lat="48.8661" lon="2.35247">
        <ele>49</ele>
        <time>2016-01-25T19:27:34.000Z</time>
      </trkpt>
      <trkpt lat="48.86609" lon="2.35263">
        <ele>48.799999237061</ele>
        <time>2016-01-25T19:27:37.000Z</time>
      </trkpt>
      <trkpt lat="48.86604" lon="2.35289">
        <ele>48.400001525879</ele>
        <time>2016-01-25T19:27:42.000Z</time>
      </trkpt>
      <trkpt lat="48.86598" lon="2.35319">
        <ele>48</ele>
        <time>2016-01-25T19:27:47.000Z</time>
      </trkpt>
      <trkpt lat="48.86606" lon="2.35356">
        <ele>48</ele>
        <time>2016-01-25T19:27:52.000Z</time>
      </trkpt>
      <trkpt lat="48.86608" lon="2.35365">
        <ele>48</ele>
        <time>2016-01-25T19:27:55.000Z</time>
      </trkpt>
      <trkpt lat="48.86601" lon="2.35391">
        <ele>47.799999237061</ele>
        <time>2016-01-25T19:28:18.000Z</time>
      </trkpt>
      <trkpt lat="48.86591" lon="2.3542">
        <ele>48</ele>
        <time>2016-01-25T19:28:24.000Z</time>
      </trkpt>
      <trkpt lat="48.86588" lon="2.35438">
        <ele>47.599998474121</ele>
        <time>2016-01-25T19:28:27.000Z</time>
      </trkpt>
      <trkpt lat="48.86582" lon="2.35465">
        <ele>47</ele>
        <time>2016-01-25T19:28:32.000Z</time>
      </trkpt>
      <trkpt lat="48.86575" lon="2.35491">
        <ele>47.200000762939</ele>
        <time>2016-01-25T19:28:38.000Z</time>
      </trkpt>
      <trkpt lat="48.86571" lon="2.35523">
        <ele>45.799999237061</ele>
        <time>2016-01-25T19:28:44.000Z</time>
      </trkpt>
      <trkpt lat="48.86559" lon="2.35552">
        <ele>44.799999237061</ele>
        <time>2016-01-25T19:28:49.000Z</time>
      </trkpt>
      <trkpt lat="48.86555" lon="2.3558">
        <ele>44.200000762939</ele>
        <time>2016-01-25T19:28:53.000Z</time>
      </trkpt>
      <trkpt lat="48.86552" lon="2.35608">
        <ele>44.799999237061</ele>
        <time>2016-01-25T19:28:57.000Z</time>
      </trkpt>
      <trkpt lat="48.86552" lon="2.35637">
        <ele>45</ele>
        <time>2016-01-25T19:29:01.000Z</time>
      </trkpt>
      <trkpt lat="48.8655" lon="2.35667">
        <ele>45.200000762939</ele>
        <time>2016-01-25T19:29:06.000Z</time>
      </trkpt>
      <trkpt lat="48.86541" lon="2.35694">
        <ele>45.599998474121</ele>
        <time>2016-01-25T19:29:10.000Z</time>
      </trkpt>
      <trkpt lat="48.86536" lon="2.35705">
        <ele>45.599998474121</ele>
        <time>2016-01-25T19:29:12.000Z</time>
      </trkpt>
      <trkpt lat="48.86526" lon="2.35731">
        <ele>45.200000762939</ele>
        <time>2016-01-25T19:29:16.000Z</time>
      </trkpt>
      <trkpt lat="48.86517" lon="2.35757">
        <ele>45.200000762939</ele>
        <time>2016-01-25T19:29:20.000Z</time>
      </trkpt>
      <trkpt lat="48.86508" lon="2.35782">
        <ele>45.400001525879</ele>
        <time>2016-01-25T19:29:24.000Z</time>
      </trkpt>
      <trkpt lat="48.86502" lon="2.35811">
        <ele>45.799999237061</ele>
        <time>2016-01-25T19:29:28.000Z</time>
      </trkpt>
      <trkpt lat="48.86495" lon="2.3584">
        <ele>45.799999237061</ele>
        <time>2016-01-25T19:29:32.000Z</time>
      </trkpt>
      <trkpt lat="48.86491" lon="2.35861">
        <ele>45.200000762939</ele>
        <time>2016-01-25T19:29:35.000Z</time>
      </trkpt>
      <trkpt lat="48.86487" lon="2.3589">
        <ele>44.799999237061</ele>
        <time>2016-01-25T19:29:40.000Z</time>
      </trkpt>
      <trkpt lat="48.86487" lon="2.35898">
        <ele>44.799999237061</ele>
        <time>2016-01-25T19:29:42.000Z</time>
      </trkpt>
      <trkpt lat="48.86486" lon="2.35905">
        <ele>44.799999237061</ele>
        <time>2016-01-25T19:29:45.000Z</time>
      </trkpt>
      <trkpt lat="48.86485" lon="2.35916">
        <ele>45</ele>
        <time>2016-01-25T19:29:49.000Z</time>
      </trkpt>
      <trkpt lat="48.86486" lon="2.35943">
        <ele>45.200000762939</ele>
        <time>2016-01-25T19:29:57.000Z</time>
      </trkpt>
      <trkpt lat="48.86498" lon="2.35967">
        <ele>45.200000762939</ele>
        <time>2016-01-25T19:30:02.000Z</time>
      </trkpt>
      <trkpt lat="48.86513" lon="2.35987">
        <ele>45.200000762939</ele>
        <time>2016-01-25T19:30:06.000Z</time>
      </trkpt>
      <trkpt lat="48.86528" lon="2.36007">
        <ele>44.799999237061</ele>
        <time>2016-01-25T19:30:10.000Z</time>
      </trkpt>
      <trkpt lat="48.86543" lon="2.36031">
        <ele>44.400001525879</ele>
        <time>2016-01-25T19:30:14.000Z</time>
      </trkpt>
      <trkpt lat="48.86559" lon="2.36053">
        <ele>43.799999237061</ele>
        <time>2016-01-25T19:30:18.000Z</time>
      </trkpt>
      <trkpt lat="48.86577" lon="2.36072">
        <ele>43.400001525879</ele>
        <time>2016-01-25T19:30:22.000Z</time>
      </trkpt>
      <trkpt lat="48.86594" lon="2.3609">
        <ele>43.200000762939</ele>
        <time>2016-01-25T19:30:26.000Z</time>
      </trkpt>
      <trkpt lat="48.8661" lon="2.3611">
        <ele>43.400001525879</ele>
        <time>2016-01-25T19:30:30.000Z</time>
      </trkpt>
      <trkpt lat="48.86628" lon="2.3613">
        <ele>44.200000762939</ele>
        <time>2016-01-25T19:30:34.000Z</time>
      </trkpt>
      <trkpt lat="48.86637" lon="2.36138">
        <ele>44.400001525879</ele>
        <time>2016-01-25T19:30:36.000Z</time>
      </trkpt>
      <trkpt lat="48.86654" lon="2.36154">
        <ele>45</ele>
        <time>2016-01-25T19:30:40.000Z</time>
      </trkpt>
      <trkpt lat="48.86671" lon="2.36168">
        <ele>45.599998474121</ele>
        <time>2016-01-25T19:30:43.000Z</time>
      </trkpt>
      <trkpt lat="48.86685" lon="2.36193">
        <ele>46.200000762939</ele>
        <time>2016-01-25T19:30:47.000Z</time>
      </trkpt>
      <trkpt lat="48.86688" lon="2.362">
        <ele>46.400001525879</ele>
        <time>2016-01-25T19:30:48.000Z</time>
      </trkpt>
      <trkpt lat="48.867" lon="2.36228">
        <ele>46.799999237061</ele>
        <time>2016-01-25T19:30:52.000Z</time>
      </trkpt>
      <trkpt lat="48.86712" lon="2.36252">
        <ele>46.599998474121</ele>
        <time>2016-01-25T19:30:56.000Z</time>
      </trkpt>
      <trkpt lat="48.86725" lon="2.36277">
        <ele>44.799999237061</ele>
        <time>2016-01-25T19:31:00.000Z</time>
      </trkpt>
      <trkpt lat="48.86729" lon="2.3629">
        <ele>44.200000762939</ele>
        <time>2016-01-25T19:31:02.000Z</time>
      </trkpt>
      <trkpt lat="48.86732" lon="2.363">
        <ele>44.200000762939</ele>
        <time>2016-01-25T19:31:04.000Z</time>
      </trkpt>
      <trkpt lat="48.86735" lon="2.36312">
        <ele>44.200000762939</ele>
        <time>2016-01-25T19:31:07.000Z</time>
      </trkpt>
      <trkpt lat="48.86736" lon="2.36321">
        <ele>44.200000762939</ele>
        <time>2016-01-25T19:31:10.000Z</time>
      </trkpt>
      <trkpt lat="48.86737" lon="2.36326">
        <ele>44.200000762939</ele>
        <time>2016-01-25T19:31:13.000Z</time>
      </trkpt>
      <trkpt lat="48.86738" lon="2.36335">
        <ele>44.400001525879</ele>
        <time>2016-01-25T19:31:17.000Z</time>
      </trkpt>
      <trkpt lat="48.86739" lon="2.36342">
        <ele>44</ele>
        <time>2016-01-25T19:31:20.000Z</time>
      </trkpt>
      <trkpt lat="48.86743" lon="2.36353">
        <ele>43.400001525879</ele>
        <time>2016-01-25T19:31:24.000Z</time>
      </trkpt>
      <trkpt lat="48.86745" lon="2.3638">
        <ele>42.599998474121</ele>
        <time>2016-01-25T19:31:36.000Z</time>
      </trkpt>
      <trkpt lat="48.86752" lon="2.36407">
        <ele>40.599998474121</ele>
        <time>2016-01-25T19:31:47.000Z</time>
      </trkpt>
      <trkpt lat="48.86756" lon="2.36414">
        <ele>39.799999237061</ele>
        <time>2016-01-25T19:31:52.000Z</time>
      </trkpt>
      <trkpt lat="48.86759" lon="2.36422">
        <ele>39.799999237061</ele>
        <time>2016-01-25T19:31:58.000Z</time>
      </trkpt>
      <trkpt lat="48.86772" lon="2.3644">
        <ele>39.599998474121</ele>
        <time>2016-01-25T19:32:10.000Z</time>
      </trkpt>
      <trkpt lat="48.86785" lon="2.36463">
        <ele>40.799999237061</ele>
        <time>2016-01-25T19:32:21.000Z</time>
      </trkpt>
      <trkpt lat="48.86797" lon="2.36484">
        <ele>41.799999237061</ele>
        <time>2016-01-25T19:32:29.000Z</time>
      </trkpt>
      <trkpt lat="48.86809" lon="2.36509">
        <ele>43.200000762939</ele>
        <time>2016-01-25T19:32:35.000Z</time>
      </trkpt>
      <trkpt lat="48.86817" lon="2.36534">
        <ele>44.400001525879</ele>
        <time>2016-01-25T19:32:40.000Z</time>
      </trkpt>
      <trkpt lat="48.86826" lon="2.36559">
        <ele>46</ele>
        <time>2016-01-25T19:32:45.000Z</time>
      </trkpt>
      <trkpt lat="48.86837" lon="2.36587">
        <ele>47.599998474121</ele>
        <time>2016-01-25T19:32:50.000Z</time>
      </trkpt>
      <trkpt lat="48.86845" lon="2.36613">
        <ele>47.799999237061</ele>
        <time>2016-01-25T19:32:55.000Z</time>
      </trkpt>
      <trkpt lat="48.86852" lon="2.36642">
        <ele>48</ele>
        <time>2016-01-25T19:33:01.000Z</time>
      </trkpt>
      <trkpt lat="48.86854" lon="2.3667">
        <ele>47.799999237061</ele>
        <time>2016-01-25T19:33:06.000Z</time>
      </trkpt>
      <trkpt lat="48.86865" lon="2.36694">
        <ele>47.400001525879</ele>
        <time>2016-01-25T19:33:12.000Z</time>
      </trkpt>
      <trkpt lat="48.86865" lon="2.36697">
        <ele>47.400001525879</ele>
        <time>2016-01-25T19:33:13.000Z</time>
      </trkpt>
      <trkpt lat="48.86872" lon="2.36711">
        <ele>47.200000762939</ele>
        <time>2016-01-25T19:33:43.000Z</time>
      </trkpt>
      <trkpt lat="48.86876" lon="2.36739">
        <ele>46.599998474121</ele>
        <time>2016-01-25T19:33:52.000Z</time>
      </trkpt>
      <trkpt lat="48.86877" lon="2.36766">
        <ele>46.200000762939</ele>
        <time>2016-01-25T19:34:00.000Z</time>
      </trkpt>
      <trkpt lat="48.8688" lon="2.36782">
        <ele>46.200000762939</ele>
        <time>2016-01-25T19:34:08.000Z</time>
      </trkpt>
      <trkpt lat="48.86872" lon="2.36806">
        <ele>45.599998474121</ele>
        <time>2016-01-25T19:34:18.000Z</time>
      </trkpt>
      <trkpt lat="48.86863" lon="2.36832">
        <ele>45.200000762939</ele>
        <time>2016-01-25T19:34:23.000Z</time>
      </trkpt>
      <trkpt lat="48.86863" lon="2.36841">
        <ele>45.400001525879</ele>
        <time>2016-01-25T19:34:24.000Z</time>
      </trkpt>
      <trkpt lat="48.86864" lon="2.36873">
        <ele>46.200000762939</ele>
        <time>2016-01-25T19:34:28.000Z</time>
      </trkpt>
      <trkpt lat="48.86863" lon="2.36905">
        <ele>46.799999237061</ele>
        <time>2016-01-25T19:34:32.000Z</time>
      </trkpt>
      <trkpt lat="48.86862" lon="2.3692">
        <ele>47.200000762939</ele>
        <time>2016-01-25T19:34:34.000Z</time>
      </trkpt>
      <trkpt lat="48.86855" lon="2.36951">
        <ele>48.400001525879</ele>
        <time>2016-01-25T19:34:39.000Z</time>
      </trkpt>
      <trkpt lat="48.86851" lon="2.36966">
        <ele>49</ele>
        <time>2016-01-25T19:34:42.000Z</time>
      </trkpt>
      <trkpt lat="48.86848" lon="2.36999">
        <ele>50</ele>
        <time>2016-01-25T19:34:47.000Z</time>
      </trkpt>
      <trkpt lat="48.86844" lon="2.37017">
        <ele>50.400001525879</ele>
        <time>2016-01-25T19:34:50.000Z</time>
      </trkpt>
      <trkpt lat="48.86841" lon="2.37048">
        <ele>51</ele>
        <time>2016-01-25T19:34:55.000Z</time>
      </trkpt>
      <trkpt lat="48.86841" lon="2.37079">
        <ele>51.200000762939</ele>
        <time>2016-01-25T19:35:00.000Z</time>
      </trkpt>
      <trkpt lat="48.86835" lon="2.37107">
        <ele>51</ele>
        <time>2016-01-25T19:35:05.000Z</time>
      </trkpt>
      <trkpt lat="48.86831" lon="2.3712">
        <ele>51</ele>
        <time>2016-01-25T19:35:08.000Z</time>
      </trkpt>
      <trkpt lat="48.86827" lon="2.37135">
        <ele>50.799999237061</ele>
        <time>2016-01-25T19:35:11.000Z</time>
      </trkpt>
      <trkpt lat="48.86819" lon="2.37163">
        <ele>50.400001525879</ele>
        <time>2016-01-25T19:35:16.000Z</time>
      </trkpt>
      <trkpt lat="48.86815" lon="2.37191">
        <ele>50.599998474121</ele>
        <time>2016-01-25T19:35:23.000Z</time>
      </trkpt>
      <trkpt lat="48.86819" lon="2.372">
        <ele>51.200000762939</ele>
        <time>2016-01-25T19:35:26.000Z</time>
      </trkpt>
      <trkpt lat="48.86823" lon="2.37208">
        <ele>51.599998474121</ele>
        <time>2016-01-25T19:35:31.000Z</time>
      </trkpt>
      <trkpt lat="48.86824" lon="2.37209">
        <ele>51.799999237061</ele>
        <time>2016-01-25T19:35:32.000Z</time>
      </trkpt>
      <trkpt lat="48.86821" lon="2.37219">
        <ele>52</ele>
        <time>2016-01-25T19:35:41.000Z</time>
      </trkpt>
      <trkpt lat="48.86808" lon="2.3724">
        <ele>52.400001525879</ele>
        <time>2016-01-25T19:35:49.000Z</time>
      </trkpt>
      <trkpt lat="48.86807" lon="2.37248">
        <ele>52.599998474121</ele>
        <time>2016-01-25T19:35:52.000Z</time>
      </trkpt>
      <trkpt lat="48.86807" lon="2.37265">
        <ele>52.400001525879</ele>
        <time>2016-01-25T19:35:56.000Z</time>
      </trkpt>
      <trkpt lat="48.86812" lon="2.37292">
        <ele>52.599998474121</ele>
        <time>2016-01-25T19:36:02.000Z</time>
      </trkpt>
      <trkpt lat="48.86817" lon="2.37322">
        <ele>53.200000762939</ele>
        <time>2016-01-25T19:36:08.000Z</time>
      </trkpt>
      <trkpt lat="48.86824" lon="2.37348">
        <ele>53.400001525879</ele>
        <time>2016-01-25T19:36:13.000Z</time>
      </trkpt>
      <trkpt lat="48.86835" lon="2.37373">
        <ele>53.200000762939</ele>
        <time>2016-01-25T19:36:18.000Z</time>
      </trkpt>
      <trkpt lat="48.86841" lon="2.37402">
        <ele>53</ele>
        <time>2016-01-25T19:36:23.000Z</time>
      </trkpt>
      <trkpt lat="48.86843" lon="2.37432">
        <ele>52.599998474121</ele>
        <time>2016-01-25T19:36:28.000Z</time>
      </trkpt>
      <trkpt lat="48.86851" lon="2.37457">
        <ele>52.799999237061</ele>
        <time>2016-01-25T19:36:33.000Z</time>
      </trkpt>
      <trkpt lat="48.86857" lon="2.37487">
        <ele>53</ele>
        <time>2016-01-25T19:36:38.000Z</time>
      </trkpt>
      <trkpt lat="48.86864" lon="2.37514">
        <ele>52.799999237061</ele>
        <time>2016-01-25T19:36:42.000Z</time>
      </trkpt>
      <trkpt lat="48.86872" lon="2.37541">
        <ele>52.400001525879</ele>
        <time>2016-01-25T19:36:46.000Z</time>
      </trkpt>
      <trkpt lat="48.86877" lon="2.37573">
        <ele>51.799999237061</ele>
        <time>2016-01-25T19:36:50.000Z</time>
      </trkpt>
      <trkpt lat="48.86883" lon="2.37596">
        <ele>51.799999237061</ele>
        <time>2016-01-25T19:36:53.000Z</time>
      </trkpt>
      <trkpt lat="48.86893" lon="2.37625">
        <ele>52.200000762939</ele>
        <time>2016-01-25T19:36:57.000Z</time>
      </trkpt>
      <trkpt lat="48.86899" lon="2.37645">
        <ele>52.200000762939</ele>
        <time>2016-01-25T19:37:00.000Z</time>
      </trkpt>
      <trkpt lat="48.86908" lon="2.37673">
        <ele>52.599998474121</ele>
        <time>2016-01-25T19:37:06.000Z</time>
      </trkpt>
      <trkpt lat="48.8691" lon="2.37683">
        <ele>53</ele>
        <time>2016-01-25T19:37:08.000Z</time>
      </trkpt>
      <trkpt lat="48.8692" lon="2.37712">
        <ele>54.200000762939</ele>
        <time>2016-01-25T19:37:14.000Z</time>
      </trkpt>
      <trkpt lat="48.86927" lon="2.37738">
        <ele>55.200000762939</ele>
        <time>2016-01-25T19:37:19.000Z</time>
      </trkpt>
      <trkpt lat="48.86936" lon="2.37762">
        <ele>56</ele>
        <time>2016-01-25T19:37:25.000Z</time>
      </trkpt>
      <trkpt lat="48.86947" lon="2.37787">
        <ele>56.400001525879</ele>
        <time>2016-01-25T19:37:31.000Z</time>
      </trkpt>
      <trkpt lat="48.86956" lon="2.37817">
        <ele>56.799999237061</ele>
        <time>2016-01-25T19:37:37.000Z</time>
      </trkpt>
      <trkpt lat="48.86966" lon="2.37839">
        <ele>57</ele>
        <time>2016-01-25T19:37:44.000Z</time>
      </trkpt>
      <trkpt lat="48.86979" lon="2.3786">
        <ele>57</ele>
        <time>2016-01-25T19:37:51.000Z</time>
      </trkpt>
      <trkpt lat="48.86989" lon="2.37879">
        <ele>57</ele>
        <time>2016-01-25T19:38:00.000Z</time>
      </trkpt>
      <trkpt lat="48.87007" lon="2.37893">
        <ele>57</ele>
        <time>2016-01-25T19:38:11.000Z</time>
      </trkpt>
      <trkpt lat="48.87009" lon="2.37897">
        <ele>57</ele>
        <time>2016-01-25T19:38:13.000Z</time>
      </trkpt>
      <trkpt lat="48.87019" lon="2.37923">
        <ele>57.400001525879</ele>
        <time>2016-01-25T19:38:44.000Z</time>
      </trkpt>
      <trkpt lat="48.87026" lon="2.37939">
        <ele>58</ele>
        <time>2016-01-25T19:38:51.000Z</time>
      </trkpt>
      <trkpt lat="48.87029" lon="2.37953">
        <ele>58.599998474121</ele>
        <time>2016-01-25T19:38:56.000Z</time>
      </trkpt>
      <trkpt lat="48.87035" lon="2.3798">
        <ele>59.599998474121</ele>
        <time>2016-01-25T19:39:05.000Z</time>
      </trkpt>
      <trkpt lat="48.87042" lon="2.38007">
        <ele>60.599998474121</ele>
        <time>2016-01-25T19:39:12.000Z</time>
      </trkpt>
      <trkpt lat="48.87054" lon="2.38033">
        <ele>61.200000762939</ele>
        <time>2016-01-25T19:39:19.000Z</time>
      </trkpt>
      <trkpt lat="48.87064" lon="2.38058">
        <ele>62.200000762939</ele>
        <time>2016-01-25T19:39:25.000Z</time>
      </trkpt>
      <trkpt lat="48.87074" lon="2.38084">
        <ele>63</ele>
        <time>2016-01-25T19:39:31.000Z</time>
      </trkpt>
      <trkpt lat="48.87084" lon="2.38109">
        <ele>63.400001525879</ele>
        <time>2016-01-25T19:39:37.000Z</time>
      </trkpt>
      <trkpt lat="48.87096" lon="2.38131">
        <ele>63.599998474121</ele>
        <time>2016-01-25T19:39:43.000Z</time>
      </trkpt>
      <trkpt lat="48.871" lon="2.38144">
        <ele>63.799999237061</ele>
        <time>2016-01-25T19:39:49.000Z</time>
      </trkpt>
      <trkpt lat="48.871" lon="2.38154">
        <ele>63.799999237061</ele>
        <time>2016-01-25T19:39:53.000Z</time>
      </trkpt>
      <trkpt lat="48.87103" lon="2.38183">
        <ele>64.599998474121</ele>
        <time>2016-01-25T19:40:01.000Z</time>
      </trkpt>
      <trkpt lat="48.87108" lon="2.38203">
        <ele>65.400001525879</ele>
        <time>2016-01-25T19:40:10.000Z</time>
      </trkpt>
      <trkpt lat="48.87114" lon="2.38229">
        <ele>66.599998474121</ele>
        <time>2016-01-25T19:40:23.000Z</time>
      </trkpt>
      <trkpt lat="48.87119" lon="2.38238">
        <ele>67.199996948242</ele>
        <time>2016-01-25T19:40:30.000Z</time>
      </trkpt>
      <trkpt lat="48.87124" lon="2.38249">
        <ele>68</ele>
        <time>2016-01-25T19:40:37.000Z</time>
      </trkpt>
      <trkpt lat="48.87127" lon="2.38256">
        <ele>68.599998474121</ele>
        <time>2016-01-25T19:40:41.000Z</time>
      </trkpt>
      <trkpt lat="48.87129" lon="2.3826">
        <ele>69</ele>
        <time>2016-01-25T19:40:45.000Z</time>
      </trkpt>
      <trkpt lat="48.87142" lon="2.38277">
        <ele>71.199996948242</ele>
        <time>2016-01-25T19:41:08.000Z</time>
      </trkpt>
      <trkpt lat="48.87144" lon="2.38288">
        <ele>72</ele>
        <time>2016-01-25T19:41:19.000Z</time>
      </trkpt>
      <trkpt lat="48.87127" lon="2.38297">
        <ele>69.800003051758</ele>
        <time>2016-01-25T19:41:26.000Z</time>
      </trkpt>
      <trkpt lat="48.87124" lon="2.38303">
        <ele>69.400001525879</ele>
        <time>2016-01-25T19:41:28.000Z</time>
      </trkpt>
      <trkpt lat="48.87123" lon="2.38306">
        <ele>69.199996948242</ele>
        <time>2016-01-25T19:41:29.000Z</time>
      </trkpt>
      <trkpt lat="48.87121" lon="2.38318">
        <ele>69</ele>
        <time>2016-01-25T19:41:34.000Z</time>
      </trkpt>
      <trkpt lat="48.87108" lon="2.3833">
        <ele>67.199996948242</ele>
        <time>2016-01-25T19:41:51.000Z</time>
      </trkpt>
      <trkpt lat="48.87094" lon="2.38347">
        <ele>67.199996948242</ele>
        <time>2016-01-25T19:41:59.000Z</time>
      </trkpt>
      <trkpt lat="48.8708" lon="2.38365">
        <ele>67.599998474121</ele>
        <time>2016-01-25T19:42:05.000Z</time>
      </trkpt>
      <trkpt lat="48.87069" lon="2.38383">
        <ele>68</ele>
        <time>2016-01-25T19:42:13.000Z</time>
      </trkpt>
      <trkpt lat="48.87061" lon="2.3839">
        <ele>67.400001525879</ele>
        <time>2016-01-25T19:42:42.000Z</time>
      </trkpt>
      <trkpt lat="48.87045" lon="2.38371">
        <ele>66</ele>
        <time>2016-01-25T19:42:51.000Z</time>
      </trkpt>
      <trkpt lat="48.8703" lon="2.38355">
        <ele>64.800003051758</ele>
        <time>2016-01-25T19:42:57.000Z</time>
      </trkpt>
      <trkpt lat="48.87022" lon="2.38343">
        <ele>64</ele>
        <time>2016-01-25T19:43:02.000Z</time>
      </trkpt>
      <trkpt lat="48.87018" lon="2.38338">
        <ele>63.799999237061</ele>
        <time>2016-01-25T19:43:05.000Z</time>
      </trkpt>
      <trkpt lat="48.87016" lon="2.3835">
        <ele>63.799999237061</ele>
        <time>2016-01-25T19:43:11.000Z</time>
      </trkpt>
      <trkpt lat="48.8702" lon="2.38381">
        <ele>64.400001525879</ele>
        <time>2016-01-25T19:43:18.000Z</time>
      </trkpt>
      <trkpt lat="48.87025" lon="2.38408">
        <ele>65</ele>
        <time>2016-01-25T19:43:25.000Z</time>
      </trkpt>
      <trkpt lat="48.87034" lon="2.38432">
        <ele>66.199996948242</ele>
        <time>2016-01-25T19:43:36.000Z</time>
      </trkpt>
      <trkpt lat="48.87034" lon="2.38438">
        <ele>66.199996948242</ele>
        <time>2016-01-25T19:43:39.000Z</time>
      </trkpt>
      <trkpt lat="48.87034" lon="2.38446">
        <ele>66</ele>
        <time>2016-01-25T19:43:42.000Z</time>
      </trkpt>
      <trkpt lat="48.87038" lon="2.38457">
        <ele>66.400001525879</ele>
        <time>2016-01-25T19:43:46.000Z</time>
      </trkpt>
      <trkpt lat="48.8704" lon="2.38486">
        <ele>66</ele>
        <time>2016-01-25T19:43:54.000Z</time>
      </trkpt>
      <trkpt lat="48.87038" lon="2.38516">
        <ele>66</ele>
        <time>2016-01-25T19:44:03.000Z</time>
      </trkpt>
      <trkpt lat="48.87032" lon="2.38532">
        <ele>64.599998474121</ele>
        <time>2016-01-25T19:44:12.000Z</time>
      </trkpt>
      <trkpt lat="48.87033" lon="2.38544">
        <ele>65</ele>
        <time>2016-01-25T19:44:16.000Z</time>
      </trkpt>
      <trkpt lat="48.87036" lon="2.38574">
        <ele>65.599998474121</ele>
        <time>2016-01-25T19:44:23.000Z</time>
      </trkpt>
      <trkpt lat="48.87037" lon="2.38604">
        <ele>66.199996948242</ele>
        <time>2016-01-25T19:44:32.000Z</time>
      </trkpt>
      <trkpt lat="48.87034" lon="2.38632">
        <ele>66.800003051758</ele>
        <time>2016-01-25T19:44:40.000Z</time>
      </trkpt>
      <trkpt lat="48.87035" lon="2.38634">
        <ele>67.199996948242</ele>
        <time>2016-01-25T19:44:41.000Z</time>
      </trkpt>
      <trkpt lat="48.87037" lon="2.38647">
        <ele>68</ele>
        <time>2016-01-25T19:44:46.000Z</time>
      </trkpt>
      <trkpt lat="48.87038" lon="2.38675">
        <ele>68.800003051758</ele>
        <time>2016-01-25T19:44:56.000Z</time>
      </trkpt>
      <trkpt lat="48.87037" lon="2.38677">
        <ele>68.599998474121</ele>
        <time>2016-01-25T19:44:57.000Z</time>
      </trkpt>
      <trkpt lat="48.87038" lon="2.38685">
        <ele>69</ele>
        <time>2016-01-25T19:45:01.000Z</time>
      </trkpt>
      <trkpt lat="48.87052" lon="2.38705">
        <ele>72</ele>
        <time>2016-01-25T19:45:10.000Z</time>
      </trkpt>
      <trkpt lat="48.87056" lon="2.38732">
        <ele>73.599998474121</ele>
        <time>2016-01-25T19:45:17.000Z</time>
      </trkpt>
      <trkpt lat="48.8706" lon="2.38762">
        <ele>74.599998474121</ele>
        <time>2016-01-25T19:45:25.000Z</time>
      </trkpt>
      <trkpt lat="48.87061" lon="2.3879">
        <ele>74.599998474121</ele>
        <time>2016-01-25T19:45:33.000Z</time>
      </trkpt>
      <trkpt lat="48.87061" lon="2.38798">
        <ele>75</ele>
        <time>2016-01-25T19:45:36.000Z</time>
      </trkpt>
      <trkpt lat="48.87057" lon="2.38806">
        <ele>74.800003051758</ele>
        <time>2016-01-25T19:45:43.000Z</time>
      </trkpt>
      <trkpt lat="48.87075" lon="2.38815">
        <ele>77</ele>
        <time>2016-01-25T19:46:04.000Z</time>
      </trkpt>
      <trkpt lat="48.8709" lon="2.38832">
        <ele>79.199996948242</ele>
        <time>2016-01-25T19:46:12.000Z</time>
      </trkpt>
      <trkpt lat="48.87103" lon="2.38851">
        <ele>80.400001525879</ele>
        <time>2016-01-25T19:46:20.000Z</time>
      </trkpt>
      <trkpt lat="48.87118" lon="2.38869">
        <ele>81.199996948242</ele>
        <time>2016-01-25T19:46:27.000Z</time>
      </trkpt>
      <trkpt lat="48.87134" lon="2.38884">
        <ele>82</ele>
        <time>2016-01-25T19:46:34.000Z</time>
      </trkpt>
      <trkpt lat="48.87151" lon="2.38901">
        <ele>82.800003051758</ele>
        <time>2016-01-25T19:46:40.000Z</time>
      </trkpt>
      <trkpt lat="48.87168" lon="2.38911">
        <ele>83.800003051758</ele>
        <time>2016-01-25T19:46:50.000Z</time>
      </trkpt>
      <trkpt lat="48.87185" lon="2.38927">
        <ele>84.599998474121</ele>
        <time>2016-01-25T19:46:57.000Z</time>
      </trkpt>
      <trkpt lat="48.87204" lon="2.38926">
        <ele>85.800003051758</ele>
        <time>2016-01-25T19:47:05.000Z</time>
      </trkpt>
      <trkpt lat="48.87223" lon="2.38924">
        <ele>86.800003051758</ele>
        <time>2016-01-25T19:47:11.000Z</time>
      </trkpt>
      <trkpt lat="48.87243" lon="2.38926">
        <ele>88.199996948242</ele>
        <time>2016-01-25T19:47:22.000Z</time>
      </trkpt>
      <trkpt lat="48.87264" lon="2.38934">
        <ele>89.199996948242</ele>
        <time>2016-01-25T19:47:30.000Z</time>
      </trkpt>
      <trkpt lat="48.87271" lon="2.38936">
        <ele>89.599998474121</ele>
        <time>2016-01-25T19:47:34.000Z</time>
      </trkpt>
      <trkpt lat="48.8729" lon="2.38927">
        <ele>91</ele>
        <time>2016-01-25T19:48:10.000Z</time>
      </trkpt>
      <trkpt lat="48.87297" lon="2.38951">
        <ele>91.400001525879</ele>
        <time>2016-01-25T19:48:25.000Z</time>
      </trkpt>
      <trkpt lat="48.87305" lon="2.38962">
        <ele>91.800003051758</ele>
        <time>2016-01-25T19:48:34.000Z</time>
      </trkpt>
      <trkpt lat="48.87319" lon="2.38985">
        <ele>92.400001525879</ele>
        <time>2016-01-25T19:48:56.000Z</time>
      </trkpt>
      <trkpt lat="48.87319" lon="2.38989">
        <ele>92.400001525879</ele>
        <time>2016-01-25T19:48:59.000Z</time>
      </trkpt>
      <trkpt lat="48.87334" lon="2.39005">
        <ele>93.599998474121</ele>
        <time>2016-01-25T19:49:26.000Z</time>
      </trkpt>
      <trkpt lat="48.87347" lon="2.39012">
        <ele>94.800003051758</ele>
        <time>2016-01-25T19:49:39.000Z</time>
      </trkpt>
      <trkpt lat="48.87361" lon="2.39032">
        <ele>96.199996948242</ele>
        <time>2016-01-25T19:49:45.000Z</time>
      </trkpt>
      <trkpt lat="48.87365" lon="2.3904">
        <ele>96.599998474121</ele>
        <time>2016-01-25T19:49:47.000Z</time>
      </trkpt>
      <trkpt lat="48.87379" lon="2.39056">
        <ele>97.400001525879</ele>
        <time>2016-01-25T19:49:53.000Z</time>
      </trkpt>
      <trkpt lat="48.87393" lon="2.39077">
        <ele>98.199996948242</ele>
        <time>2016-01-25T19:50:00.000Z</time>
      </trkpt>
      <trkpt lat="48.87409" lon="2.39093">
        <ele>99.199996948242</ele>
        <time>2016-01-25T19:50:06.000Z</time>
      </trkpt>
      <trkpt lat="48.87426" lon="2.39109">
        <ele>100.19999694824</ele>
        <time>2016-01-25T19:50:14.000Z</time>
      </trkpt>
      <trkpt lat="48.87442" lon="2.39124">
        <ele>101.19999694824</ele>
        <time>2016-01-25T19:50:21.000Z</time>
      </trkpt>
      <trkpt lat="48.87458" lon="2.39138">
        <ele>102.59999847412</ele>
        <time>2016-01-25T19:50:27.000Z</time>
      </trkpt>
      <trkpt lat="48.87473" lon="2.39154">
        <ele>104.19999694824</ele>
        <time>2016-01-25T19:50:31.000Z</time>
      </trkpt>
      <trkpt lat="48.87491" lon="2.3917">
        <ele>105.59999847412</ele>
        <time>2016-01-25T19:50:36.000Z</time>
      </trkpt>
      <trkpt lat="48.87498" lon="2.39181">
        <ele>106.40000152588</ele>
        <time>2016-01-25T19:50:43.000Z</time>
      </trkpt>
      <trkpt lat="48.87496" lon="2.39185">
        <ele>106.40000152588</ele>
        <time>2016-01-25T19:50:50.000Z</time>
      </trkpt>
      <trkpt lat="48.87521" lon="2.39224">
        <ele>109</ele>
        <time>2016-01-25T19:51:18.000Z</time>
      </trkpt>
      <trkpt lat="48.87531" lon="2.39221">
        <ele>109.19999694824</ele>
        <time>2016-01-25T19:51:31.000Z</time>
      </trkpt>
      <trkpt lat="48.87549" lon="2.39233">
        <ele>109.80000305176</ele>
        <time>2016-01-25T19:52:13.000Z</time>
      </trkpt>
      <trkpt lat="48.87546" lon="2.39262">
        <ele>111.19999694824</ele>
        <time>2016-01-25T19:52:23.000Z</time>
      </trkpt>
      <trkpt lat="48.87541" lon="2.3929">
        <ele>112.40000152588</ele>
        <time>2016-01-25T19:52:32.000Z</time>
      </trkpt>
      <trkpt lat="48.87534" lon="2.39317">
        <ele>113</ele>
        <time>2016-01-25T19:52:40.000Z</time>
      </trkpt>
      <trkpt lat="48.87534" lon="2.39346">
        <ele>114.19999694824</ele>
        <time>2016-01-25T19:52:46.000Z</time>
      </trkpt>
      <trkpt lat="48.87534" lon="2.39377">
        <ele>114.80000305176</ele>
        <time>2016-01-25T19:52:52.000Z</time>
      </trkpt>
      <trkpt lat="48.87535" lon="2.39408">
        <ele>115.59999847412</ele>
        <time>2016-01-25T19:52:58.000Z</time>
      </trkpt>
      <trkpt lat="48.87536" lon="2.39438">
        <ele>115.80000305176</ele>
        <time>2016-01-25T19:53:05.000Z</time>
      </trkpt>
      <trkpt lat="48.87535" lon="2.3947">
        <ele>115.80000305176</ele>
        <time>2016-01-25T19:53:11.000Z</time>
      </trkpt>
      <trkpt lat="48.87535" lon="2.39498">
        <ele>115.80000305176</ele>
        <time>2016-01-25T19:53:17.000Z</time>
      </trkpt>
      <trkpt lat="48.87533" lon="2.39527">
        <ele>115.80000305176</ele>
        <time>2016-01-25T19:53:26.000Z</time>
      </trkpt>
      <trkpt lat="48.87536" lon="2.39554">
        <ele>116.40000152588</ele>
        <time>2016-01-25T19:53:35.000Z</time>
      </trkpt>
      <trkpt lat="48.87541" lon="2.39582">
        <ele>117.19999694824</ele>
        <time>2016-01-25T19:53:43.000Z</time>
      </trkpt>
      <trkpt lat="48.87545" lon="2.3961">
        <ele>118.80000305176</ele>
        <time>2016-01-25T19:53:52.000Z</time>
      </trkpt>
      <trkpt lat="48.87549" lon="2.3964">
        <ele>120.59999847412</ele>
        <time>2016-01-25T19:54:00.000Z</time>
      </trkpt>
      <trkpt lat="48.87552" lon="2.39667">
        <ele>122</ele>
        <time>2016-01-25T19:54:08.000Z</time>
      </trkpt>
      <trkpt lat="48.87551" lon="2.39697">
        <ele>123.19999694824</ele>
        <time>2016-01-25T19:54:17.000Z</time>
      </trkpt>
      <trkpt lat="48.87553" lon="2.39726">
        <ele>125</ele>
        <time>2016-01-25T19:54:24.000Z</time>
      </trkpt>
      <trkpt lat="48.87555" lon="2.39754">
        <ele>126.19999694824</ele>
        <time>2016-01-25T19:54:32.000Z</time>
      </trkpt>
      <trkpt lat="48.87557" lon="2.39783">
        <ele>126.19999694824</ele>
        <time>2016-01-25T19:54:42.000Z</time>
      </trkpt>
      <trkpt lat="48.87561" lon="2.39798">
        <ele>126.59999847412</ele>
        <time>2016-01-25T19:54:51.000Z</time>
      </trkpt>
      <trkpt lat="48.87562" lon="2.39802">
        <ele>126.59999847412</ele>
        <time>2016-01-25T19:54:54.000Z</time>
      </trkpt>
      <trkpt lat="48.87556" lon="2.39824">
        <ele>127.80000305176</ele>
        <time>2016-01-25T19:55:31.000Z</time>
      </trkpt>
      <trkpt lat="48.87559" lon="2.39853">
        <ele>128.60000610352</ele>
        <time>2016-01-25T19:55:38.000Z</time>
      </trkpt>
      <trkpt lat="48.87563" lon="2.39873">
        <ele>129</ele>
        <time>2016-01-25T19:55:44.000Z</time>
      </trkpt>
      <trkpt lat="48.87565" lon="2.39901">
        <ele>129</ele>
        <time>2016-01-25T19:55:54.000Z</time>
      </trkpt>
      <trkpt lat="48.87571" lon="2.39929">
        <ele>129.39999389648</ele>
        <time>2016-01-25T19:56:03.000Z</time>
      </trkpt>
      <trkpt lat="48.87575" lon="2.39959">
        <ele>130.39999389648</ele>
        <time>2016-01-25T19:56:10.000Z</time>
      </trkpt>
      <trkpt lat="48.87578" lon="2.39987">
        <ele>130.19999694824</ele>
        <time>2016-01-25T19:56:16.000Z</time>
      </trkpt>
      <trkpt lat="48.87583" lon="2.40017">
        <ele>129.19999694824</ele>
        <time>2016-01-25T19:56:23.000Z</time>
      </trkpt>
      <trkpt lat="48.87593" lon="2.40045">
        <ele>128.19999694824</ele>
        <time>2016-01-25T19:56:35.000Z</time>
      </trkpt>
      <trkpt lat="48.87596" lon="2.40076">
        <ele>127.19999694824</ele>
        <time>2016-01-25T19:56:41.000Z</time>
      </trkpt>
      <trkpt lat="48.876" lon="2.40104">
        <ele>126.19999694824</ele>
        <time>2016-01-25T19:56:46.000Z</time>
      </trkpt>
      <trkpt lat="48.87604" lon="2.40113">
        <ele>125.80000305176</ele>
        <time>2016-01-25T19:56:48.000Z</time>
      </trkpt>
      <trkpt lat="48.8761" lon="2.40141">
        <ele>124.59999847412</ele>
        <time>2016-01-25T19:56:53.000Z</time>
      </trkpt>
      <trkpt lat="48.87614" lon="2.40174">
        <ele>123.40000152588</ele>
        <time>2016-01-25T19:56:58.000Z</time>
      </trkpt>
      <trkpt lat="48.87618" lon="2.40204">
        <ele>122.40000152588</ele>
        <time>2016-01-25T19:57:03.000Z</time>
      </trkpt>
      <trkpt lat="48.87618" lon="2.40238">
        <ele>121</ele>
        <time>2016-01-25T19:57:08.000Z</time>
      </trkpt>
      <trkpt lat="48.8762" lon="2.40271">
        <ele>121.40000152588</ele>
        <time>2016-01-25T19:57:13.000Z</time>
      </trkpt>
      <trkpt lat="48.87625" lon="2.40297">
        <ele>122.40000152588</ele>
        <time>2016-01-25T19:57:19.000Z</time>
      </trkpt>
      <trkpt lat="48.87633" lon="2.40323">
        <ele>123.40000152588</ele>
        <time>2016-01-25T19:57:27.000Z</time>
      </trkpt>
      <trkpt lat="48.87642" lon="2.40349">
        <ele>123.59999847412</ele>
        <time>2016-01-25T19:57:35.000Z</time>
      </trkpt>
      <trkpt lat="48.87654" lon="2.40374">
        <ele>123.80000305176</ele>
        <time>2016-01-25T19:57:42.000Z</time>
      </trkpt>
      <trkpt lat="48.87663" lon="2.40401">
        <ele>123.59999847412</ele>
        <time>2016-01-25T19:57:48.000Z</time>
      </trkpt>
      <trkpt lat="48.87673" lon="2.4043">
        <ele>123.19999694824</ele>
        <time>2016-01-25T19:57:54.000Z</time>
      </trkpt>
      <trkpt lat="48.87682" lon="2.40457">
        <ele>122.59999847412</ele>
        <time>2016-01-25T19:58:00.000Z</time>
      </trkpt>
      <trkpt lat="48.87692" lon="2.4048">
        <ele>122</ele>
        <time>2016-01-25T19:58:06.000Z</time>
      </trkpt>
      <trkpt lat="48.87698" lon="2.40512">
        <ele>121</ele>
        <time>2016-01-25T19:58:13.000Z</time>
      </trkpt>
      <trkpt lat="48.87704" lon="2.40543">
        <ele>119.19999694824</ele>
        <time>2016-01-25T19:58:19.000Z</time>
      </trkpt>
      <trkpt lat="48.87711" lon="2.40571">
        <ele>117.40000152588</ele>
        <time>2016-01-25T19:58:25.000Z</time>
      </trkpt>
      <trkpt lat="48.87714" lon="2.406">
        <ele>117</ele>
        <time>2016-01-25T19:58:32.000Z</time>
      </trkpt>
      <trkpt lat="48.8771" lon="2.40623">
        <ele>117.59999847412</ele>
        <time>2016-01-25T19:58:40.000Z</time>
      </trkpt>
      <trkpt lat="48.87706" lon="2.40626">
        <ele>117.80000305176</ele>
        <time>2016-01-25T19:58:44.000Z</time>
      </trkpt>
      <trkpt lat="48.87705" lon="2.40632">
        <ele>117.80000305176</ele>
        <time>2016-01-25T19:58:48.000Z</time>
      </trkpt>
      <trkpt lat="48.87704" lon="2.40633">
        <ele>118</ele>
        <time>2016-01-25T19:58:50.000Z</time>
      </trkpt>
      <trkpt lat="48.87703" lon="2.40656">
        <ele>118.19999694824</ele>
        <time>2016-01-25T19:59:29.000Z</time>
      </trkpt>
      <trkpt lat="48.87713" lon="2.4068">
        <ele>117.59999847412</ele>
        <time>2016-01-25T19:59:39.000Z</time>
      </trkpt>
      <trkpt lat="48.87725" lon="2.40701">
        <ele>116.80000305176</ele>
        <time>2016-01-25T19:59:45.000Z</time>
      </trkpt>
      <trkpt lat="48.8774" lon="2.40724">
        <ele>116</ele>
        <time>2016-01-25T19:59:50.000Z</time>
      </trkpt>
      <trkpt lat="48.87753" lon="2.40749">
        <ele>115.40000152588</ele>
        <time>2016-01-25T19:59:56.000Z</time>
      </trkpt>
      <trkpt lat="48.87761" lon="2.40774">
        <ele>114.59999847412</ele>
        <time>2016-01-25T20:00:01.000Z</time>
      </trkpt>
      <trkpt lat="48.8777" lon="2.40799">
        <ele>113.59999847412</ele>
        <time>2016-01-25T20:00:06.000Z</time>
      </trkpt>
      <trkpt lat="48.87774" lon="2.40825">
        <ele>113</ele>
        <time>2016-01-25T20:00:12.000Z</time>
      </trkpt>
      <trkpt lat="48.87774" lon="2.40858">
        <ele>112.59999847412</ele>
        <time>2016-01-25T20:00:18.000Z</time>
      </trkpt>
      <trkpt lat="48.8778" lon="2.40887">
        <ele>112.19999694824</ele>
        <time>2016-01-25T20:00:23.000Z</time>
      </trkpt>
      <trkpt lat="48.87786" lon="2.40915">
        <ele>111.59999847412</ele>
        <time>2016-01-25T20:00:28.000Z</time>
      </trkpt>
      <trkpt lat="48.87795" lon="2.40942">
        <ele>112</ele>
        <time>2016-01-25T20:00:33.000Z</time>
      </trkpt>
      <trkpt lat="48.8781" lon="2.40962">
        <ele>111.80000305176</ele>
        <time>2016-01-25T20:00:40.000Z</time>
      </trkpt>
      <trkpt lat="48.87823" lon="2.40983">
        <ele>111.80000305176</ele>
        <time>2016-01-25T20:00:45.000Z</time>
      </trkpt>
      <trkpt lat="48.87834" lon="2.41005">
        <ele>112.19999694824</ele>
        <time>2016-01-25T20:00:49.000Z</time>
      </trkpt>
      <trkpt lat="48.87844" lon="2.41033">
        <ele>114</ele>
        <time>2016-01-25T20:00:54.000Z</time>
      </trkpt>
      <trkpt lat="48.87853" lon="2.4106">
        <ele>115.59999847412</ele>
        <time>2016-01-25T20:00:59.000Z</time>
      </trkpt>
      <trkpt lat="48.87861" lon="2.41087">
        <ele>117</ele>
        <time>2016-01-25T20:01:05.000Z</time>
      </trkpt>
      <trkpt lat="48.87867" lon="2.41117">
        <ele>119.80000305176</ele>
        <time>2016-01-25T20:01:11.000Z</time>
      </trkpt>
      <trkpt lat="48.87879" lon="2.41142">
        <ele>121.19999694824</ele>
        <time>2016-01-25T20:01:16.000Z</time>
      </trkpt>
      <trkpt lat="48.87887" lon="2.4117">
        <ele>123</ele>
        <time>2016-01-25T20:01:23.000Z</time>
      </trkpt>
      <trkpt lat="48.8789" lon="2.41201">
        <ele>122</ele>
        <time>2016-01-25T20:01:30.000Z</time>
      </trkpt>
      <trkpt lat="48.87892" lon="2.4123">
        <ele>120.59999847412</ele>
        <time>2016-01-25T20:01:35.000Z</time>
      </trkpt>
      <trkpt lat="48.87896" lon="2.41258">
        <ele>119.19999694824</ele>
        <time>2016-01-25T20:01:40.000Z</time>
      </trkpt>
      <trkpt lat="48.87902" lon="2.41285">
        <ele>119</ele>
        <time>2016-01-25T20:01:46.000Z</time>
      </trkpt>
      <trkpt lat="48.87908" lon="2.41304">
        <ele>118.40000152588</ele>
        <time>2016-01-25T20:01:55.000Z</time>
      </trkpt>
      <trkpt lat="48.87913" lon="2.41312">
        <ele>117.80000305176</ele>
        <time>2016-01-25T20:01:59.000Z</time>
      </trkpt>
      <trkpt lat="48.87919" lon="2.41341">
        <ele>117</ele>
        <time>2016-01-25T20:02:06.000Z</time>
      </trkpt>
      <trkpt lat="48.87924" lon="2.41368">
        <ele>117.40000152588</ele>
        <time>2016-01-25T20:02:11.000Z</time>
      </trkpt>
      <trkpt lat="48.87931" lon="2.41398">
        <ele>118</ele>
        <time>2016-01-25T20:02:16.000Z</time>
      </trkpt>
      <trkpt lat="48.8794" lon="2.41426">
        <ele>118.40000152588</ele>
        <time>2016-01-25T20:02:21.000Z</time>
      </trkpt>
      <trkpt lat="48.87948" lon="2.41454">
        <ele>119.19999694824</ele>
        <time>2016-01-25T20:02:26.000Z</time>
      </trkpt>
      <trkpt lat="48.87952" lon="2.41484">
        <ele>120.19999694824</ele>
        <time>2016-01-25T20:02:32.000Z</time>
      </trkpt>
      <trkpt lat="48.87961" lon="2.4151">
        <ele>121</ele>
        <time>2016-01-25T20:02:37.000Z</time>
      </trkpt>
      <trkpt lat="48.8797" lon="2.41534">
        <ele>121.40000152588</ele>
        <time>2016-01-25T20:02:41.000Z</time>
      </trkpt>
      <trkpt lat="48.87977" lon="2.4156">
        <ele>122</ele>
        <time>2016-01-25T20:02:46.000Z</time>
      </trkpt>
      <trkpt lat="48.87984" lon="2.4159">
        <ele>122.80000305176</ele>
        <time>2016-01-25T20:02:52.000Z</time>
      </trkpt>
      <trkpt lat="48.87991" lon="2.41616">
        <ele>123.59999847412</ele>
        <time>2016-01-25T20:02:58.000Z</time>
      </trkpt>
      <trkpt lat="48.88" lon="2.41642">
        <ele>124.40000152588</ele>
        <time>2016-01-25T20:03:06.000Z</time>
      </trkpt>
      <trkpt lat="48.88008" lon="2.41669">
        <ele>124.59999847412</ele>
        <time>2016-01-25T20:03:14.000Z</time>
      </trkpt>
      <trkpt lat="48.88015" lon="2.41696">
        <ele>124.40000152588</ele>
        <time>2016-01-25T20:03:20.000Z</time>
      </trkpt>
      <trkpt lat="48.88025" lon="2.41722">
        <ele>124.40000152588</ele>
        <time>2016-01-25T20:03:25.000Z</time>
      </trkpt>
      <trkpt lat="48.88035" lon="2.41749">
        <ele>124.19999694824</ele>
        <time>2016-01-25T20:03:30.000Z</time>
      </trkpt>
      <trkpt lat="48.88041" lon="2.41781">
        <ele>124.40000152588</ele>
        <time>2016-01-25T20:03:36.000Z</time>
      </trkpt>
      <trkpt lat="48.8805" lon="2.4181">
        <ele>124.59999847412</ele>
        <time>2016-01-25T20:03:42.000Z</time>
      </trkpt>
      <trkpt lat="48.8806" lon="2.4184">
        <ele>125</ele>
        <time>2016-01-25T20:03:47.000Z</time>
      </trkpt>
      <trkpt lat="48.8807" lon="2.41869">
        <ele>125.59999847412</ele>
        <time>2016-01-25T20:03:52.000Z</time>
      </trkpt>
      <trkpt lat="48.8808" lon="2.41896">
        <ele>126</ele>
        <time>2016-01-25T20:03:57.000Z</time>
      </trkpt>
      <trkpt lat="48.88089" lon="2.41921">
        <ele>126.40000152588</ele>
        <time>2016-01-25T20:04:02.000Z</time>
      </trkpt>
      <trkpt lat="48.88102" lon="2.41948">
        <ele>127.19999694824</ele>
        <time>2016-01-25T20:04:07.000Z</time>
      </trkpt>
      <trkpt lat="48.8811" lon="2.41974">
        <ele>127.80000305176</ele>
        <time>2016-01-25T20:04:12.000Z</time>
      </trkpt>
      <trkpt lat="48.88117" lon="2.42004">
        <ele>128</ele>
        <time>2016-01-25T20:04:17.000Z</time>
      </trkpt>
      <trkpt lat="48.88123" lon="2.42031">
        <ele>127.40000152588</ele>
        <time>2016-01-25T20:04:22.000Z</time>
      </trkpt>
      <trkpt lat="48.88132" lon="2.4206">
        <ele>127</ele>
        <time>2016-01-25T20:04:27.000Z</time>
      </trkpt>
      <trkpt lat="48.88143" lon="2.42085">
        <ele>126.59999847412</ele>
        <time>2016-01-25T20:04:31.000Z</time>
      </trkpt>
      <trkpt lat="48.88151" lon="2.42111">
        <ele>125.80000305176</ele>
        <time>2016-01-25T20:04:35.000Z</time>
      </trkpt>
      <trkpt lat="48.88158" lon="2.42141">
        <ele>124.80000305176</ele>
        <time>2016-01-25T20:04:40.000Z</time>
      </trkpt>
      <trkpt lat="48.88157" lon="2.42147">
        <ele>124.59999847412</ele>
        <time>2016-01-25T20:04:41.000Z</time>
      </trkpt>
      <trkpt lat="48.88159" lon="2.42158">
        <ele>124.19999694824</ele>
        <time>2016-01-25T20:04:43.000Z</time>
      </trkpt>
      <trkpt lat="48.88167" lon="2.42191">
        <ele>124</ele>
        <time>2016-01-25T20:04:48.000Z</time>
      </trkpt>
      <trkpt lat="48.88171" lon="2.42219">
        <ele>124</ele>
        <time>2016-01-25T20:04:52.000Z</time>
      </trkpt>
      <trkpt lat="48.88174" lon="2.42247">
        <ele>123.59999847412</ele>
        <time>2016-01-25T20:04:56.000Z</time>
      </trkpt>
      <trkpt lat="48.88176" lon="2.42261">
        <ele>123.40000152588</ele>
        <time>2016-01-25T20:04:58.000Z</time>
      </trkpt>
      <trkpt lat="48.88181" lon="2.42293">
        <ele>122.80000305176</ele>
        <time>2016-01-25T20:05:03.000Z</time>
      </trkpt>
      <trkpt lat="48.88189" lon="2.42318">
        <ele>122.40000152588</ele>
        <time>2016-01-25T20:05:07.000Z</time>
      </trkpt>
      <trkpt lat="48.88198" lon="2.42344">
        <ele>122.19999694824</ele>
        <time>2016-01-25T20:05:11.000Z</time>
      </trkpt>
      <trkpt lat="48.88202" lon="2.4235">
        <ele>122.19999694824</ele>
        <time>2016-01-25T20:05:12.000Z</time>
      </trkpt>
      <trkpt lat="48.88211" lon="2.42377">
        <ele>122.80000305176</ele>
        <time>2016-01-25T20:05:16.000Z</time>
      </trkpt>
      <trkpt lat="48.88216" lon="2.42396">
        <ele>123.19999694824</ele>
        <time>2016-01-25T20:05:19.000Z</time>
      </trkpt>
      <trkpt lat="48.88223" lon="2.42429">
        <ele>123.19999694824</ele>
        <time>2016-01-25T20:05:24.000Z</time>
      </trkpt>
      <trkpt lat="48.88233" lon="2.42455">
        <ele>122.59999847412</ele>
        <time>2016-01-25T20:05:28.000Z</time>
      </trkpt>
      <trkpt lat="48.88242" lon="2.42474">
        <ele>122</ele>
        <time>2016-01-25T20:05:31.000Z</time>
      </trkpt>
      <trkpt lat="48.88249" lon="2.42493">
        <ele>121.59999847412</ele>
        <time>2016-01-25T20:05:34.000Z</time>
      </trkpt>
      <trkpt lat="48.88257" lon="2.4252">
        <ele>121.40000152588</ele>
        <time>2016-01-25T20:05:38.000Z</time>
      </trkpt>
      <trkpt lat="48.88267" lon="2.42545">
        <ele>121.19999694824</ele>
        <time>2016-01-25T20:05:42.000Z</time>
      </trkpt>
      <trkpt lat="48.88278" lon="2.42572">
        <ele>121.40000152588</ele>
        <time>2016-01-25T20:05:46.000Z</time>
      </trkpt>
      <trkpt lat="48.88288" lon="2.42596">
        <ele>121</ele>
        <time>2016-01-25T20:05:50.000Z</time>
      </trkpt>
      <trkpt lat="48.88291" lon="2.42602">
        <ele>121</ele>
        <time>2016-01-25T20:05:51.000Z</time>
      </trkpt>
      <trkpt lat="48.88296" lon="2.42613">
        <ele>121</ele>
        <time>2016-01-25T20:05:53.000Z</time>
      </trkpt>
      <trkpt lat="48.88308" lon="2.42638">
        <ele>121</ele>
        <time>2016-01-25T20:05:57.000Z</time>
      </trkpt>
      <trkpt lat="48.88316" lon="2.42658">
        <ele>121</ele>
        <time>2016-01-25T20:06:00.000Z</time>
      </trkpt>
      <trkpt lat="48.88326" lon="2.42684">
        <ele>120.80000305176</ele>
        <time>2016-01-25T20:06:04.000Z</time>
      </trkpt>
      <trkpt lat="48.88335" lon="2.4271">
        <ele>120.40000152588</ele>
        <time>2016-01-25T20:06:08.000Z</time>
      </trkpt>
      <trkpt lat="48.88344" lon="2.42735">
        <ele>120.19999694824</ele>
        <time>2016-01-25T20:06:12.000Z</time>
      </trkpt>
      <trkpt lat="48.88351" lon="2.42753">
        <ele>120</ele>
        <time>2016-01-25T20:06:15.000Z</time>
      </trkpt>
      <trkpt lat="48.88355" lon="2.42764">
        <ele>119.80000305176</ele>
        <time>2016-01-25T20:06:17.000Z</time>
      </trkpt>
      <trkpt lat="48.88366" lon="2.42793">
        <ele>120.19999694824</ele>
        <time>2016-01-25T20:06:22.000Z</time>
      </trkpt>
      <trkpt lat="48.88377" lon="2.42822">
        <ele>120.59999847412</ele>
        <time>2016-01-25T20:06:27.000Z</time>
      </trkpt>
      <trkpt lat="48.88388" lon="2.4285">
        <ele>121.40000152588</ele>
        <time>2016-01-25T20:06:32.000Z</time>
      </trkpt>
      <trkpt lat="48.884" lon="2.42877">
        <ele>122.59999847412</ele>
        <time>2016-01-25T20:06:37.000Z</time>
      </trkpt>
      <trkpt lat="48.88405" lon="2.42888">
        <ele>123.19999694824</ele>
        <time>2016-01-25T20:06:39.000Z</time>
      </trkpt>
      <trkpt lat="48.88415" lon="2.42914">
        <ele>124.19999694824</ele>
        <time>2016-01-25T20:06:44.000Z</time>
      </trkpt>
      <trkpt lat="48.88425" lon="2.42942">
        <ele>123.40000152588</ele>
        <time>2016-01-25T20:06:50.000Z</time>
      </trkpt>
      <trkpt lat="48.88431" lon="2.42959">
        <ele>122.80000305176</ele>
        <time>2016-01-25T20:06:54.000Z</time>
      </trkpt>
      <trkpt lat="48.8844" lon="2.42987">
        <ele>121.80000305176</ele>
        <time>2016-01-25T20:07:01.000Z</time>
      </trkpt>
      <trkpt lat="48.88442" lon="2.42991">
        <ele>121.40000152588</ele>
        <time>2016-01-25T20:07:02.000Z</time>
      </trkpt>
      <trkpt lat="48.88445" lon="2.42999">
        <ele>121</ele>
        <time>2016-01-25T20:07:04.000Z</time>
      </trkpt>
      <trkpt lat="48.88455" lon="2.43026">
        <ele>120.19999694824</ele>
        <time>2016-01-25T20:07:10.000Z</time>
      </trkpt>
      <trkpt lat="48.88463" lon="2.43054">
        <ele>119.19999694824</ele>
        <time>2016-01-25T20:07:16.000Z</time>
      </trkpt>
      <trkpt lat="48.88471" lon="2.43081">
        <ele>118.40000152588</ele>
        <time>2016-01-25T20:07:22.000Z</time>
      </trkpt>
      <trkpt lat="48.88479" lon="2.43106">
        <ele>118.19999694824</ele>
        <time>2016-01-25T20:07:27.000Z</time>
      </trkpt>
      <trkpt lat="48.88487" lon="2.43132">
        <ele>118</ele>
        <time>2016-01-25T20:07:32.000Z</time>
      </trkpt>
      <trkpt lat="48.88491" lon="2.43164">
        <ele>118.80000305176</ele>
        <time>2016-01-25T20:07:38.000Z</time>
      </trkpt>
      <trkpt lat="48.88492" lon="2.43196">
        <ele>119.19999694824</ele>
        <time>2016-01-25T20:07:43.000Z</time>
      </trkpt>
      <trkpt lat="48.88496" lon="2.43224">
        <ele>119.40000152588</ele>
        <time>2016-01-25T20:07:47.000Z</time>
      </trkpt>
      <trkpt lat="48.88497" lon="2.43252">
        <ele>120</ele>
        <time>2016-01-25T20:07:51.000Z</time>
      </trkpt>
      <trkpt lat="48.88497" lon="2.43281">
        <ele>120.40000152588</ele>
        <time>2016-01-25T20:07:55.000Z</time>
      </trkpt>
      <trkpt lat="48.885" lon="2.43311">
        <ele>120.59999847412</ele>
        <time>2016-01-25T20:07:59.000Z</time>
      </trkpt>
      <trkpt lat="48.88505" lon="2.4334">
        <ele>120.59999847412</ele>
        <time>2016-01-25T20:08:03.000Z</time>
      </trkpt>
      <trkpt lat="48.88508" lon="2.4337">
        <ele>120</ele>
        <time>2016-01-25T20:08:07.000Z</time>
      </trkpt>
      <trkpt lat="48.8851" lon="2.43399">
        <ele>119.59999847412</ele>
        <time>2016-01-25T20:08:11.000Z</time>
      </trkpt>
      <trkpt lat="48.88513" lon="2.43428">
        <ele>119.40000152588</ele>
        <time>2016-01-25T20:08:15.000Z</time>
      </trkpt>
      <trkpt lat="48.88517" lon="2.43456">
        <ele>120</ele>
        <time>2016-01-25T20:08:19.000Z</time>
      </trkpt>
      <trkpt lat="48.88522" lon="2.43489">
        <ele>120.80000305176</ele>
        <time>2016-01-25T20:08:24.000Z</time>
      </trkpt>
      <trkpt lat="48.88524" lon="2.43519">
        <ele>120.59999847412</ele>
        <time>2016-01-25T20:08:29.000Z</time>
      </trkpt>
      <trkpt lat="48.88528" lon="2.43548">
        <ele>119.59999847412</ele>
        <time>2016-01-25T20:08:34.000Z</time>
      </trkpt>
      <trkpt lat="48.8853" lon="2.43565">
        <ele>119.19999694824</ele>
        <time>2016-01-25T20:08:37.000Z</time>
      </trkpt>
      <trkpt lat="48.88534" lon="2.4358">
        <ele>118.80000305176</ele>
        <time>2016-01-25T20:08:40.000Z</time>
      </trkpt>
      <trkpt lat="48.88544" lon="2.436">
        <ele>118.19999694824</ele>
        <time>2016-01-25T20:08:47.000Z</time>
      </trkpt>
      <trkpt lat="48.8855" lon="2.43606">
        <ele>118</ele>
        <time>2016-01-25T20:08:51.000Z</time>
      </trkpt>
      <trkpt lat="48.88551" lon="2.43611">
        <ele>118</ele>
        <time>2016-01-25T20:08:56.000Z</time>
      </trkpt>
      <trkpt lat="48.88538" lon="2.43614">
        <ele>118.19999694824</ele>
        <time>2016-01-25T20:10:13.000Z</time>
      </trkpt>
      <trkpt lat="48.88539" lon="2.43626">
        <ele>118.19999694824</ele>
        <time>2016-01-25T20:10:23.000Z</time>
      </trkpt>
      <trkpt lat="48.88531" lon="2.43645">
        <ele>118</ele>
        <time>2016-01-25T20:10:52.000Z</time>
      </trkpt>
      <trkpt lat="48.88524" lon="2.43671">
        <ele>118</ele>
        <time>2016-01-25T20:10:59.000Z</time>
      </trkpt>
      <trkpt lat="48.88514" lon="2.43695">
        <ele>118.59999847412</ele>
        <time>2016-01-25T20:11:08.000Z</time>
      </trkpt>
      <trkpt lat="48.88507" lon="2.43724">
        <ele>119.19999694824</ele>
        <time>2016-01-25T20:11:15.000Z</time>
      </trkpt>
      <trkpt lat="48.88497" lon="2.43754">
        <ele>119.59999847412</ele>
        <time>2016-01-25T20:11:21.000Z</time>
      </trkpt>
      <trkpt lat="48.8849" lon="2.43783">
        <ele>119.40000152588</ele>
        <time>2016-01-25T20:11:26.000Z</time>
      </trkpt>
      <trkpt lat="48.88481" lon="2.43811">
        <ele>119</ele>
        <time>2016-01-25T20:11:31.000Z</time>
      </trkpt>
      <trkpt lat="48.88476" lon="2.43841">
        <ele>118.59999847412</ele>
        <time>2016-01-25T20:11:36.000Z</time>
      </trkpt>
      <trkpt lat="48.88468" lon="2.43871">
        <ele>118.80000305176</ele>
        <time>2016-01-25T20:11:41.000Z</time>
      </trkpt>
      <trkpt lat="48.88459" lon="2.43902">
        <ele>118.40000152588</ele>
        <time>2016-01-25T20:11:46.000Z</time>
      </trkpt>
      <trkpt lat="48.88449" lon="2.43926">
        <ele>118.19999694824</ele>
        <time>2016-01-25T20:11:50.000Z</time>
      </trkpt>
      <trkpt lat="48.88439" lon="2.43951">
        <ele>118</ele>
        <time>2016-01-25T20:11:54.000Z</time>
      </trkpt>
      <trkpt lat="48.88434" lon="2.43964">
        <ele>118.19999694824</ele>
        <time>2016-01-25T20:11:56.000Z</time>
      </trkpt>
      <trkpt lat="48.88426" lon="2.43989">
        <ele>118.40000152588</ele>
        <time>2016-01-25T20:12:00.000Z</time>
      </trkpt>
      <trkpt lat="48.88422" lon="2.44002">
        <ele>118.40000152588</ele>
        <time>2016-01-25T20:12:02.000Z</time>
      </trkpt>
      <trkpt lat="48.88417" lon="2.44014">
        <ele>118.40000152588</ele>
        <time>2016-01-25T20:12:04.000Z</time>
      </trkpt>
      <trkpt lat="48.88412" lon="2.44031">
        <ele>118.19999694824</ele>
        <time>2016-01-25T20:12:07.000Z</time>
      </trkpt>
      <trkpt lat="48.88409" lon="2.44041">
        <ele>118.19999694824</ele>
        <time>2016-01-25T20:12:09.000Z</time>
      </trkpt>
      <trkpt lat="48.88404" lon="2.44054">
        <ele>118.19999694824</ele>
        <time>2016-01-25T20:12:13.000Z</time>
      </trkpt>
      <trkpt lat="48.884" lon="2.44058">
        <ele>118</ele>
        <time>2016-01-25T20:12:16.000Z</time>
      </trkpt>
      <trkpt lat="48.88393" lon="2.44058">
        <ele>118.19999694824</ele>
        <time>2016-01-25T20:13:56.000Z</time>
      </trkpt>
      <trkpt lat="48.88394" lon="2.4406">
        <ele>118.19999694824</ele>
        <time>2016-01-25T20:16:33.000Z</time>
      </trkpt>
      <trkpt lat="48.88392" lon="2.4406">
        <ele>118.19999694824</ele>
        <time>2016-01-25T20:18:56.000Z</time>
      </trkpt>
      <trkpt lat="48.8839" lon="2.44049">
        <ele>118.40000152588</ele>
        <time>2016-01-25T20:19:50.000Z</time>
      </trkpt>
      <trkpt lat="48.88379" lon="2.44049">
        <ele>118.59999847412</ele>
        <time>2016-01-25T20:20:33.000Z</time>
      </trkpt>
      <trkpt lat="48.88362" lon="2.44048">
        <ele>118.80000305176</ele>
        <time>2016-01-25T20:21:12.000Z</time>
      </trkpt>
      <trkpt lat="48.88358" lon="2.44046">
        <ele>118.80000305176</ele>
        <time>2016-01-25T20:21:15.000Z</time>
      </trkpt>
      <trkpt lat="48.88344" lon="2.44046">
        <ele>119</ele>
        <time>2016-01-25T20:21:48.000Z</time>
      </trkpt>
      <trkpt lat="48.88328" lon="2.44034">
        <ele>119.59999847412</ele>
        <time>2016-01-25T20:22:02.000Z</time>
      </trkpt>
      <trkpt lat="48.88311" lon="2.44023">
        <ele>120</ele>
        <time>2016-01-25T20:22:13.000Z</time>
      </trkpt>
      <trkpt lat="48.88294" lon="2.44008">
        <ele>120.59999847412</ele>
        <time>2016-01-25T20:22:17.000Z</time>
      </trkpt>
      <trkpt lat="48.88274" lon="2.43997">
        <ele>121</ele>
        <time>2016-01-25T20:22:21.000Z</time>
      </trkpt>
      <trkpt lat="48.88257" lon="2.43984">
        <ele>120.59999847412</ele>
        <time>2016-01-25T20:22:25.000Z</time>
      </trkpt>
      <trkpt lat="48.88238" lon="2.43972">
        <ele>120</ele>
        <time>2016-01-25T20:22:31.000Z</time>
      </trkpt>
      <trkpt lat="48.88218" lon="2.4396">
        <ele>119.59999847412</ele>
        <time>2016-01-25T20:22:37.000Z</time>
      </trkpt>
      <trkpt lat="48.882" lon="2.43947">
        <ele>119</ele>
        <time>2016-01-25T20:22:44.000Z</time>
      </trkpt>
      <trkpt lat="48.88199" lon="2.43937">
        <ele>119</ele>
        <time>2016-01-25T20:23:10.000Z</time>
      </trkpt>
      <trkpt lat="48.88184" lon="2.43921">
        <ele>119</ele>
        <time>2016-01-25T20:23:18.000Z</time>
      </trkpt>
      <trkpt lat="48.88168" lon="2.43901">
        <ele>119.40000152588</ele>
        <time>2016-01-25T20:23:23.000Z</time>
      </trkpt>
      <trkpt lat="48.88155" lon="2.43879">
        <ele>119.40000152588</ele>
        <time>2016-01-25T20:23:28.000Z</time>
      </trkpt>
      <trkpt lat="48.88139" lon="2.43856">
        <ele>119.59999847412</ele>
        <time>2016-01-25T20:23:33.000Z</time>
      </trkpt>
      <trkpt lat="48.88127" lon="2.43833">
        <ele>119.80000305176</ele>
        <time>2016-01-25T20:23:37.000Z</time>
      </trkpt>
      <trkpt lat="48.88115" lon="2.4381">
        <ele>119.80000305176</ele>
        <time>2016-01-25T20:23:41.000Z</time>
      </trkpt>
      <trkpt lat="48.88103" lon="2.4378">
        <ele>120</ele>
        <time>2016-01-25T20:23:46.000Z</time>
      </trkpt>
      <trkpt lat="48.88093" lon="2.43755">
        <ele>120</ele>
        <time>2016-01-25T20:23:50.000Z</time>
      </trkpt>
      <trkpt lat="48.88087" lon="2.4375">
        <ele>120</ele>
        <time>2016-01-25T20:23:51.000Z</time>
      </trkpt>
      <trkpt lat="48.88075" lon="2.43727">
        <ele>120.19999694824</ele>
        <time>2016-01-25T20:23:55.000Z</time>
      </trkpt>
      <trkpt lat="48.88062" lon="2.437">
        <ele>120.59999847412</ele>
        <time>2016-01-25T20:24:00.000Z</time>
      </trkpt>
      <trkpt lat="48.88051" lon="2.43673">
        <ele>121</ele>
        <time>2016-01-25T20:24:05.000Z</time>
      </trkpt>
      <trkpt lat="48.88049" lon="2.43668">
        <ele>121</ele>
        <time>2016-01-25T20:24:06.000Z</time>
      </trkpt>
      <trkpt lat="48.88038" lon="2.43646">
        <ele>121</ele>
        <time>2016-01-25T20:24:10.000Z</time>
      </trkpt>
      <trkpt lat="48.88033" lon="2.43635">
        <ele>121</ele>
        <time>2016-01-25T20:24:12.000Z</time>
      </trkpt>
      <trkpt lat="48.88021" lon="2.43608">
        <ele>121</ele>
        <time>2016-01-25T20:24:17.000Z</time>
      </trkpt>
      <trkpt lat="48.88019" lon="2.43602">
        <ele>120.80000305176</ele>
        <time>2016-01-25T20:24:18.000Z</time>
      </trkpt>
      <trkpt lat="48.88008" lon="2.43573">
        <ele>120.40000152588</ele>
        <time>2016-01-25T20:24:23.000Z</time>
      </trkpt>
      <trkpt lat="48.87997" lon="2.4355">
        <ele>119.80000305176</ele>
        <time>2016-01-25T20:24:27.000Z</time>
      </trkpt>
      <trkpt lat="48.87986" lon="2.43528">
        <ele>119.40000152588</ele>
        <time>2016-01-25T20:24:31.000Z</time>
      </trkpt>
      <trkpt lat="48.87976" lon="2.43505">
        <ele>119.19999694824</ele>
        <time>2016-01-25T20:24:35.000Z</time>
      </trkpt>
      <trkpt lat="48.87969" lon="2.43488">
        <ele>118.80000305176</ele>
        <time>2016-01-25T20:24:38.000Z</time>
      </trkpt>
      <trkpt lat="48.87958" lon="2.43464">
        <ele>118.19999694824</ele>
        <time>2016-01-25T20:24:42.000Z</time>
      </trkpt>
      <trkpt lat="48.87949" lon="2.43441">
        <ele>117.59999847412</ele>
        <time>2016-01-25T20:24:46.000Z</time>
      </trkpt>
      <trkpt lat="48.8794" lon="2.4341">
        <ele>117.19999694824</ele>
        <time>2016-01-25T20:24:51.000Z</time>
      </trkpt>
      <trkpt lat="48.87931" lon="2.43381">
        <ele>117.59999847412</ele>
        <time>2016-01-25T20:24:56.000Z</time>
      </trkpt>
      <trkpt lat="48.87921" lon="2.43352">
        <ele>118</ele>
        <time>2016-01-25T20:25:01.000Z</time>
      </trkpt>
      <trkpt lat="48.8792" lon="2.43347">
        <ele>118.19999694824</ele>
        <time>2016-01-25T20:25:02.000Z</time>
      </trkpt>
      <trkpt lat="48.87912" lon="2.4332">
        <ele>118.40000152588</ele>
        <time>2016-01-25T20:25:07.000Z</time>
      </trkpt>
      <trkpt lat="48.87908" lon="2.43309">
        <ele>118.59999847412</ele>
        <time>2016-01-25T20:25:09.000Z</time>
      </trkpt>
      <trkpt lat="48.87898" lon="2.43281">
        <ele>118.40000152588</ele>
        <time>2016-01-25T20:25:14.000Z</time>
      </trkpt>
      <trkpt lat="48.87892" lon="2.43262">
        <ele>118.40000152588</ele>
        <time>2016-01-25T20:25:17.000Z</time>
      </trkpt>
      <trkpt lat="48.87884" lon="2.43234">
        <ele>118.19999694824</ele>
        <time>2016-01-25T20:25:21.000Z</time>
      </trkpt>
      <trkpt lat="48.8788" lon="2.43213">
        <ele>117.80000305176</ele>
        <time>2016-01-25T20:25:24.000Z</time>
      </trkpt>
      <trkpt lat="48.87874" lon="2.43184">
        <ele>117.40000152588</ele>
        <time>2016-01-25T20:25:28.000Z</time>
      </trkpt>
      <trkpt lat="48.87867" lon="2.43155">
        <ele>117.19999694824</ele>
        <time>2016-01-25T20:25:32.000Z</time>
      </trkpt>
      <trkpt lat="48.87864" lon="2.43128">
        <ele>117.19999694824</ele>
        <time>2016-01-25T20:25:36.000Z</time>
      </trkpt>
      <trkpt lat="48.87861" lon="2.43095">
        <ele>117.19999694824</ele>
        <time>2016-01-25T20:25:41.000Z</time>
      </trkpt>
      <trkpt lat="48.87853" lon="2.43064">
        <ele>117</ele>
        <time>2016-01-25T20:25:46.000Z</time>
      </trkpt>
      <trkpt lat="48.87853" lon="2.43058">
        <ele>117</ele>
        <time>2016-01-25T20:25:47.000Z</time>
      </trkpt>
      <trkpt lat="48.87848" lon="2.4303">
        <ele>117</ele>
        <time>2016-01-25T20:25:51.000Z</time>
      </trkpt>
      <trkpt lat="48.87847" lon="2.43023">
        <ele>117</ele>
        <time>2016-01-25T20:25:52.000Z</time>
      </trkpt>
      <trkpt lat="48.87845" lon="2.42991">
        <ele>117</ele>
        <time>2016-01-25T20:25:57.000Z</time>
      </trkpt>
      <trkpt lat="48.8784" lon="2.42964">
        <ele>117</ele>
        <time>2016-01-25T20:26:01.000Z</time>
      </trkpt>
      <trkpt lat="48.87838" lon="2.42951">
        <ele>117</ele>
        <time>2016-01-25T20:26:03.000Z</time>
      </trkpt>
      <trkpt lat="48.87835" lon="2.42924">
        <ele>117</ele>
        <time>2016-01-25T20:26:07.000Z</time>
      </trkpt>
      <trkpt lat="48.87836" lon="2.42918">
        <ele>117</ele>
        <time>2016-01-25T20:26:08.000Z</time>
      </trkpt>
      <trkpt lat="48.87837" lon="2.42884">
        <ele>116.80000305176</ele>
        <time>2016-01-25T20:26:13.000Z</time>
      </trkpt>
      <trkpt lat="48.87837" lon="2.42858">
        <ele>116.80000305176</ele>
        <time>2016-01-25T20:26:17.000Z</time>
      </trkpt>
      <trkpt lat="48.87837" lon="2.42846">
        <ele>116.80000305176</ele>
        <time>2016-01-25T20:26:19.000Z</time>
      </trkpt>
      <trkpt lat="48.87838" lon="2.42834">
        <ele>116.80000305176</ele>
        <time>2016-01-25T20:26:21.000Z</time>
      </trkpt>
      <trkpt lat="48.87838" lon="2.42807">
        <ele>116.59999847412</ele>
        <time>2016-01-25T20:26:25.000Z</time>
      </trkpt>
      <trkpt lat="48.87838" lon="2.42785">
        <ele>116.59999847412</ele>
        <time>2016-01-25T20:26:28.000Z</time>
      </trkpt>
      <trkpt lat="48.87837" lon="2.42756">
        <ele>116.59999847412</ele>
        <time>2016-01-25T20:26:32.000Z</time>
      </trkpt>
      <trkpt lat="48.87837" lon="2.42741">
        <ele>116.59999847412</ele>
        <time>2016-01-25T20:26:34.000Z</time>
      </trkpt>
      <trkpt lat="48.87838" lon="2.42709">
        <ele>116.80000305176</ele>
        <time>2016-01-25T20:26:39.000Z</time>
      </trkpt>
      <trkpt lat="48.87838" lon="2.42704">
        <ele>116.80000305176</ele>
        <time>2016-01-25T20:26:40.000Z</time>
      </trkpt>
      <trkpt lat="48.87839" lon="2.4269">
        <ele>116.80000305176</ele>
        <time>2016-01-25T20:26:43.000Z</time>
      </trkpt>
      <trkpt lat="48.87841" lon="2.42671">
        <ele>116.80000305176</ele>
        <time>2016-01-25T20:26:47.000Z</time>
      </trkpt>
      <trkpt lat="48.87843" lon="2.42642">
        <ele>116.59999847412</ele>
        <time>2016-01-25T20:26:53.000Z</time>
      </trkpt>
      <trkpt lat="48.87843" lon="2.42632">
        <ele>116.59999847412</ele>
        <time>2016-01-25T20:26:55.000Z</time>
      </trkpt>
      <trkpt lat="48.87844" lon="2.42621">
        <ele>116.80000305176</ele>
        <time>2016-01-25T20:26:57.000Z</time>
      </trkpt>
      <trkpt lat="48.87844" lon="2.42592">
        <ele>116.59999847412</ele>
        <time>2016-01-25T20:27:02.000Z</time>
      </trkpt>
      <trkpt lat="48.87844" lon="2.42586">
        <ele>116.59999847412</ele>
        <time>2016-01-25T20:27:03.000Z</time>
      </trkpt>
      <trkpt lat="48.87843" lon="2.42555">
        <ele>116.40000152588</ele>
        <time>2016-01-25T20:27:09.000Z</time>
      </trkpt>
      <trkpt lat="48.8784" lon="2.42527">
        <ele>116.19999694824</ele>
        <time>2016-01-25T20:27:14.000Z</time>
      </trkpt>
      <trkpt lat="48.8784" lon="2.42498">
        <ele>116.19999694824</ele>
        <time>2016-01-25T20:27:19.000Z</time>
      </trkpt>
      <trkpt lat="48.87839" lon="2.4247">
        <ele>116.40000152588</ele>
        <time>2016-01-25T20:27:24.000Z</time>
      </trkpt>
      <trkpt lat="48.87838" lon="2.42439">
        <ele>116.40000152588</ele>
        <time>2016-01-25T20:27:30.000Z</time>
      </trkpt>
      <trkpt lat="48.87839" lon="2.42411">
        <ele>116.40000152588</ele>
        <time>2016-01-25T20:27:36.000Z</time>
      </trkpt>
      <trkpt lat="48.87842" lon="2.42384">
        <ele>116.19999694824</ele>
        <time>2016-01-25T20:27:42.000Z</time>
      </trkpt>
      <trkpt lat="48.87841" lon="2.42354">
        <ele>115.80000305176</ele>
        <time>2016-01-25T20:27:48.000Z</time>
      </trkpt>
      <trkpt lat="48.8784" lon="2.42323">
        <ele>115.59999847412</ele>
        <time>2016-01-25T20:27:54.000Z</time>
      </trkpt>
      <trkpt lat="48.87842" lon="2.42293">
        <ele>116.59999847412</ele>
        <time>2016-01-25T20:28:00.000Z</time>
      </trkpt>
      <trkpt lat="48.87841" lon="2.42265">
        <ele>117.59999847412</ele>
        <time>2016-01-25T20:28:08.000Z</time>
      </trkpt>
      <trkpt lat="48.87841" lon="2.42235">
        <ele>118.40000152588</ele>
        <time>2016-01-25T20:28:36.000Z</time>
      </trkpt>
      <trkpt lat="48.8784" lon="2.42203">
        <ele>119.19999694824</ele>
        <time>2016-01-25T20:28:42.000Z</time>
      </trkpt>
      <trkpt lat="48.87839" lon="2.42174">
        <ele>119.80000305176</ele>
        <time>2016-01-25T20:28:47.000Z</time>
      </trkpt>
      <trkpt lat="48.87837" lon="2.42145">
        <ele>119.80000305176</ele>
        <time>2016-01-25T20:28:52.000Z</time>
      </trkpt>
      <trkpt lat="48.87837" lon="2.42117">
        <ele>118</ele>
        <time>2016-01-25T20:28:57.000Z</time>
      </trkpt>
      <trkpt lat="48.87833" lon="2.42086">
        <ele>116.19999694824</ele>
        <time>2016-01-25T20:29:02.000Z</time>
      </trkpt>
      <trkpt lat="48.87832" lon="2.42055">
        <ele>116.59999847412</ele>
        <time>2016-01-25T20:29:07.000Z</time>
      </trkpt>
      <trkpt lat="48.87828" lon="2.42024">
        <ele>116.59999847412</ele>
        <time>2016-01-25T20:29:12.000Z</time>
      </trkpt>
      <trkpt lat="48.87826" lon="2.41991">
        <ele>116.59999847412</ele>
        <time>2016-01-25T20:29:17.000Z</time>
      </trkpt>
      <trkpt lat="48.87824" lon="2.41963">
        <ele>116</ele>
        <time>2016-01-25T20:29:21.000Z</time>
      </trkpt>
      <trkpt lat="48.87821" lon="2.41934">
        <ele>116.40000152588</ele>
        <time>2016-01-25T20:29:25.000Z</time>
      </trkpt>
      <trkpt lat="48.87818" lon="2.41907">
        <ele>116.59999847412</ele>
        <time>2016-01-25T20:29:29.000Z</time>
      </trkpt>
      <trkpt lat="48.87813" lon="2.41875">
        <ele>117</ele>
        <time>2016-01-25T20:29:34.000Z</time>
      </trkpt>
      <trkpt lat="48.87813" lon="2.41862">
        <ele>117.40000152588</ele>
        <time>2016-01-25T20:29:36.000Z</time>
      </trkpt>
      <trkpt lat="48.87811" lon="2.4183">
        <ele>118.40000152588</ele>
        <time>2016-01-25T20:29:41.000Z</time>
      </trkpt>
      <trkpt lat="48.87807" lon="2.41802">
        <ele>118.59999847412</ele>
        <time>2016-01-25T20:29:45.000Z</time>
      </trkpt>
      <trkpt lat="48.87806" lon="2.41795">
        <ele>118.59999847412</ele>
        <time>2016-01-25T20:29:46.000Z</time>
      </trkpt>
      <trkpt lat="48.87802" lon="2.41773">
        <ele>118.59999847412</ele>
        <time>2016-01-25T20:29:50.000Z</time>
      </trkpt>
      <trkpt lat="48.87801" lon="2.4176">
        <ele>118.19999694824</ele>
        <time>2016-01-25T20:29:53.000Z</time>
      </trkpt>
      <trkpt lat="48.878" lon="2.41729">
        <ele>118.40000152588</ele>
        <time>2016-01-25T20:29:59.000Z</time>
      </trkpt>
      <trkpt lat="48.8779" lon="2.41703">
        <ele>119.19999694824</ele>
        <time>2016-01-25T20:30:04.000Z</time>
      </trkpt>
      <trkpt lat="48.87787" lon="2.41697">
        <ele>119.19999694824</ele>
        <time>2016-01-25T20:30:05.000Z</time>
      </trkpt>
      <trkpt lat="48.87779" lon="2.41669">
        <ele>119.80000305176</ele>
        <time>2016-01-25T20:30:10.000Z</time>
      </trkpt>
      <trkpt lat="48.87768" lon="2.41643">
        <ele>120.19999694824</ele>
        <time>2016-01-25T20:30:15.000Z</time>
      </trkpt>
      <trkpt lat="48.87755" lon="2.4162">
        <ele>120.40000152588</ele>
        <time>2016-01-25T20:30:20.000Z</time>
      </trkpt>
      <trkpt lat="48.87744" lon="2.41592">
        <ele>120.59999847412</ele>
        <time>2016-01-25T20:30:25.000Z</time>
      </trkpt>
      <trkpt lat="48.87736" lon="2.41561">
        <ele>121</ele>
        <time>2016-01-25T20:30:30.000Z</time>
      </trkpt>
      <trkpt lat="48.8773" lon="2.41542">
        <ele>121.40000152588</ele>
        <time>2016-01-25T20:30:33.000Z</time>
      </trkpt>
      <trkpt lat="48.8772" lon="2.41519">
        <ele>121.80000305176</ele>
        <time>2016-01-25T20:30:37.000Z</time>
      </trkpt>
      <trkpt lat="48.8771" lon="2.41493">
        <ele>122.19999694824</ele>
        <time>2016-01-25T20:30:41.000Z</time>
      </trkpt>
      <trkpt lat="48.87706" lon="2.41483">
        <ele>122.19999694824</ele>
        <time>2016-01-25T20:30:43.000Z</time>
      </trkpt>
      <trkpt lat="48.87699" lon="2.41461">
        <ele>122.19999694824</ele>
        <time>2016-01-25T20:30:48.000Z</time>
      </trkpt>
      <trkpt lat="48.87693" lon="2.41441">
        <ele>122</ele>
        <time>2016-01-25T20:30:53.000Z</time>
      </trkpt>
      <trkpt lat="48.87688" lon="2.41428">
        <ele>122</ele>
        <time>2016-01-25T20:30:56.000Z</time>
      </trkpt>
      <trkpt lat="48.87682" lon="2.41413">
        <ele>121.80000305176</ele>
        <time>2016-01-25T20:30:59.000Z</time>
      </trkpt>
      <trkpt lat="48.87671" lon="2.41387">
        <ele>121.19999694824</ele>
        <time>2016-01-25T20:31:05.000Z</time>
      </trkpt>
      <trkpt lat="48.87661" lon="2.41362">
        <ele>120.59999847412</ele>
        <time>2016-01-25T20:31:13.000Z</time>
      </trkpt>
      <trkpt lat="48.87646" lon="2.41345">
        <ele>120.19999694824</ele>
        <time>2016-01-25T20:31:19.000Z</time>
      </trkpt>
      <trkpt lat="48.87629" lon="2.41353">
        <ele>119.80000305176</ele>
        <time>2016-01-25T20:31:26.000Z</time>
      </trkpt>
      <trkpt lat="48.87614" lon="2.41372">
        <ele>119.19999694824</ele>
        <time>2016-01-25T20:31:33.000Z</time>
      </trkpt>
      <trkpt lat="48.87598" lon="2.41386">
        <ele>119</ele>
        <time>2016-01-25T20:31:39.000Z</time>
      </trkpt>
      <trkpt lat="48.87582" lon="2.41402">
        <ele>118.40000152588</ele>
        <time>2016-01-25T20:31:46.000Z</time>
      </trkpt>
      <trkpt lat="48.87567" lon="2.41424">
        <ele>117.40000152588</ele>
        <time>2016-01-25T20:31:53.000Z</time>
      </trkpt>
      <trkpt lat="48.87553" lon="2.41448">
        <ele>116.80000305176</ele>
        <time>2016-01-25T20:31:59.000Z</time>
      </trkpt>
      <trkpt lat="48.87539" lon="2.41468">
        <ele>116.40000152588</ele>
        <time>2016-01-25T20:32:04.000Z</time>
      </trkpt>
      <trkpt lat="48.87525" lon="2.41486">
        <ele>116</ele>
        <time>2016-01-25T20:32:10.000Z</time>
      </trkpt>
      <trkpt lat="48.8751" lon="2.41508">
        <ele>116</ele>
        <time>2016-01-25T20:32:17.000Z</time>
      </trkpt>
      <trkpt lat="48.87496" lon="2.41528">
        <ele>116</ele>
        <time>2016-01-25T20:32:24.000Z</time>
      </trkpt>
      <trkpt lat="48.87479" lon="2.41534">
        <ele>116</ele>
        <time>2016-01-25T20:32:32.000Z</time>
      </trkpt>
      <trkpt lat="48.87477" lon="2.41534">
        <ele>115.80000305176</ele>
        <time>2016-01-25T20:32:33.000Z</time>
      </trkpt>
      <trkpt lat="48.87459" lon="2.41542">
        <ele>115.40000152588</ele>
        <time>2016-01-25T20:32:41.000Z</time>
      </trkpt>
      <trkpt lat="48.87439" lon="2.41552">
        <ele>115</ele>
        <time>2016-01-25T20:32:47.000Z</time>
      </trkpt>
      <trkpt lat="48.87421" lon="2.41561">
        <ele>114.40000152588</ele>
        <time>2016-01-25T20:32:52.000Z</time>
      </trkpt>
      <trkpt lat="48.87405" lon="2.41572">
        <ele>114.40000152588</ele>
        <time>2016-01-25T20:32:57.000Z</time>
      </trkpt>
      <trkpt lat="48.87391" lon="2.41595">
        <ele>114.19999694824</ele>
        <time>2016-01-25T20:33:04.000Z</time>
      </trkpt>
      <trkpt lat="48.8739" lon="2.41602">
        <ele>114.19999694824</ele>
        <time>2016-01-25T20:33:06.000Z</time>
      </trkpt>
      <trkpt lat="48.87397" lon="2.41616">
        <ele>114</ele>
        <time>2016-01-25T20:33:10.000Z</time>
      </trkpt>
      <trkpt lat="48.87414" lon="2.41636">
        <ele>114</ele>
        <time>2016-01-25T20:33:16.000Z</time>
      </trkpt>
      <trkpt lat="48.87428" lon="2.41656">
        <ele>114</ele>
        <time>2016-01-25T20:33:22.000Z</time>
      </trkpt>
      <trkpt lat="48.87442" lon="2.41678">
        <ele>114</ele>
        <time>2016-01-25T20:33:29.000Z</time>
      </trkpt>
      <trkpt lat="48.87452" lon="2.41696">
        <ele>114</ele>
        <time>2016-01-25T20:33:34.000Z</time>
      </trkpt>
      <trkpt lat="48.87446" lon="2.41717">
        <ele>114</ele>
        <time>2016-01-25T20:33:39.000Z</time>
      </trkpt>
      <trkpt lat="48.87438" lon="2.41745">
        <ele>114</ele>
        <time>2016-01-25T20:33:45.000Z</time>
      </trkpt>
      <trkpt lat="48.87428" lon="2.41773">
        <ele>113.59999847412</ele>
        <time>2016-01-25T20:33:51.000Z</time>
      </trkpt>
      <trkpt lat="48.8742" lon="2.41798">
        <ele>113.19999694824</ele>
        <time>2016-01-25T20:33:56.000Z</time>
      </trkpt>
      <trkpt lat="48.87411" lon="2.41825">
        <ele>112.19999694824</ele>
        <time>2016-01-25T20:34:02.000Z</time>
      </trkpt>
      <trkpt lat="48.87405" lon="2.41846">
        <ele>111.59999847412</ele>
        <time>2016-01-25T20:34:10.000Z</time>
      </trkpt>
      <trkpt lat="48.87396" lon="2.41871">
        <ele>111</ele>
        <time>2016-01-25T20:34:23.000Z</time>
      </trkpt>
      <trkpt lat="48.87382" lon="2.41894">
        <ele>109.19999694824</ele>
        <time>2016-01-25T20:34:32.000Z</time>
      </trkpt>
      <trkpt lat="48.87371" lon="2.41916">
        <ele>107.80000305176</ele>
        <time>2016-01-25T20:34:39.000Z</time>
      </trkpt>
      <trkpt lat="48.87361" lon="2.41939">
        <ele>106.80000305176</ele>
        <time>2016-01-25T20:34:46.000Z</time>
      </trkpt>
      <trkpt lat="48.87351" lon="2.41964">
        <ele>106.19999694824</ele>
        <time>2016-01-25T20:34:54.000Z</time>
      </trkpt>
      <trkpt lat="48.87335" lon="2.41982">
        <ele>105.19999694824</ele>
        <time>2016-01-25T20:35:03.000Z</time>
      </trkpt>
      <trkpt lat="48.87318" lon="2.41988">
        <ele>105</ele>
        <time>2016-01-25T20:35:12.000Z</time>
      </trkpt>
      <trkpt lat="48.87321" lon="2.41997">
        <ele>105.19999694824</ele>
        <time>2016-01-25T20:35:50.000Z</time>
      </trkpt>
      <trkpt lat="48.87336" lon="2.42015">
        <ele>104.59999847412</ele>
        <time>2016-01-25T20:35:57.000Z</time>
      </trkpt>
      <trkpt lat="48.87352" lon="2.42031">
        <ele>104</ele>
        <time>2016-01-25T20:36:03.000Z</time>
      </trkpt>
      <trkpt lat="48.87372" lon="2.42047">
        <ele>104</ele>
        <time>2016-01-25T20:36:08.000Z</time>
      </trkpt>
      <trkpt lat="48.87387" lon="2.42062">
        <ele>104</ele>
        <time>2016-01-25T20:36:13.000Z</time>
      </trkpt>
      <trkpt lat="48.87401" lon="2.4208">
        <ele>103.80000305176</ele>
        <time>2016-01-25T20:36:18.000Z</time>
      </trkpt>
      <trkpt lat="48.87416" lon="2.42098">
        <ele>103.80000305176</ele>
        <time>2016-01-25T20:36:23.000Z</time>
      </trkpt>
      <trkpt lat="48.87434" lon="2.42117">
        <ele>104</ele>
        <time>2016-01-25T20:36:27.000Z</time>
      </trkpt>
      <trkpt lat="48.8745" lon="2.42137">
        <ele>104</ele>
        <time>2016-01-25T20:36:32.000Z</time>
      </trkpt>
      <trkpt lat="48.87465" lon="2.42155">
        <ele>104</ele>
        <time>2016-01-25T20:36:37.000Z</time>
      </trkpt>
      <trkpt lat="48.87482" lon="2.42171">
        <ele>104.40000152588</ele>
        <time>2016-01-25T20:36:42.000Z</time>
      </trkpt>
      <trkpt lat="48.87499" lon="2.42188">
        <ele>105</ele>
        <time>2016-01-25T20:36:47.000Z</time>
      </trkpt>
      <trkpt lat="48.87515" lon="2.42204">
        <ele>105.59999847412</ele>
        <time>2016-01-25T20:36:52.000Z</time>
      </trkpt>
      <trkpt lat="48.87531" lon="2.42221">
        <ele>106.40000152588</ele>
        <time>2016-01-25T20:36:57.000Z</time>
      </trkpt>
      <trkpt lat="48.87547" lon="2.42236">
        <ele>107.59999847412</ele>
        <time>2016-01-25T20:37:02.000Z</time>
      </trkpt>
      <trkpt lat="48.87563" lon="2.42252">
        <ele>108.80000305176</ele>
        <time>2016-01-25T20:37:07.000Z</time>
      </trkpt>
      <trkpt lat="48.87578" lon="2.42269">
        <ele>109.59999847412</ele>
        <time>2016-01-25T20:37:12.000Z</time>
      </trkpt>
      <trkpt lat="48.87593" lon="2.42286">
        <ele>110.40000152588</ele>
        <time>2016-01-25T20:37:18.000Z</time>
      </trkpt>
      <trkpt lat="48.87607" lon="2.42305">
        <ele>111</ele>
        <time>2016-01-25T20:37:25.000Z</time>
      </trkpt>
      <trkpt lat="48.87611" lon="2.42311">
        <ele>110.80000305176</ele>
        <time>2016-01-25T20:37:29.000Z</time>
      </trkpt>
      <trkpt lat="48.87623" lon="2.42322">
        <ele>110.80000305176</ele>
        <time>2016-01-25T20:38:19.000Z</time>
      </trkpt>
      <trkpt lat="48.87624" lon="2.42323">
        <ele>110.80000305176</ele>
        <time>2016-01-25T20:38:20.000Z</time>
      </trkpt>
      <trkpt lat="48.87618" lon="2.4235">
        <ele>110.19999694824</ele>
        <time>2016-01-25T20:38:35.000Z</time>
      </trkpt>
      <trkpt lat="48.87606" lon="2.42372">
        <ele>109</ele>
        <time>2016-01-25T20:38:40.000Z</time>
      </trkpt>
      <trkpt lat="48.87592" lon="2.42393">
        <ele>107.59999847412</ele>
        <time>2016-01-25T20:38:44.000Z</time>
      </trkpt>
      <trkpt lat="48.87588" lon="2.42398">
        <ele>107.40000152588</ele>
        <time>2016-01-25T20:38:45.000Z</time>
      </trkpt>
      <trkpt lat="48.87568" lon="2.42418">
        <ele>106.59999847412</ele>
        <time>2016-01-25T20:38:49.000Z</time>
      </trkpt>
      <trkpt lat="48.87552" lon="2.42431">
        <ele>106</ele>
        <time>2016-01-25T20:38:52.000Z</time>
      </trkpt>
      <trkpt lat="48.87535" lon="2.42444">
        <ele>106</ele>
        <time>2016-01-25T20:38:55.000Z</time>
      </trkpt>
      <trkpt lat="48.87517" lon="2.42462">
        <ele>106.80000305176</ele>
        <time>2016-01-25T20:38:59.000Z</time>
      </trkpt>
      <trkpt lat="48.87507" lon="2.42479">
        <ele>107.59999847412</ele>
        <time>2016-01-25T20:39:02.000Z</time>
      </trkpt>
      <trkpt lat="48.87496" lon="2.42504">
        <ele>108.59999847412</ele>
        <time>2016-01-25T20:39:06.000Z</time>
      </trkpt>
      <trkpt lat="48.87488" lon="2.4253">
        <ele>109.19999694824</ele>
        <time>2016-01-25T20:39:10.000Z</time>
      </trkpt>
      <trkpt lat="48.87486" lon="2.42536">
        <ele>109.40000152588</ele>
        <time>2016-01-25T20:39:11.000Z</time>
      </trkpt>
      <trkpt lat="48.87475" lon="2.42564">
        <ele>110.59999847412</ele>
        <time>2016-01-25T20:39:16.000Z</time>
      </trkpt>
      <trkpt lat="48.87473" lon="2.4257">
        <ele>111</ele>
        <time>2016-01-25T20:39:17.000Z</time>
      </trkpt>
      <trkpt lat="48.87462" lon="2.42597">
        <ele>112.40000152588</ele>
        <time>2016-01-25T20:39:23.000Z</time>
      </trkpt>
      <trkpt lat="48.87451" lon="2.42621">
        <ele>113.40000152588</ele>
        <time>2016-01-25T20:39:28.000Z</time>
      </trkpt>
      <trkpt lat="48.8744" lon="2.42637">
        <ele>114.40000152588</ele>
        <time>2016-01-25T20:39:32.000Z</time>
      </trkpt>
      <trkpt lat="48.87433" lon="2.42651">
        <ele>114.80000305176</ele>
        <time>2016-01-25T20:39:35.000Z</time>
      </trkpt>
      <trkpt lat="48.8742" lon="2.42677">
        <ele>115</ele>
        <time>2016-01-25T20:39:40.000Z</time>
      </trkpt>
      <trkpt lat="48.87417" lon="2.42682">
        <ele>115</ele>
        <time>2016-01-25T20:39:41.000Z</time>
      </trkpt>
      <trkpt lat="48.87404" lon="2.4271">
        <ele>115</ele>
        <time>2016-01-25T20:39:46.000Z</time>
      </trkpt>
      <trkpt lat="48.87393" lon="2.42734">
        <ele>115.40000152588</ele>
        <time>2016-01-25T20:39:50.000Z</time>
      </trkpt>
      <trkpt lat="48.87383" lon="2.42759">
        <ele>115.59999847412</ele>
        <time>2016-01-25T20:39:54.000Z</time>
      </trkpt>
      <trkpt lat="48.87373" lon="2.42782">
        <ele>115.80000305176</ele>
        <time>2016-01-25T20:39:58.000Z</time>
      </trkpt>
      <trkpt lat="48.87367" lon="2.42799">
        <ele>115.80000305176</ele>
        <time>2016-01-25T20:40:01.000Z</time>
      </trkpt>
      <trkpt lat="48.87359" lon="2.42825">
        <ele>116</ele>
        <time>2016-01-25T20:40:06.000Z</time>
      </trkpt>
      <trkpt lat="48.8735" lon="2.42854">
        <ele>116.40000152588</ele>
        <time>2016-01-25T20:40:12.000Z</time>
      </trkpt>
      <trkpt lat="48.87342" lon="2.42876">
        <ele>117</ele>
        <time>2016-01-25T20:40:16.000Z</time>
      </trkpt>
      <trkpt lat="48.87334" lon="2.4289">
        <ele>117.59999847412</ele>
        <time>2016-01-25T20:40:19.000Z</time>
      </trkpt>
      <trkpt lat="48.87316" lon="2.42907">
        <ele>118</ele>
        <time>2016-01-25T20:40:24.000Z</time>
      </trkpt>
      <trkpt lat="48.87299" lon="2.42921">
        <ele>118.19999694824</ele>
        <time>2016-01-25T20:40:28.000Z</time>
      </trkpt>
      <trkpt lat="48.87284" lon="2.42935">
        <ele>118.59999847412</ele>
        <time>2016-01-25T20:40:32.000Z</time>
      </trkpt>
      <trkpt lat="48.87267" lon="2.42949">
        <ele>119.59999847412</ele>
        <time>2016-01-25T20:40:36.000Z</time>
      </trkpt>
      <trkpt lat="48.87251" lon="2.42964">
        <ele>119.19999694824</ele>
        <time>2016-01-25T20:40:40.000Z</time>
      </trkpt>
      <trkpt lat="48.87236" lon="2.42982">
        <ele>118.40000152588</ele>
        <time>2016-01-25T20:40:44.000Z</time>
      </trkpt>
      <trkpt lat="48.87228" lon="2.42989">
        <ele>117.80000305176</ele>
        <time>2016-01-25T20:40:46.000Z</time>
      </trkpt>
      <trkpt lat="48.87211" lon="2.43003">
        <ele>116.59999847412</ele>
        <time>2016-01-25T20:40:50.000Z</time>
      </trkpt>
      <trkpt lat="48.87191" lon="2.43017">
        <ele>115.40000152588</ele>
        <time>2016-01-25T20:40:55.000Z</time>
      </trkpt>
      <trkpt lat="48.8717" lon="2.43029">
        <ele>115.40000152588</ele>
        <time>2016-01-25T20:41:00.000Z</time>
      </trkpt>
      <trkpt lat="48.87153" lon="2.43044">
        <ele>115.59999847412</ele>
        <time>2016-01-25T20:41:05.000Z</time>
      </trkpt>
      <trkpt lat="48.87135" lon="2.43062">
        <ele>113.80000305176</ele>
        <time>2016-01-25T20:41:10.000Z</time>
      </trkpt>
      <trkpt lat="48.87118" lon="2.43081">
        <ele>112</ele>
        <time>2016-01-25T20:41:15.000Z</time>
      </trkpt>
      <trkpt lat="48.87101" lon="2.43099">
        <ele>109.40000152588</ele>
        <time>2016-01-25T20:41:19.000Z</time>
      </trkpt>
      <trkpt lat="48.87085" lon="2.43116">
        <ele>106.80000305176</ele>
        <time>2016-01-25T20:41:23.000Z</time>
      </trkpt>
      <trkpt lat="48.87069" lon="2.43135">
        <ele>104.80000305176</ele>
        <time>2016-01-25T20:41:27.000Z</time>
      </trkpt>
      <trkpt lat="48.87053" lon="2.43153">
        <ele>105.80000305176</ele>
        <time>2016-01-25T20:41:31.000Z</time>
      </trkpt>
      <trkpt lat="48.87044" lon="2.43164">
        <ele>106.40000152588</ele>
        <time>2016-01-25T20:41:34.000Z</time>
      </trkpt>
      <trkpt lat="48.87026" lon="2.43182">
        <ele>106.59999847412</ele>
        <time>2016-01-25T20:41:39.000Z</time>
      </trkpt>
      <trkpt lat="48.87016" lon="2.43192">
        <ele>106.19999694824</ele>
        <time>2016-01-25T20:41:42.000Z</time>
      </trkpt>
      <trkpt lat="48.87" lon="2.43209">
        <ele>105.40000152588</ele>
        <time>2016-01-25T20:41:47.000Z</time>
      </trkpt>
      <trkpt lat="48.86996" lon="2.43212">
        <ele>105.19999694824</ele>
        <time>2016-01-25T20:41:48.000Z</time>
      </trkpt>
      <trkpt lat="48.86977" lon="2.43229">
        <ele>104.59999847412</ele>
        <time>2016-01-25T20:41:53.000Z</time>
      </trkpt>
      <trkpt lat="48.86962" lon="2.43244">
        <ele>104.40000152588</ele>
        <time>2016-01-25T20:41:57.000Z</time>
      </trkpt>
      <trkpt lat="48.86943" lon="2.43261">
        <ele>104</ele>
        <time>2016-01-25T20:42:02.000Z</time>
      </trkpt>
      <trkpt lat="48.86926" lon="2.43276">
        <ele>103.59999847412</ele>
        <time>2016-01-25T20:42:06.000Z</time>
      </trkpt>
      <trkpt lat="48.86911" lon="2.43291">
        <ele>103.40000152588</ele>
        <time>2016-01-25T20:42:10.000Z</time>
      </trkpt>
      <trkpt lat="48.86895" lon="2.43305">
        <ele>102.59999847412</ele>
        <time>2016-01-25T20:42:14.000Z</time>
      </trkpt>
      <trkpt lat="48.86878" lon="2.43319">
        <ele>101.40000152588</ele>
        <time>2016-01-25T20:42:18.000Z</time>
      </trkpt>
      <trkpt lat="48.86861" lon="2.43333">
        <ele>100.19999694824</ele>
        <time>2016-01-25T20:42:22.000Z</time>
      </trkpt>
      <trkpt lat="48.86845" lon="2.43346">
        <ele>100</ele>
        <time>2016-01-25T20:42:26.000Z</time>
      </trkpt>
      <trkpt lat="48.8683" lon="2.4336">
        <ele>100</ele>
        <time>2016-01-25T20:42:30.000Z</time>
      </trkpt>
      <trkpt lat="48.86823" lon="2.43367">
        <ele>100</ele>
        <time>2016-01-25T20:42:32.000Z</time>
      </trkpt>
      <trkpt lat="48.86803" lon="2.43382">
        <ele>99.599998474121</ele>
        <time>2016-01-25T20:42:37.000Z</time>
      </trkpt>
      <trkpt lat="48.86783" lon="2.43393">
        <ele>98.599998474121</ele>
        <time>2016-01-25T20:42:42.000Z</time>
      </trkpt>
      <trkpt lat="48.86766" lon="2.43399">
        <ele>98.199996948242</ele>
        <time>2016-01-25T20:42:47.000Z</time>
      </trkpt>
      <trkpt lat="48.86762" lon="2.43401">
        <ele>98.400001525879</ele>
        <time>2016-01-25T20:42:48.000Z</time>
      </trkpt>
      <trkpt lat="48.86743" lon="2.43413">
        <ele>98.400001525879</ele>
        <time>2016-01-25T20:42:53.000Z</time>
      </trkpt>
      <trkpt lat="48.86725" lon="2.43426">
        <ele>98.599998474121</ele>
        <time>2016-01-25T20:42:58.000Z</time>
      </trkpt>
      <trkpt lat="48.86708" lon="2.43438">
        <ele>98.599998474121</ele>
        <time>2016-01-25T20:43:02.000Z</time>
      </trkpt>
      <trkpt lat="48.867" lon="2.43443">
        <ele>98.199996948242</ele>
        <time>2016-01-25T20:43:04.000Z</time>
      </trkpt>
      <trkpt lat="48.86683" lon="2.43454">
        <ele>97.400001525879</ele>
        <time>2016-01-25T20:43:08.000Z</time>
      </trkpt>
      <trkpt lat="48.86664" lon="2.43462">
        <ele>96.400001525879</ele>
        <time>2016-01-25T20:43:12.000Z</time>
      </trkpt>
      <trkpt lat="48.8665" lon="2.43468">
        <ele>95.599998474121</ele>
        <time>2016-01-25T20:43:15.000Z</time>
      </trkpt>
      <trkpt lat="48.86632" lon="2.43474">
        <ele>94.400001525879</ele>
        <time>2016-01-25T20:43:19.000Z</time>
      </trkpt>
      <trkpt lat="48.86615" lon="2.43484">
        <ele>93.199996948242</ele>
        <time>2016-01-25T20:43:23.000Z</time>
      </trkpt>
      <trkpt lat="48.86596" lon="2.43494">
        <ele>92.199996948242</ele>
        <time>2016-01-25T20:43:27.000Z</time>
      </trkpt>
      <trkpt lat="48.86578" lon="2.43503">
        <ele>91.800003051758</ele>
        <time>2016-01-25T20:43:31.000Z</time>
      </trkpt>
      <trkpt lat="48.86559" lon="2.43513">
        <ele>91.599998474121</ele>
        <time>2016-01-25T20:43:35.000Z</time>
      </trkpt>
      <trkpt lat="48.8654" lon="2.43523">
        <ele>91.199996948242</ele>
        <time>2016-01-25T20:43:39.000Z</time>
      </trkpt>
      <trkpt lat="48.8652" lon="2.43532">
        <ele>90</ele>
        <time>2016-01-25T20:43:44.000Z</time>
      </trkpt>
      <trkpt lat="48.86499" lon="2.43542">
        <ele>89.800003051758</ele>
        <time>2016-01-25T20:43:49.000Z</time>
      </trkpt>
      <trkpt lat="48.86479" lon="2.43554">
        <ele>89.599998474121</ele>
        <time>2016-01-25T20:43:54.000Z</time>
      </trkpt>
      <trkpt lat="48.86458" lon="2.43567">
        <ele>89.800003051758</ele>
        <time>2016-01-25T20:43:59.000Z</time>
      </trkpt>
      <trkpt lat="48.86438" lon="2.43582">
        <ele>90</ele>
        <time>2016-01-25T20:44:03.000Z</time>
      </trkpt>
      <trkpt lat="48.86416" lon="2.43594">
        <ele>89</ele>
        <time>2016-01-25T20:44:07.000Z</time>
      </trkpt>
      <trkpt lat="48.86397" lon="2.43606">
        <ele>88</ele>
        <time>2016-01-25T20:44:11.000Z</time>
      </trkpt>
      <trkpt lat="48.8638" lon="2.43618">
        <ele>87.199996948242</ele>
        <time>2016-01-25T20:44:15.000Z</time>
      </trkpt>
      <trkpt lat="48.86362" lon="2.43627">
        <ele>86.400001525879</ele>
        <time>2016-01-25T20:44:19.000Z</time>
      </trkpt>
      <trkpt lat="48.86345" lon="2.43637">
        <ele>85.400001525879</ele>
        <time>2016-01-25T20:44:23.000Z</time>
      </trkpt>
      <trkpt lat="48.86326" lon="2.43647">
        <ele>84.400001525879</ele>
        <time>2016-01-25T20:44:27.000Z</time>
      </trkpt>
      <trkpt lat="48.86306" lon="2.43655">
        <ele>84.199996948242</ele>
        <time>2016-01-25T20:44:31.000Z</time>
      </trkpt>
      <trkpt lat="48.86286" lon="2.43661">
        <ele>84.199996948242</ele>
        <time>2016-01-25T20:44:35.000Z</time>
      </trkpt>
      <trkpt lat="48.86271" lon="2.43666">
        <ele>84</ele>
        <time>2016-01-25T20:44:38.000Z</time>
      </trkpt>
      <trkpt lat="48.8625" lon="2.43671">
        <ele>83.199996948242</ele>
        <time>2016-01-25T20:44:42.000Z</time>
      </trkpt>
      <trkpt lat="48.86229" lon="2.43676">
        <ele>82.400001525879</ele>
        <time>2016-01-25T20:44:46.000Z</time>
      </trkpt>
      <trkpt lat="48.86206" lon="2.43679">
        <ele>81.599998474121</ele>
        <time>2016-01-25T20:44:50.000Z</time>
      </trkpt>
      <trkpt lat="48.86201" lon="2.4368">
        <ele>81.599998474121</ele>
        <time>2016-01-25T20:44:51.000Z</time>
      </trkpt>
      <trkpt lat="48.8618" lon="2.43684">
        <ele>82.199996948242</ele>
        <time>2016-01-25T20:44:55.000Z</time>
      </trkpt>
      <trkpt lat="48.8616" lon="2.4369">
        <ele>82.400001525879</ele>
        <time>2016-01-25T20:44:59.000Z</time>
      </trkpt>
      <trkpt lat="48.86145" lon="2.43695">
        <ele>82.599998474121</ele>
        <time>2016-01-25T20:45:02.000Z</time>
      </trkpt>
      <trkpt lat="48.86122" lon="2.437">
        <ele>81</ele>
        <time>2016-01-25T20:45:06.000Z</time>
      </trkpt>
      <trkpt lat="48.86111" lon="2.43702">
        <ele>79.599998474121</ele>
        <time>2016-01-25T20:45:08.000Z</time>
      </trkpt>
      <trkpt lat="48.86089" lon="2.43703">
        <ele>77.800003051758</ele>
        <time>2016-01-25T20:45:12.000Z</time>
      </trkpt>
      <trkpt lat="48.86067" lon="2.43704">
        <ele>75.800003051758</ele>
        <time>2016-01-25T20:45:16.000Z</time>
      </trkpt>
      <trkpt lat="48.86056" lon="2.43704">
        <ele>75</ele>
        <time>2016-01-25T20:45:18.000Z</time>
      </trkpt>
      <trkpt lat="48.86034" lon="2.43701">
        <ele>73.400001525879</ele>
        <time>2016-01-25T20:45:22.000Z</time>
      </trkpt>
      <trkpt lat="48.86011" lon="2.43699">
        <ele>72.800003051758</ele>
        <time>2016-01-25T20:45:26.000Z</time>
      </trkpt>
      <trkpt lat="48.85992" lon="2.43693">
        <ele>73.400001525879</ele>
        <time>2016-01-25T20:45:30.000Z</time>
      </trkpt>
      <trkpt lat="48.85971" lon="2.43685">
        <ele>74</ele>
        <time>2016-01-25T20:45:34.000Z</time>
      </trkpt>
      <trkpt lat="48.8595" lon="2.43677">
        <ele>74.599998474121</ele>
        <time>2016-01-25T20:45:38.000Z</time>
      </trkpt>
      <trkpt lat="48.8594" lon="2.43675">
        <ele>74.800003051758</ele>
        <time>2016-01-25T20:45:40.000Z</time>
      </trkpt>
      <trkpt lat="48.85929" lon="2.43672">
        <ele>74.400001525879</ele>
        <time>2016-01-25T20:45:42.000Z</time>
      </trkpt>
      <trkpt lat="48.85907" lon="2.43666">
        <ele>73.400001525879</ele>
        <time>2016-01-25T20:45:46.000Z</time>
      </trkpt>
      <trkpt lat="48.85887" lon="2.43657">
        <ele>72.599998474121</ele>
        <time>2016-01-25T20:45:50.000Z</time>
      </trkpt>
      <trkpt lat="48.8587" lon="2.43652">
        <ele>71.800003051758</ele>
        <time>2016-01-25T20:45:53.000Z</time>
      </trkpt>
      <trkpt lat="48.85851" lon="2.43646">
        <ele>71.199996948242</ele>
        <time>2016-01-25T20:45:57.000Z</time>
      </trkpt>
      <trkpt lat="48.85833" lon="2.43641">
        <ele>70.800003051758</ele>
        <time>2016-01-25T20:46:01.000Z</time>
      </trkpt>
      <trkpt lat="48.85822" lon="2.43634">
        <ele>70.599998474121</ele>
        <time>2016-01-25T20:46:04.000Z</time>
      </trkpt>
      <trkpt lat="48.85817" lon="2.4362">
        <ele>70.599998474121</ele>
        <time>2016-01-25T20:46:08.000Z</time>
      </trkpt>
      <trkpt lat="48.85816" lon="2.43612">
        <ele>70.599998474121</ele>
        <time>2016-01-25T20:46:11.000Z</time>
      </trkpt>
      <trkpt lat="48.85817" lon="2.43602">
        <ele>70.800003051758</ele>
        <time>2016-01-25T20:46:18.000Z</time>
      </trkpt>
      <trkpt lat="48.8581" lon="2.43589">
        <ele>70.800003051758</ele>
        <time>2016-01-25T20:46:55.000Z</time>
      </trkpt>
      <trkpt lat="48.85801" lon="2.43567">
        <ele>70.599998474121</ele>
        <time>2016-01-25T20:47:03.000Z</time>
      </trkpt>
      <trkpt lat="48.85782" lon="2.4357">
        <ele>70.199996948242</ele>
        <time>2016-01-25T20:47:12.000Z</time>
      </trkpt>
      <trkpt lat="48.85767" lon="2.43567">
        <ele>70</ele>
        <time>2016-01-25T20:47:18.000Z</time>
      </trkpt>
      <trkpt lat="48.85759" lon="2.43542">
        <ele>69.800003051758</ele>
        <time>2016-01-25T20:47:25.000Z</time>
      </trkpt>
      <trkpt lat="48.8575" lon="2.43516">
        <ele>69.800003051758</ele>
        <time>2016-01-25T20:47:32.000Z</time>
      </trkpt>
      <trkpt lat="48.85748" lon="2.43505">
        <ele>69.599998474121</ele>
        <time>2016-01-25T20:47:35.000Z</time>
      </trkpt>
      <trkpt lat="48.85745" lon="2.43485">
        <ele>69.800003051758</ele>
        <time>2016-01-25T20:47:41.000Z</time>
      </trkpt>
      <trkpt lat="48.85727" lon="2.4348">
        <ele>69.599998474121</ele>
        <time>2016-01-25T20:47:50.000Z</time>
      </trkpt>
      <trkpt lat="48.85709" lon="2.43477">
        <ele>69.400001525879</ele>
        <time>2016-01-25T20:47:58.000Z</time>
      </trkpt>
      <trkpt lat="48.85689" lon="2.4348">
        <ele>69.199996948242</ele>
        <time>2016-01-25T20:48:06.000Z</time>
      </trkpt>
      <trkpt lat="48.85668" lon="2.43481">
        <ele>68.800003051758</ele>
        <time>2016-01-25T20:48:12.000Z</time>
      </trkpt>
      <trkpt lat="48.85649" lon="2.43479">
        <ele>68.599998474121</ele>
        <time>2016-01-25T20:48:17.000Z</time>
      </trkpt>
      <trkpt lat="48.85628" lon="2.43469">
        <ele>68.199996948242</ele>
        <time>2016-01-25T20:48:22.000Z</time>
      </trkpt>
      <trkpt lat="48.85611" lon="2.43458">
        <ele>68</ele>
        <time>2016-01-25T20:48:26.000Z</time>
      </trkpt>
      <trkpt lat="48.85595" lon="2.43445">
        <ele>67.800003051758</ele>
        <time>2016-01-25T20:48:30.000Z</time>
      </trkpt>
      <trkpt lat="48.85575" lon="2.43429">
        <ele>67.599998474121</ele>
        <time>2016-01-25T20:48:35.000Z</time>
      </trkpt>
      <trkpt lat="48.85555" lon="2.43417">
        <ele>67.400001525879</ele>
        <time>2016-01-25T20:48:40.000Z</time>
      </trkpt>
      <trkpt lat="48.85536" lon="2.43402">
        <ele>67.199996948242</ele>
        <time>2016-01-25T20:48:45.000Z</time>
      </trkpt>
      <trkpt lat="48.85516" lon="2.4339">
        <ele>66.800003051758</ele>
        <time>2016-01-25T20:48:50.000Z</time>
      </trkpt>
      <trkpt lat="48.85498" lon="2.4338">
        <ele>66.199996948242</ele>
        <time>2016-01-25T20:48:54.000Z</time>
      </trkpt>
      <trkpt lat="48.85477" lon="2.43368">
        <ele>65.400001525879</ele>
        <time>2016-01-25T20:48:59.000Z</time>
      </trkpt>
      <trkpt lat="48.8546" lon="2.43358">
        <ele>64.800003051758</ele>
        <time>2016-01-25T20:49:03.000Z</time>
      </trkpt>
      <trkpt lat="48.85442" lon="2.43349">
        <ele>64.199996948242</ele>
        <time>2016-01-25T20:49:07.000Z</time>
      </trkpt>
      <trkpt lat="48.85424" lon="2.43335">
        <ele>63.799999237061</ele>
        <time>2016-01-25T20:49:12.000Z</time>
      </trkpt>
      <trkpt lat="48.85407" lon="2.43324">
        <ele>63.599998474121</ele>
        <time>2016-01-25T20:49:17.000Z</time>
      </trkpt>
      <trkpt lat="48.85404" lon="2.43321">
        <ele>63.599998474121</ele>
        <time>2016-01-25T20:49:18.000Z</time>
      </trkpt>
      <trkpt lat="48.85387" lon="2.43309">
        <ele>63.400001525879</ele>
        <time>2016-01-25T20:49:23.000Z</time>
      </trkpt>
      <trkpt lat="48.8537" lon="2.43299">
        <ele>63.200000762939</ele>
        <time>2016-01-25T20:49:29.000Z</time>
      </trkpt>
      <trkpt lat="48.85367" lon="2.43298">
        <ele>63.200000762939</ele>
        <time>2016-01-25T20:49:30.000Z</time>
      </trkpt>
      <trkpt lat="48.85347" lon="2.43291">
        <ele>62.599998474121</ele>
        <time>2016-01-25T20:49:36.000Z</time>
      </trkpt>
      <trkpt lat="48.85326" lon="2.43287">
        <ele>62</ele>
        <time>2016-01-25T20:49:41.000Z</time>
      </trkpt>
      <trkpt lat="48.85307" lon="2.43286">
        <ele>61.200000762939</ele>
        <time>2016-01-25T20:49:45.000Z</time>
      </trkpt>
      <trkpt lat="48.85285" lon="2.43285">
        <ele>60.400001525879</ele>
        <time>2016-01-25T20:49:50.000Z</time>
      </trkpt>
      <trkpt lat="48.85263" lon="2.43279">
        <ele>59.400001525879</ele>
        <time>2016-01-25T20:49:55.000Z</time>
      </trkpt>
      <trkpt lat="48.85244" lon="2.43274">
        <ele>58.400001525879</ele>
        <time>2016-01-25T20:49:59.000Z</time>
      </trkpt>
      <trkpt lat="48.85226" lon="2.43267">
        <ele>57.200000762939</ele>
        <time>2016-01-25T20:50:03.000Z</time>
      </trkpt>
      <trkpt lat="48.85208" lon="2.43261">
        <ele>56.200000762939</ele>
        <time>2016-01-25T20:50:07.000Z</time>
      </trkpt>
      <trkpt lat="48.85187" lon="2.43253">
        <ele>55.200000762939</ele>
        <time>2016-01-25T20:50:12.000Z</time>
      </trkpt>
      <trkpt lat="48.85168" lon="2.43247">
        <ele>55.599998474121</ele>
        <time>2016-01-25T20:50:17.000Z</time>
      </trkpt>
      <trkpt lat="48.8516" lon="2.43245">
        <ele>55.599998474121</ele>
        <time>2016-01-25T20:50:19.000Z</time>
      </trkpt>
      <trkpt lat="48.85141" lon="2.43241">
        <ele>56</ele>
        <time>2016-01-25T20:50:24.000Z</time>
      </trkpt>
      <trkpt lat="48.85139" lon="2.43241">
        <ele>56.200000762939</ele>
        <time>2016-01-25T20:50:25.000Z</time>
      </trkpt>
      <trkpt lat="48.85122" lon="2.43231">
        <ele>56.400001525879</ele>
        <time>2016-01-25T20:50:32.000Z</time>
      </trkpt>
      <trkpt lat="48.85119" lon="2.43214">
        <ele>56.200000762939</ele>
        <time>2016-01-25T20:50:37.000Z</time>
      </trkpt>
      <trkpt lat="48.85113" lon="2.43186">
        <ele>56</ele>
        <time>2016-01-25T20:50:44.000Z</time>
      </trkpt>
      <trkpt lat="48.85105" lon="2.43159">
        <ele>56</ele>
        <time>2016-01-25T20:50:51.000Z</time>
      </trkpt>
      <trkpt lat="48.85105" lon="2.43129">
        <ele>55.599998474121</ele>
        <time>2016-01-25T20:50:58.000Z</time>
      </trkpt>
      <trkpt lat="48.85106" lon="2.43097">
        <ele>55.200000762939</ele>
        <time>2016-01-25T20:51:04.000Z</time>
      </trkpt>
      <trkpt lat="48.85107" lon="2.43067">
        <ele>55</ele>
        <time>2016-01-25T20:51:10.000Z</time>
      </trkpt>
      <trkpt lat="48.8511" lon="2.43036">
        <ele>55</ele>
        <time>2016-01-25T20:51:16.000Z</time>
      </trkpt>
      <trkpt lat="48.85113" lon="2.43004">
        <ele>55</ele>
        <time>2016-01-25T20:51:22.000Z</time>
      </trkpt>
      <trkpt lat="48.85114" lon="2.42975">
        <ele>55.400001525879</ele>
        <time>2016-01-25T20:51:28.000Z</time>
      </trkpt>
      <trkpt lat="48.85115" lon="2.42968">
        <ele>55.400001525879</ele>
        <time>2016-01-25T20:51:30.000Z</time>
      </trkpt>
      <trkpt lat="48.8513" lon="2.42946">
        <ele>56</ele>
        <time>2016-01-25T20:51:37.000Z</time>
      </trkpt>
      <trkpt lat="48.85146" lon="2.42923">
        <ele>56</ele>
        <time>2016-01-25T20:51:43.000Z</time>
      </trkpt>
      <trkpt lat="48.85158" lon="2.429">
        <ele>55.799999237061</ele>
        <time>2016-01-25T20:51:48.000Z</time>
      </trkpt>
      <trkpt lat="48.85171" lon="2.42879">
        <ele>55.599998474121</ele>
        <time>2016-01-25T20:51:53.000Z</time>
      </trkpt>
      <trkpt lat="48.85187" lon="2.42862">
        <ele>55.400001525879</ele>
        <time>2016-01-25T20:51:57.000Z</time>
      </trkpt>
      <trkpt lat="48.85201" lon="2.42846">
        <ele>55.400001525879</ele>
        <time>2016-01-25T20:52:01.000Z</time>
      </trkpt>
      <trkpt lat="48.85218" lon="2.42827">
        <ele>55.599998474121</ele>
        <time>2016-01-25T20:52:06.000Z</time>
      </trkpt>
      <trkpt lat="48.85233" lon="2.42813">
        <ele>56</ele>
        <time>2016-01-25T20:52:12.000Z</time>
      </trkpt>
      <trkpt lat="48.85251" lon="2.42802">
        <ele>56.400001525879</ele>
        <time>2016-01-25T20:52:21.000Z</time>
      </trkpt>
      <trkpt lat="48.8527" lon="2.42797">
        <ele>57</ele>
        <time>2016-01-25T20:52:28.000Z</time>
      </trkpt>
      <trkpt lat="48.85289" lon="2.4279">
        <ele>57.799999237061</ele>
        <time>2016-01-25T20:52:33.000Z</time>
      </trkpt>
      <trkpt lat="48.85307" lon="2.42785">
        <ele>58.599998474121</ele>
        <time>2016-01-25T20:52:38.000Z</time>
      </trkpt>
      <trkpt lat="48.85325" lon="2.42782">
        <ele>59.200000762939</ele>
        <time>2016-01-25T20:52:44.000Z</time>
      </trkpt>
      <trkpt lat="48.85343" lon="2.42778">
        <ele>59.799999237061</ele>
        <time>2016-01-25T20:52:50.000Z</time>
      </trkpt>
      <trkpt lat="48.85363" lon="2.42776">
        <ele>60.400001525879</ele>
        <time>2016-01-25T20:52:55.000Z</time>
      </trkpt>
      <trkpt lat="48.85381" lon="2.42769">
        <ele>60.200000762939</ele>
        <time>2016-01-25T20:53:00.000Z</time>
      </trkpt>
      <trkpt lat="48.85401" lon="2.42759">
        <ele>60.200000762939</ele>
        <time>2016-01-25T20:53:04.000Z</time>
      </trkpt>
      <trkpt lat="48.85421" lon="2.42752">
        <ele>60</ele>
        <time>2016-01-25T20:53:09.000Z</time>
      </trkpt>
      <trkpt lat="48.85441" lon="2.42752">
        <ele>60.200000762939</ele>
        <time>2016-01-25T20:53:14.000Z</time>
      </trkpt>
      <trkpt lat="48.85461" lon="2.42749">
        <ele>60.599998474121</ele>
        <time>2016-01-25T20:53:19.000Z</time>
      </trkpt>
      <trkpt lat="48.85482" lon="2.42747">
        <ele>61</ele>
        <time>2016-01-25T20:53:24.000Z</time>
      </trkpt>
      <trkpt lat="48.85501" lon="2.42743">
        <ele>61.400001525879</ele>
        <time>2016-01-25T20:53:29.000Z</time>
      </trkpt>
      <trkpt lat="48.85521" lon="2.42739">
        <ele>62</ele>
        <time>2016-01-25T20:53:34.000Z</time>
      </trkpt>
      <trkpt lat="48.8554" lon="2.42735">
        <ele>62.200000762939</ele>
        <time>2016-01-25T20:53:39.000Z</time>
      </trkpt>
      <trkpt lat="48.85558" lon="2.42731">
        <ele>62.400001525879</ele>
        <time>2016-01-25T20:53:45.000Z</time>
      </trkpt>
      <trkpt lat="48.85579" lon="2.42729">
        <ele>62.599998474121</ele>
        <time>2016-01-25T20:53:53.000Z</time>
      </trkpt>
      <trkpt lat="48.856" lon="2.42727">
        <ele>63.400001525879</ele>
        <time>2016-01-25T20:54:00.000Z</time>
      </trkpt>
      <trkpt lat="48.85619" lon="2.4273">
        <ele>63.799999237061</ele>
        <time>2016-01-25T20:54:07.000Z</time>
      </trkpt>
      <trkpt lat="48.85634" lon="2.42732">
        <ele>64</ele>
        <time>2016-01-25T20:54:13.000Z</time>
      </trkpt>
      <trkpt lat="48.85657" lon="2.42737">
        <ele>64</ele>
        <time>2016-01-25T20:55:04.000Z</time>
      </trkpt>
      <trkpt lat="48.85675" lon="2.42736">
        <ele>64.400001525879</ele>
        <time>2016-01-25T20:55:14.000Z</time>
      </trkpt>
      <trkpt lat="48.85695" lon="2.42736">
        <ele>64.800003051758</ele>
        <time>2016-01-25T20:55:20.000Z</time>
      </trkpt>
      <trkpt lat="48.85715" lon="2.42735">
        <ele>66.199996948242</ele>
        <time>2016-01-25T20:55:26.000Z</time>
      </trkpt>
      <trkpt lat="48.85737" lon="2.42733">
        <ele>67.800003051758</ele>
        <time>2016-01-25T20:55:32.000Z</time>
      </trkpt>
      <trkpt lat="48.85754" lon="2.42742">
        <ele>68.800003051758</ele>
        <time>2016-01-25T20:55:38.000Z</time>
      </trkpt>
      <trkpt lat="48.85763" lon="2.42767">
        <ele>69.199996948242</ele>
        <time>2016-01-25T20:55:44.000Z</time>
      </trkpt>
      <trkpt lat="48.85764" lon="2.42772">
        <ele>69.400001525879</ele>
        <time>2016-01-25T20:55:45.000Z</time>
      </trkpt>
      <trkpt lat="48.85776" lon="2.42798">
        <ele>70</ele>
        <time>2016-01-25T20:55:53.000Z</time>
      </trkpt>
      <trkpt lat="48.85789" lon="2.4282">
        <ele>69.599998474121</ele>
        <time>2016-01-25T20:56:00.000Z</time>
      </trkpt>
      <trkpt lat="48.85803" lon="2.42841">
        <ele>69.400001525879</ele>
        <time>2016-01-25T20:56:08.000Z</time>
      </trkpt>
      <trkpt lat="48.85817" lon="2.42864">
        <ele>69.599998474121</ele>
        <time>2016-01-25T20:56:16.000Z</time>
      </trkpt>
      <trkpt lat="48.8583" lon="2.42885">
        <ele>69.800003051758</ele>
        <time>2016-01-25T20:56:24.000Z</time>
      </trkpt>
      <trkpt lat="48.85844" lon="2.42906">
        <ele>70</ele>
        <time>2016-01-25T20:56:32.000Z</time>
      </trkpt>
      <trkpt lat="48.85853" lon="2.42915">
        <ele>70</ele>
        <time>2016-01-25T20:56:41.000Z</time>
      </trkpt>
      <trkpt lat="48.85862" lon="2.42893">
        <ele>69.599998474121</ele>
        <time>2016-01-25T20:57:00.000Z</time>
      </trkpt>
      <trkpt lat="48.85865" lon="2.42863">
        <ele>69</ele>
        <time>2016-01-25T20:57:06.000Z</time>
      </trkpt>
      <trkpt lat="48.85866" lon="2.42835">
        <ele>68.400001525879</ele>
        <time>2016-01-25T20:57:11.000Z</time>
      </trkpt>
      <trkpt lat="48.85867" lon="2.42807">
        <ele>68.800003051758</ele>
        <time>2016-01-25T20:57:16.000Z</time>
      </trkpt>
      <trkpt lat="48.85867" lon="2.42777">
        <ele>69</ele>
        <time>2016-01-25T20:57:21.000Z</time>
      </trkpt>
      <trkpt lat="48.8587" lon="2.42746">
        <ele>69.199996948242</ele>
        <time>2016-01-25T20:57:26.000Z</time>
      </trkpt>
      <trkpt lat="48.85876" lon="2.42717">
        <ele>69.199996948242</ele>
        <time>2016-01-25T20:57:31.000Z</time>
      </trkpt>
      <trkpt lat="48.85884" lon="2.42688">
        <ele>69.400001525879</ele>
        <time>2016-01-25T20:57:37.000Z</time>
      </trkpt>
      <trkpt lat="48.85891" lon="2.42662">
        <ele>70</ele>
        <time>2016-01-25T20:57:42.000Z</time>
      </trkpt>
      <trkpt lat="48.85899" lon="2.42633">
        <ele>70.800003051758</ele>
        <time>2016-01-25T20:57:48.000Z</time>
      </trkpt>
      <trkpt lat="48.85906" lon="2.42605">
        <ele>71.599998474121</ele>
        <time>2016-01-25T20:57:54.000Z</time>
      </trkpt>
      <trkpt lat="48.85912" lon="2.42578">
        <ele>72.199996948242</ele>
        <time>2016-01-25T20:58:01.000Z</time>
      </trkpt>
      <trkpt lat="48.85919" lon="2.42551">
        <ele>72.599998474121</ele>
        <time>2016-01-25T20:58:08.000Z</time>
      </trkpt>
      <trkpt lat="48.85926" lon="2.42522">
        <ele>74.199996948242</ele>
        <time>2016-01-25T20:58:15.000Z</time>
      </trkpt>
      <trkpt lat="48.85932" lon="2.42497">
        <ele>75.400001525879</ele>
        <time>2016-01-25T20:58:21.000Z</time>
      </trkpt>
      <trkpt lat="48.8594" lon="2.4247">
        <ele>75.599998474121</ele>
        <time>2016-01-25T20:58:28.000Z</time>
      </trkpt>
      <trkpt lat="48.85948" lon="2.42441">
        <ele>76</ele>
        <time>2016-01-25T20:58:35.000Z</time>
      </trkpt>
      <trkpt lat="48.85957" lon="2.42414">
        <ele>75.400001525879</ele>
        <time>2016-01-25T20:58:41.000Z</time>
      </trkpt>
      <trkpt lat="48.85964" lon="2.42387">
        <ele>74.199996948242</ele>
        <time>2016-01-25T20:58:47.000Z</time>
      </trkpt>
      <trkpt lat="48.85971" lon="2.4236">
        <ele>73.199996948242</ele>
        <time>2016-01-25T20:58:53.000Z</time>
      </trkpt>
      <trkpt lat="48.85977" lon="2.42332">
        <ele>72.400001525879</ele>
        <time>2016-01-25T20:58:58.000Z</time>
      </trkpt>
      <trkpt lat="48.85985" lon="2.42301">
        <ele>71.599998474121</ele>
        <time>2016-01-25T20:59:03.000Z</time>
      </trkpt>
      <trkpt lat="48.85993" lon="2.42273">
        <ele>71.199996948242</ele>
        <time>2016-01-25T20:59:07.000Z</time>
      </trkpt>
      <trkpt lat="48.86" lon="2.42245">
        <ele>70.800003051758</ele>
        <time>2016-01-25T20:59:11.000Z</time>
      </trkpt>
      <trkpt lat="48.86005" lon="2.42215">
        <ele>70.800003051758</ele>
        <time>2016-01-25T20:59:15.000Z</time>
      </trkpt>
      <trkpt lat="48.86012" lon="2.42188">
        <ele>71.199996948242</ele>
        <time>2016-01-25T20:59:19.000Z</time>
      </trkpt>
      <trkpt lat="48.86018" lon="2.42162">
        <ele>71.800003051758</ele>
        <time>2016-01-25T20:59:23.000Z</time>
      </trkpt>
      <trkpt lat="48.86023" lon="2.42132">
        <ele>71.599998474121</ele>
        <time>2016-01-25T20:59:28.000Z</time>
      </trkpt>
      <trkpt lat="48.86029" lon="2.42106">
        <ele>71.599998474121</ele>
        <time>2016-01-25T20:59:32.000Z</time>
      </trkpt>
      <trkpt lat="48.86039" lon="2.42077">
        <ele>71.199996948242</ele>
        <time>2016-01-25T20:59:36.000Z</time>
      </trkpt>
      <trkpt lat="48.86045" lon="2.42055">
        <ele>71</ele>
        <time>2016-01-25T20:59:39.000Z</time>
      </trkpt>
      <trkpt lat="48.86051" lon="2.42026">
        <ele>70.599998474121</ele>
        <time>2016-01-25T20:59:43.000Z</time>
      </trkpt>
      <trkpt lat="48.86057" lon="2.41998">
        <ele>70.800003051758</ele>
        <time>2016-01-25T20:59:47.000Z</time>
      </trkpt>
      <trkpt lat="48.86061" lon="2.41983">
        <ele>70.599998474121</ele>
        <time>2016-01-25T20:59:49.000Z</time>
      </trkpt>
      <trkpt lat="48.86068" lon="2.41954">
        <ele>70</ele>
        <time>2016-01-25T20:59:53.000Z</time>
      </trkpt>
      <trkpt lat="48.86076" lon="2.41923">
        <ele>70</ele>
        <time>2016-01-25T20:59:57.000Z</time>
      </trkpt>
      <trkpt lat="48.86078" lon="2.41915">
        <ele>70</ele>
        <time>2016-01-25T20:59:58.000Z</time>
      </trkpt>
      <trkpt lat="48.86082" lon="2.41899">
        <ele>70</ele>
        <time>2016-01-25T21:00:00.000Z</time>
      </trkpt>
      <trkpt lat="48.86089" lon="2.41867">
        <ele>70.199996948242</ele>
        <time>2016-01-25T21:00:04.000Z</time>
      </trkpt>
      <trkpt lat="48.86101" lon="2.4184">
        <ele>70.800003051758</ele>
        <time>2016-01-25T21:00:08.000Z</time>
      </trkpt>
      <trkpt lat="48.86104" lon="2.41834">
        <ele>71</ele>
        <time>2016-01-25T21:00:09.000Z</time>
      </trkpt>
      <trkpt lat="48.86119" lon="2.41811">
        <ele>70.199996948242</ele>
        <time>2016-01-25T21:00:13.000Z</time>
      </trkpt>
      <trkpt lat="48.86134" lon="2.41788">
        <ele>69.400001525879</ele>
        <time>2016-01-25T21:00:17.000Z</time>
      </trkpt>
      <trkpt lat="48.86147" lon="2.41763">
        <ele>68.800003051758</ele>
        <time>2016-01-25T21:00:21.000Z</time>
      </trkpt>
      <trkpt lat="48.86162" lon="2.41738">
        <ele>68.599998474121</ele>
        <time>2016-01-25T21:00:25.000Z</time>
      </trkpt>
      <trkpt lat="48.86176" lon="2.4171">
        <ele>69.400001525879</ele>
        <time>2016-01-25T21:00:29.000Z</time>
      </trkpt>
      <trkpt lat="48.86189" lon="2.41689">
        <ele>70.400001525879</ele>
        <time>2016-01-25T21:00:33.000Z</time>
      </trkpt>
      <trkpt lat="48.86196" lon="2.41679">
        <ele>70.800003051758</ele>
        <time>2016-01-25T21:00:35.000Z</time>
      </trkpt>
      <trkpt lat="48.86202" lon="2.41668">
        <ele>70.800003051758</ele>
        <time>2016-01-25T21:00:37.000Z</time>
      </trkpt>
      <trkpt lat="48.86212" lon="2.41652">
        <ele>70.800003051758</ele>
        <time>2016-01-25T21:00:40.000Z</time>
      </trkpt>
      <trkpt lat="48.86225" lon="2.41631">
        <ele>70.599998474121</ele>
        <time>2016-01-25T21:00:44.000Z</time>
      </trkpt>
      <trkpt lat="48.86239" lon="2.4161">
        <ele>71.199996948242</ele>
        <time>2016-01-25T21:00:48.000Z</time>
      </trkpt>
      <trkpt lat="48.86249" lon="2.41595">
        <ele>72</ele>
        <time>2016-01-25T21:00:51.000Z</time>
      </trkpt>
      <trkpt lat="48.86263" lon="2.41572">
        <ele>72.800003051758</ele>
        <time>2016-01-25T21:00:55.000Z</time>
      </trkpt>
      <trkpt lat="48.86275" lon="2.41555">
        <ele>73</ele>
        <time>2016-01-25T21:00:58.000Z</time>
      </trkpt>
      <trkpt lat="48.86287" lon="2.41535">
        <ele>73.599998474121</ele>
        <time>2016-01-25T21:01:02.000Z</time>
      </trkpt>
      <trkpt lat="48.86295" lon="2.41521">
        <ele>74</ele>
        <time>2016-01-25T21:01:05.000Z</time>
      </trkpt>
      <trkpt lat="48.86307" lon="2.41503">
        <ele>75</ele>
        <time>2016-01-25T21:01:09.000Z</time>
      </trkpt>
      <trkpt lat="48.86313" lon="2.41495">
        <ele>75.199996948242</ele>
        <time>2016-01-25T21:01:11.000Z</time>
      </trkpt>
      <trkpt lat="48.86324" lon="2.41477">
        <ele>75.199996948242</ele>
        <time>2016-01-25T21:01:15.000Z</time>
      </trkpt>
      <trkpt lat="48.86331" lon="2.41463">
        <ele>75.199996948242</ele>
        <time>2016-01-25T21:01:18.000Z</time>
      </trkpt>
      <trkpt lat="48.86343" lon="2.41442">
        <ele>75.199996948242</ele>
        <time>2016-01-25T21:01:23.000Z</time>
      </trkpt>
      <trkpt lat="48.86345" lon="2.41438">
        <ele>75.199996948242</ele>
        <time>2016-01-25T21:01:24.000Z</time>
      </trkpt>
      <trkpt lat="48.86353" lon="2.41427">
        <ele>75.199996948242</ele>
        <time>2016-01-25T21:01:27.000Z</time>
      </trkpt>
      <trkpt lat="48.86362" lon="2.4141">
        <ele>75.599998474121</ele>
        <time>2016-01-25T21:01:33.000Z</time>
      </trkpt>
      <trkpt lat="48.86372" lon="2.41397">
        <ele>76.800003051758</ele>
        <time>2016-01-25T21:01:42.000Z</time>
      </trkpt>
      <trkpt lat="48.86378" lon="2.41389">
        <ele>77.599998474121</ele>
        <time>2016-01-25T21:01:47.000Z</time>
      </trkpt>
      <trkpt lat="48.86377" lon="2.41378">
        <ele>78.199996948242</ele>
        <time>2016-01-25T21:01:58.000Z</time>
      </trkpt>
      <trkpt lat="48.86371" lon="2.41367">
        <ele>78.599998474121</ele>
        <time>2016-01-25T21:02:06.000Z</time>
      </trkpt>
      <trkpt lat="48.86375" lon="2.41357">
        <ele>79.400001525879</ele>
        <time>2016-01-25T21:02:10.000Z</time>
      </trkpt>
      <trkpt lat="48.86389" lon="2.41334">
        <ele>79.199996948242</ele>
        <time>2016-01-25T21:02:17.000Z</time>
      </trkpt>
      <trkpt lat="48.86404" lon="2.41314">
        <ele>79</ele>
        <time>2016-01-25T21:02:23.000Z</time>
      </trkpt>
      <trkpt lat="48.86421" lon="2.41298">
        <ele>79.599998474121</ele>
        <time>2016-01-25T21:02:31.000Z</time>
      </trkpt>
      <trkpt lat="48.86427" lon="2.41292">
        <ele>80</ele>
        <time>2016-01-25T21:02:34.000Z</time>
      </trkpt>
      <trkpt lat="48.8644" lon="2.4127">
        <ele>81.800003051758</ele>
        <time>2016-01-25T21:02:42.000Z</time>
      </trkpt>
      <trkpt lat="48.8645" lon="2.41242">
        <ele>82.800003051758</ele>
        <time>2016-01-25T21:02:49.000Z</time>
      </trkpt>
      <trkpt lat="48.86459" lon="2.41215">
        <ele>83</ele>
        <time>2016-01-25T21:02:56.000Z</time>
      </trkpt>
      <trkpt lat="48.86471" lon="2.41193">
        <ele>83</ele>
        <time>2016-01-25T21:03:04.000Z</time>
      </trkpt>
      <trkpt lat="48.86482" lon="2.41169">
        <ele>83.800003051758</ele>
        <time>2016-01-25T21:03:11.000Z</time>
      </trkpt>
      <trkpt lat="48.86491" lon="2.41147">
        <ele>83.199996948242</ele>
        <time>2016-01-25T21:03:20.000Z</time>
      </trkpt>
      <trkpt lat="48.86494" lon="2.4114">
        <ele>82.800003051758</ele>
        <time>2016-01-25T21:03:27.000Z</time>
      </trkpt>
      <trkpt lat="48.8649" lon="2.4111">
        <ele>82.599998474121</ele>
        <time>2016-01-25T21:04:10.000Z</time>
      </trkpt>
      <trkpt lat="48.86481" lon="2.41083">
        <ele>82.400001525879</ele>
        <time>2016-01-25T21:04:19.000Z</time>
      </trkpt>
      <trkpt lat="48.86474" lon="2.41056">
        <ele>82.400001525879</ele>
        <time>2016-01-25T21:04:27.000Z</time>
      </trkpt>
      <trkpt lat="48.86466" lon="2.41031">
        <ele>82.199996948242</ele>
        <time>2016-01-25T21:04:36.000Z</time>
      </trkpt>
      <trkpt lat="48.86464" lon="2.41029">
        <ele>82.199996948242</ele>
        <time>2016-01-25T21:04:37.000Z</time>
      </trkpt>
      <trkpt lat="48.86447" lon="2.41036">
        <ele>81</ele>
        <time>2016-01-25T21:04:43.000Z</time>
      </trkpt>
      <trkpt lat="48.86431" lon="2.41048">
        <ele>80</ele>
        <time>2016-01-25T21:04:49.000Z</time>
      </trkpt>
      <trkpt lat="48.8641" lon="2.41058">
        <ele>79.400001525879</ele>
        <time>2016-01-25T21:04:56.000Z</time>
      </trkpt>
      <trkpt lat="48.86391" lon="2.41069">
        <ele>79.199996948242</ele>
        <time>2016-01-25T21:05:02.000Z</time>
      </trkpt>
      <trkpt lat="48.86372" lon="2.41077">
        <ele>79.199996948242</ele>
        <time>2016-01-25T21:05:07.000Z</time>
      </trkpt>
      <trkpt lat="48.86353" lon="2.41082">
        <ele>79</ele>
        <time>2016-01-25T21:05:12.000Z</time>
      </trkpt>
      <trkpt lat="48.86334" lon="2.41085">
        <ele>78.800003051758</ele>
        <time>2016-01-25T21:05:17.000Z</time>
      </trkpt>
      <trkpt lat="48.86312" lon="2.4109">
        <ele>78.800003051758</ele>
        <time>2016-01-25T21:05:22.000Z</time>
      </trkpt>
      <trkpt lat="48.86292" lon="2.41095">
        <ele>78.599998474121</ele>
        <time>2016-01-25T21:05:27.000Z</time>
      </trkpt>
      <trkpt lat="48.86272" lon="2.41101">
        <ele>77.800003051758</ele>
        <time>2016-01-25T21:05:31.000Z</time>
      </trkpt>
      <trkpt lat="48.86252" lon="2.41101">
        <ele>76.400001525879</ele>
        <time>2016-01-25T21:05:35.000Z</time>
      </trkpt>
      <trkpt lat="48.86232" lon="2.41102">
        <ele>74.800003051758</ele>
        <time>2016-01-25T21:05:40.000Z</time>
      </trkpt>
      <trkpt lat="48.86214" lon="2.41102">
        <ele>73.599998474121</ele>
        <time>2016-01-25T21:05:44.000Z</time>
      </trkpt>
      <trkpt lat="48.86193" lon="2.41104">
        <ele>72.599998474121</ele>
        <time>2016-01-25T21:05:49.000Z</time>
      </trkpt>
      <trkpt lat="48.86181" lon="2.41104">
        <ele>72.199996948242</ele>
        <time>2016-01-25T21:05:52.000Z</time>
      </trkpt>
      <trkpt lat="48.86159" lon="2.41105">
        <ele>71.400001525879</ele>
        <time>2016-01-25T21:05:57.000Z</time>
      </trkpt>
      <trkpt lat="48.8614" lon="2.41107">
        <ele>70.599998474121</ele>
        <time>2016-01-25T21:06:01.000Z</time>
      </trkpt>
      <trkpt lat="48.8612" lon="2.41108">
        <ele>69.800003051758</ele>
        <time>2016-01-25T21:06:05.000Z</time>
      </trkpt>
      <trkpt lat="48.86099" lon="2.41113">
        <ele>69.800003051758</ele>
        <time>2016-01-25T21:06:10.000Z</time>
      </trkpt>
      <trkpt lat="48.86087" lon="2.41114">
        <ele>70.599998474121</ele>
        <time>2016-01-25T21:06:13.000Z</time>
      </trkpt>
      <trkpt lat="48.8608" lon="2.41115">
        <ele>71.199996948242</ele>
        <time>2016-01-25T21:06:15.000Z</time>
      </trkpt>
      <trkpt lat="48.86067" lon="2.41116">
        <ele>72</ele>
        <time>2016-01-25T21:06:19.000Z</time>
      </trkpt>
      <trkpt lat="48.86047" lon="2.41119">
        <ele>72.800003051758</ele>
        <time>2016-01-25T21:06:24.000Z</time>
      </trkpt>
      <trkpt lat="48.86039" lon="2.4112">
        <ele>72.800003051758</ele>
        <time>2016-01-25T21:06:26.000Z</time>
      </trkpt>
      <trkpt lat="48.8602" lon="2.41124">
        <ele>72.800003051758</ele>
        <time>2016-01-25T21:06:31.000Z</time>
      </trkpt>
      <trkpt lat="48.86" lon="2.41129">
        <ele>71.800003051758</ele>
        <time>2016-01-25T21:06:36.000Z</time>
      </trkpt>
      <trkpt lat="48.85978" lon="2.41133">
        <ele>71.599998474121</ele>
        <time>2016-01-25T21:06:42.000Z</time>
      </trkpt>
      <trkpt lat="48.85958" lon="2.41136">
        <ele>72.400001525879</ele>
        <time>2016-01-25T21:06:48.000Z</time>
      </trkpt>
      <trkpt lat="48.85936" lon="2.41139">
        <ele>73</ele>
        <time>2016-01-25T21:06:54.000Z</time>
      </trkpt>
      <trkpt lat="48.85917" lon="2.41143">
        <ele>73.199996948242</ele>
        <time>2016-01-25T21:06:59.000Z</time>
      </trkpt>
      <trkpt lat="48.85895" lon="2.41147">
        <ele>73</ele>
        <time>2016-01-25T21:07:05.000Z</time>
      </trkpt>
      <trkpt lat="48.85877" lon="2.41152">
        <ele>72.599998474121</ele>
        <time>2016-01-25T21:07:10.000Z</time>
      </trkpt>
      <trkpt lat="48.85858" lon="2.41153">
        <ele>72.400001525879</ele>
        <time>2016-01-25T21:07:15.000Z</time>
      </trkpt>
      <trkpt lat="48.85836" lon="2.41154">
        <ele>71</ele>
        <time>2016-01-25T21:07:20.000Z</time>
      </trkpt>
      <trkpt lat="48.85815" lon="2.41153">
        <ele>69.400001525879</ele>
        <time>2016-01-25T21:07:25.000Z</time>
      </trkpt>
      <trkpt lat="48.85793" lon="2.41155">
        <ele>67.800003051758</ele>
        <time>2016-01-25T21:07:30.000Z</time>
      </trkpt>
      <trkpt lat="48.85775" lon="2.41154">
        <ele>66.599998474121</ele>
        <time>2016-01-25T21:07:34.000Z</time>
      </trkpt>
      <trkpt lat="48.85755" lon="2.41152">
        <ele>66.800003051758</ele>
        <time>2016-01-25T21:07:39.000Z</time>
      </trkpt>
      <trkpt lat="48.85735" lon="2.41152">
        <ele>67</ele>
        <time>2016-01-25T21:07:44.000Z</time>
      </trkpt>
      <trkpt lat="48.85716" lon="2.41149">
        <ele>67.199996948242</ele>
        <time>2016-01-25T21:07:50.000Z</time>
      </trkpt>
      <trkpt lat="48.85706" lon="2.41147">
        <ele>67.400001525879</ele>
        <time>2016-01-25T21:07:54.000Z</time>
      </trkpt>
      <trkpt lat="48.85692" lon="2.41155">
        <ele>67.400001525879</ele>
        <time>2016-01-25T21:07:59.000Z</time>
      </trkpt>
      <trkpt lat="48.85672" lon="2.41165">
        <ele>68</ele>
        <time>2016-01-25T21:08:04.000Z</time>
      </trkpt>
      <trkpt lat="48.85653" lon="2.41176">
        <ele>68.800003051758</ele>
        <time>2016-01-25T21:08:09.000Z</time>
      </trkpt>
      <trkpt lat="48.85633" lon="2.41187">
        <ele>69.599998474121</ele>
        <time>2016-01-25T21:08:14.000Z</time>
      </trkpt>
      <trkpt lat="48.85612" lon="2.41196">
        <ele>70.800003051758</ele>
        <time>2016-01-25T21:08:19.000Z</time>
      </trkpt>
      <trkpt lat="48.85591" lon="2.41202">
        <ele>71</ele>
        <time>2016-01-25T21:08:24.000Z</time>
      </trkpt>
      <trkpt lat="48.85573" lon="2.41207">
        <ele>70.599998474121</ele>
        <time>2016-01-25T21:08:28.000Z</time>
      </trkpt>
      <trkpt lat="48.85552" lon="2.41213">
        <ele>69.800003051758</ele>
        <time>2016-01-25T21:08:33.000Z</time>
      </trkpt>
      <trkpt lat="48.85531" lon="2.41213">
        <ele>69</ele>
        <time>2016-01-25T21:08:38.000Z</time>
      </trkpt>
      <trkpt lat="48.85509" lon="2.41209">
        <ele>68.800003051758</ele>
        <time>2016-01-25T21:08:43.000Z</time>
      </trkpt>
      <trkpt lat="48.85505" lon="2.41209">
        <ele>68.599998474121</ele>
        <time>2016-01-25T21:08:44.000Z</time>
      </trkpt>
      <trkpt lat="48.85486" lon="2.41204">
        <ele>68.599998474121</ele>
        <time>2016-01-25T21:08:49.000Z</time>
      </trkpt>
      <trkpt lat="48.85466" lon="2.41203">
        <ele>68</ele>
        <time>2016-01-25T21:08:54.000Z</time>
      </trkpt>
      <trkpt lat="48.85445" lon="2.41201">
        <ele>67.199996948242</ele>
        <time>2016-01-25T21:08:59.000Z</time>
      </trkpt>
      <trkpt lat="48.85423" lon="2.41201">
        <ele>66.199996948242</ele>
        <time>2016-01-25T21:09:04.000Z</time>
      </trkpt>
      <trkpt lat="48.85403" lon="2.412">
        <ele>65.400001525879</ele>
        <time>2016-01-25T21:09:10.000Z</time>
      </trkpt>
      <trkpt lat="48.85397" lon="2.41199">
        <ele>65</ele>
        <time>2016-01-25T21:09:12.000Z</time>
      </trkpt>
      <trkpt lat="48.8539" lon="2.41197">
        <ele>65</ele>
        <time>2016-01-25T21:09:16.000Z</time>
      </trkpt>
      <trkpt lat="48.85382" lon="2.41197">
        <ele>64.800003051758</ele>
        <time>2016-01-25T21:09:24.000Z</time>
      </trkpt>
      <trkpt lat="48.85365" lon="2.4121">
        <ele>63.599998474121</ele>
        <time>2016-01-25T21:09:39.000Z</time>
      </trkpt>
      <trkpt lat="48.85348" lon="2.41222">
        <ele>62.200000762939</ele>
        <time>2016-01-25T21:09:47.000Z</time>
      </trkpt>
      <trkpt lat="48.8533" lon="2.41232">
        <ele>61.200000762939</ele>
        <time>2016-01-25T21:09:54.000Z</time>
      </trkpt>
      <trkpt lat="48.85313" lon="2.41244">
        <ele>60.599998474121</ele>
        <time>2016-01-25T21:10:01.000Z</time>
      </trkpt>
      <trkpt lat="48.85294" lon="2.41249">
        <ele>60.200000762939</ele>
        <time>2016-01-25T21:10:08.000Z</time>
      </trkpt>
      <trkpt lat="48.85275" lon="2.41253">
        <ele>59.799999237061</ele>
        <time>2016-01-25T21:10:14.000Z</time>
      </trkpt>
      <trkpt lat="48.85256" lon="2.41262">
        <ele>58.799999237061</ele>
        <time>2016-01-25T21:10:20.000Z</time>
      </trkpt>
      <trkpt lat="48.85238" lon="2.41267">
        <ele>57.599998474121</ele>
        <time>2016-01-25T21:10:25.000Z</time>
      </trkpt>
      <trkpt lat="48.8522" lon="2.41271">
        <ele>56.599998474121</ele>
        <time>2016-01-25T21:10:29.000Z</time>
      </trkpt>
      <trkpt lat="48.85201" lon="2.41274">
        <ele>56.400001525879</ele>
        <time>2016-01-25T21:10:34.000Z</time>
      </trkpt>
      <trkpt lat="48.85181" lon="2.41273">
        <ele>56.599998474121</ele>
        <time>2016-01-25T21:10:39.000Z</time>
      </trkpt>
      <trkpt lat="48.8516" lon="2.41274">
        <ele>57.599998474121</ele>
        <time>2016-01-25T21:10:44.000Z</time>
      </trkpt>
      <trkpt lat="48.85138" lon="2.4127">
        <ele>58.799999237061</ele>
        <time>2016-01-25T21:10:49.000Z</time>
      </trkpt>
      <trkpt lat="48.85119" lon="2.41269">
        <ele>59.200000762939</ele>
        <time>2016-01-25T21:10:53.000Z</time>
      </trkpt>
      <trkpt lat="48.85113" lon="2.41267">
        <ele>59.400001525879</ele>
        <time>2016-01-25T21:10:56.000Z</time>
      </trkpt>
      <trkpt lat="48.85106" lon="2.41269">
        <ele>59.200000762939</ele>
        <time>2016-01-25T21:11:01.000Z</time>
      </trkpt>
      <trkpt lat="48.85104" lon="2.41271">
        <ele>59.200000762939</ele>
        <time>2016-01-25T21:11:03.000Z</time>
      </trkpt>
      <trkpt lat="48.85103" lon="2.41272">
        <ele>59</ele>
        <time>2016-01-25T21:11:05.000Z</time>
      </trkpt>
      <trkpt lat="48.85096" lon="2.41275">
        <ele>58.599998474121</ele>
        <time>2016-01-25T21:11:39.000Z</time>
      </trkpt>
      <trkpt lat="48.85077" lon="2.41278">
        <ele>57.599998474121</ele>
        <time>2016-01-25T21:11:45.000Z</time>
      </trkpt>
      <trkpt lat="48.85057" lon="2.41282">
        <ele>56.400001525879</ele>
        <time>2016-01-25T21:11:50.000Z</time>
      </trkpt>
      <trkpt lat="48.85038" lon="2.41285">
        <ele>56.200000762939</ele>
        <time>2016-01-25T21:11:54.000Z</time>
      </trkpt>
      <trkpt lat="48.85017" lon="2.41287">
        <ele>56</ele>
        <time>2016-01-25T21:11:58.000Z</time>
      </trkpt>
      <trkpt lat="48.84998" lon="2.41288">
        <ele>56</ele>
        <time>2016-01-25T21:12:02.000Z</time>
      </trkpt>
      <trkpt lat="48.84978" lon="2.41289">
        <ele>56</ele>
        <time>2016-01-25T21:12:06.000Z</time>
      </trkpt>
      <trkpt lat="48.84959" lon="2.41291">
        <ele>55.799999237061</ele>
        <time>2016-01-25T21:12:10.000Z</time>
      </trkpt>
      <trkpt lat="48.84938" lon="2.41294">
        <ele>55.400001525879</ele>
        <time>2016-01-25T21:12:14.000Z</time>
      </trkpt>
      <trkpt lat="48.84929" lon="2.41295">
        <ele>55.599998474121</ele>
        <time>2016-01-25T21:12:16.000Z</time>
      </trkpt>
      <trkpt lat="48.84915" lon="2.41299">
        <ele>55.599998474121</ele>
        <time>2016-01-25T21:12:20.000Z</time>
      </trkpt>
      <trkpt lat="48.84895" lon="2.41309">
        <ele>55.400001525879</ele>
        <time>2016-01-25T21:12:25.000Z</time>
      </trkpt>
      <trkpt lat="48.84891" lon="2.4131">
        <ele>55.200000762939</ele>
        <time>2016-01-25T21:12:26.000Z</time>
      </trkpt>
      <trkpt lat="48.84884" lon="2.41312">
        <ele>55</ele>
        <time>2016-01-25T21:12:28.000Z</time>
      </trkpt>
      <trkpt lat="48.84876" lon="2.41313">
        <ele>55</ele>
        <time>2016-01-25T21:12:30.000Z</time>
      </trkpt>
      <trkpt lat="48.84862" lon="2.41315">
        <ele>54.599998474121</ele>
        <time>2016-01-25T21:12:35.000Z</time>
      </trkpt>
      <trkpt lat="48.84853" lon="2.41315">
        <ele>54.599998474121</ele>
        <time>2016-01-25T21:12:38.000Z</time>
      </trkpt>
      <trkpt lat="48.84834" lon="2.41316">
        <ele>54.200000762939</ele>
        <time>2016-01-25T21:12:44.000Z</time>
      </trkpt>
      <trkpt lat="48.84816" lon="2.41311">
        <ele>54.400001525879</ele>
        <time>2016-01-25T21:12:50.000Z</time>
      </trkpt>
      <trkpt lat="48.84797" lon="2.41302">
        <ele>54.799999237061</ele>
        <time>2016-01-25T21:12:57.000Z</time>
      </trkpt>
      <trkpt lat="48.8478" lon="2.41288">
        <ele>55</ele>
        <time>2016-01-25T21:13:03.000Z</time>
      </trkpt>
      <trkpt lat="48.84779" lon="2.41284">
        <ele>55</ele>
        <time>2016-01-25T21:13:04.000Z</time>
      </trkpt>
      <trkpt lat="48.84779" lon="2.41268">
        <ele>55</ele>
        <time>2016-01-25T21:13:08.000Z</time>
      </trkpt>
      <trkpt lat="48.8478" lon="2.41237">
        <ele>55.400001525879</ele>
        <time>2016-01-25T21:13:15.000Z</time>
      </trkpt>
      <trkpt lat="48.84782" lon="2.41208">
        <ele>56.200000762939</ele>
        <time>2016-01-25T21:13:22.000Z</time>
      </trkpt>
      <trkpt lat="48.84783" lon="2.41179">
        <ele>57</ele>
        <time>2016-01-25T21:13:28.000Z</time>
      </trkpt>
      <trkpt lat="48.84782" lon="2.41165">
        <ele>57.200000762939</ele>
        <time>2016-01-25T21:13:32.000Z</time>
      </trkpt>
      <trkpt lat="48.84774" lon="2.4116">
        <ele>56.799999237061</ele>
        <time>2016-01-25T21:13:37.000Z</time>
      </trkpt>
      <trkpt lat="48.84755" lon="2.41154">
        <ele>56.400001525879</ele>
        <time>2016-01-25T21:13:44.000Z</time>
      </trkpt>
      <trkpt lat="48.84735" lon="2.41148">
        <ele>55.599998474121</ele>
        <time>2016-01-25T21:13:52.000Z</time>
      </trkpt>
      <trkpt lat="48.84721" lon="2.4113">
        <ele>55.200000762939</ele>
        <time>2016-01-25T21:14:00.000Z</time>
      </trkpt>
      <trkpt lat="48.84715" lon="2.41103">
        <ele>54.799999237061</ele>
        <time>2016-01-25T21:14:07.000Z</time>
      </trkpt>
      <trkpt lat="48.84715" lon="2.41075">
        <ele>54.400001525879</ele>
        <time>2016-01-25T21:14:12.000Z</time>
      </trkpt>
      <trkpt lat="48.84719" lon="2.41044">
        <ele>54.799999237061</ele>
        <time>2016-01-25T21:14:17.000Z</time>
      </trkpt>
      <trkpt lat="48.84722" lon="2.41014">
        <ele>54.599998474121</ele>
        <time>2016-01-25T21:14:23.000Z</time>
      </trkpt>
      <trkpt lat="48.84726" lon="2.40998">
        <ele>54.200000762939</ele>
        <time>2016-01-25T21:14:29.000Z</time>
      </trkpt>
      <trkpt lat="48.84725" lon="2.41025">
        <ele>54.799999237061</ele>
        <time>2016-01-25T21:14:55.000Z</time>
      </trkpt>
      <trkpt lat="48.84724" lon="2.41053">
        <ele>54.799999237061</ele>
        <time>2016-01-25T21:15:02.000Z</time>
      </trkpt>
      <trkpt lat="48.84723" lon="2.41081">
        <ele>54.400001525879</ele>
        <time>2016-01-25T21:15:11.000Z</time>
      </trkpt>
      <trkpt lat="48.84722" lon="2.41095">
        <ele>54.799999237061</ele>
        <time>2016-01-25T21:15:17.000Z</time>
      </trkpt>
      <trkpt lat="48.84724" lon="2.411">
        <ele>54.799999237061</ele>
        <time>2016-01-25T21:15:22.000Z</time>
      </trkpt>
      <trkpt lat="48.84721" lon="2.41072">
        <ele>54.599998474121</ele>
        <time>2016-01-25T21:15:37.000Z</time>
      </trkpt>
      <trkpt lat="48.84721" lon="2.41041">
        <ele>54.799999237061</ele>
        <time>2016-01-25T21:15:44.000Z</time>
      </trkpt>
      <trkpt lat="48.84723" lon="2.41009">
        <ele>54.400001525879</ele>
        <time>2016-01-25T21:15:49.000Z</time>
      </trkpt>
      <trkpt lat="48.84724" lon="2.40995">
        <ele>54.200000762939</ele>
        <time>2016-01-25T21:15:51.000Z</time>
      </trkpt>
      <trkpt lat="48.84726" lon="2.40967">
        <ele>54.799999237061</ele>
        <time>2016-01-25T21:15:55.000Z</time>
      </trkpt>
      <trkpt lat="48.84727" lon="2.40938">
        <ele>55.799999237061</ele>
        <time>2016-01-25T21:15:59.000Z</time>
      </trkpt>
      <trkpt lat="48.8473" lon="2.40909">
        <ele>56.200000762939</ele>
        <time>2016-01-25T21:16:03.000Z</time>
      </trkpt>
      <trkpt lat="48.84734" lon="2.40882">
        <ele>54.400001525879</ele>
        <time>2016-01-25T21:16:07.000Z</time>
      </trkpt>
      <trkpt lat="48.84737" lon="2.40847">
        <ele>53.200000762939</ele>
        <time>2016-01-25T21:16:12.000Z</time>
      </trkpt>
      <trkpt lat="48.84739" lon="2.40816">
        <ele>52.799999237061</ele>
        <time>2016-01-25T21:16:16.000Z</time>
      </trkpt>
      <trkpt lat="48.8474" lon="2.40808">
        <ele>52.799999237061</ele>
        <time>2016-01-25T21:16:17.000Z</time>
      </trkpt>
      <trkpt lat="48.84741" lon="2.40793">
        <ele>53</ele>
        <time>2016-01-25T21:16:19.000Z</time>
      </trkpt>
      <trkpt lat="48.84745" lon="2.40761">
        <ele>53</ele>
        <time>2016-01-25T21:16:23.000Z</time>
      </trkpt>
      <trkpt lat="48.84748" lon="2.4073">
        <ele>53.400001525879</ele>
        <time>2016-01-25T21:16:27.000Z</time>
      </trkpt>
      <trkpt lat="48.8475" lon="2.40715">
        <ele>53.400001525879</ele>
        <time>2016-01-25T21:16:29.000Z</time>
      </trkpt>
      <trkpt lat="48.84752" lon="2.40702">
        <ele>53.200000762939</ele>
        <time>2016-01-25T21:16:31.000Z</time>
      </trkpt>
      <trkpt lat="48.84756" lon="2.40671">
        <ele>52.599998474121</ele>
        <time>2016-01-25T21:16:36.000Z</time>
      </trkpt>
      <trkpt lat="48.84758" lon="2.40653">
        <ele>52.599998474121</ele>
        <time>2016-01-25T21:16:40.000Z</time>
      </trkpt>
      <trkpt lat="48.84761" lon="2.40634">
        <ele>53</ele>
        <time>2016-01-25T21:16:46.000Z</time>
      </trkpt>
      <trkpt lat="48.84762" lon="2.40605">
        <ele>53.599998474121</ele>
        <time>2016-01-25T21:16:52.000Z</time>
      </trkpt>
      <trkpt lat="48.84764" lon="2.40575">
        <ele>54.200000762939</ele>
        <time>2016-01-25T21:16:57.000Z</time>
      </trkpt>
      <trkpt lat="48.84767" lon="2.40543">
        <ele>53.799999237061</ele>
        <time>2016-01-25T21:17:02.000Z</time>
      </trkpt>
      <trkpt lat="48.8477" lon="2.4051">
        <ele>53.200000762939</ele>
        <time>2016-01-25T21:17:07.000Z</time>
      </trkpt>
      <trkpt lat="48.84773" lon="2.40483">
        <ele>54</ele>
        <time>2016-01-25T21:17:11.000Z</time>
      </trkpt>
      <trkpt lat="48.84775" lon="2.40455">
        <ele>55.799999237061</ele>
        <time>2016-01-25T21:17:15.000Z</time>
      </trkpt>
      <trkpt lat="48.84778" lon="2.40428">
        <ele>57.599998474121</ele>
        <time>2016-01-25T21:17:19.000Z</time>
      </trkpt>
      <trkpt lat="48.8478" lon="2.404">
        <ele>58.400001525879</ele>
        <time>2016-01-25T21:17:23.000Z</time>
      </trkpt>
      <trkpt lat="48.84784" lon="2.40372">
        <ele>59.200000762939</ele>
        <time>2016-01-25T21:17:27.000Z</time>
      </trkpt>
      <trkpt lat="48.84786" lon="2.40341">
        <ele>60.200000762939</ele>
        <time>2016-01-25T21:17:31.000Z</time>
      </trkpt>
      <trkpt lat="48.84788" lon="2.40307">
        <ele>59.599998474121</ele>
        <time>2016-01-25T21:17:35.000Z</time>
      </trkpt>
      <trkpt lat="48.8479" lon="2.40284">
        <ele>58.599998474121</ele>
        <time>2016-01-25T21:17:38.000Z</time>
      </trkpt>
      <trkpt lat="48.84793" lon="2.40251">
        <ele>57.400001525879</ele>
        <time>2016-01-25T21:17:42.000Z</time>
      </trkpt>
      <trkpt lat="48.84796" lon="2.40216">
        <ele>57.200000762939</ele>
        <time>2016-01-25T21:17:46.000Z</time>
      </trkpt>
      <trkpt lat="48.84798" lon="2.40183">
        <ele>57.200000762939</ele>
        <time>2016-01-25T21:17:50.000Z</time>
      </trkpt>
      <trkpt lat="48.84801" lon="2.4015">
        <ele>57.799999237061</ele>
        <time>2016-01-25T21:17:54.000Z</time>
      </trkpt>
      <trkpt lat="48.84804" lon="2.40119">
        <ele>58.200000762939</ele>
        <time>2016-01-25T21:17:58.000Z</time>
      </trkpt>
      <trkpt lat="48.84806" lon="2.40103">
        <ele>58.200000762939</ele>
        <time>2016-01-25T21:18:00.000Z</time>
      </trkpt>
      <trkpt lat="48.84809" lon="2.40071">
        <ele>57.599998474121</ele>
        <time>2016-01-25T21:18:04.000Z</time>
      </trkpt>
      <trkpt lat="48.84812" lon="2.40038">
        <ele>56</ele>
        <time>2016-01-25T21:18:08.000Z</time>
      </trkpt>
      <trkpt lat="48.84814" lon="2.40007">
        <ele>55.200000762939</ele>
        <time>2016-01-25T21:18:12.000Z</time>
      </trkpt>
      <trkpt lat="48.84816" lon="2.39983">
        <ele>54.599998474121</ele>
        <time>2016-01-25T21:18:15.000Z</time>
      </trkpt>
      <trkpt lat="48.84817" lon="2.39968">
        <ele>54.200000762939</ele>
        <time>2016-01-25T21:18:17.000Z</time>
      </trkpt>
      <trkpt lat="48.8482" lon="2.39939">
        <ele>53.799999237061</ele>
        <time>2016-01-25T21:18:22.000Z</time>
      </trkpt>
      <trkpt lat="48.84821" lon="2.39923">
        <ele>53.599998474121</ele>
        <time>2016-01-25T21:18:25.000Z</time>
      </trkpt>
      <trkpt lat="48.84821" lon="2.39913">
        <ele>53.799999237061</ele>
        <time>2016-01-25T21:18:27.000Z</time>
      </trkpt>
      <trkpt lat="48.84823" lon="2.39885">
        <ele>56.200000762939</ele>
        <time>2016-01-25T21:18:32.000Z</time>
      </trkpt>
      <trkpt lat="48.84825" lon="2.39867">
        <ele>57</ele>
        <time>2016-01-25T21:18:35.000Z</time>
      </trkpt>
      <trkpt lat="48.84827" lon="2.39838">
        <ele>58.400001525879</ele>
        <time>2016-01-25T21:18:40.000Z</time>
      </trkpt>
      <trkpt lat="48.84831" lon="2.3981">
        <ele>58</ele>
        <time>2016-01-25T21:18:45.000Z</time>
      </trkpt>
      <trkpt lat="48.84835" lon="2.3978">
        <ele>57.200000762939</ele>
        <time>2016-01-25T21:18:51.000Z</time>
      </trkpt>
      <trkpt lat="48.84836" lon="2.39773">
        <ele>57</ele>
        <time>2016-01-25T21:18:53.000Z</time>
      </trkpt>
      <trkpt lat="48.84836" lon="2.39767">
        <ele>57</ele>
        <time>2016-01-25T21:18:56.000Z</time>
      </trkpt>
      <trkpt lat="48.84843" lon="2.39748">
        <ele>56.200000762939</ele>
        <time>2016-01-25T21:19:25.000Z</time>
      </trkpt>
      <trkpt lat="48.84848" lon="2.39719">
        <ele>55</ele>
        <time>2016-01-25T21:19:33.000Z</time>
      </trkpt>
      <trkpt lat="48.84852" lon="2.39692">
        <ele>53.400001525879</ele>
        <time>2016-01-25T21:19:39.000Z</time>
      </trkpt>
      <trkpt lat="48.84864" lon="2.39672">
        <ele>52.599998474121</ele>
        <time>2016-01-25T21:19:44.000Z</time>
      </trkpt>
      <trkpt lat="48.8488" lon="2.3965">
        <ele>53.599998474121</ele>
        <time>2016-01-25T21:19:49.000Z</time>
      </trkpt>
      <trkpt lat="48.84883" lon="2.39645">
        <ele>53.599998474121</ele>
        <time>2016-01-25T21:19:50.000Z</time>
      </trkpt>
      <trkpt lat="48.84892" lon="2.3962">
        <ele>54</ele>
        <time>2016-01-25T21:19:54.000Z</time>
      </trkpt>
      <trkpt lat="48.84898" lon="2.39594">
        <ele>53.200000762939</ele>
        <time>2016-01-25T21:19:58.000Z</time>
      </trkpt>
      <trkpt lat="48.84902" lon="2.39566">
        <ele>52.599998474121</ele>
        <time>2016-01-25T21:20:03.000Z</time>
      </trkpt>
      <trkpt lat="48.84916" lon="2.39548">
        <ele>53</ele>
        <time>2016-01-25T21:20:08.000Z</time>
      </trkpt>
      <trkpt lat="48.84935" lon="2.3954">
        <ele>53.400001525879</ele>
        <time>2016-01-25T21:20:13.000Z</time>
      </trkpt>
      <trkpt lat="48.84955" lon="2.39529">
        <ele>53.599998474121</ele>
        <time>2016-01-25T21:20:18.000Z</time>
      </trkpt>
      <trkpt lat="48.84976" lon="2.39519">
        <ele>54.200000762939</ele>
        <time>2016-01-25T21:20:23.000Z</time>
      </trkpt>
      <trkpt lat="48.84995" lon="2.39507">
        <ele>55.400001525879</ele>
        <time>2016-01-25T21:20:27.000Z</time>
      </trkpt>
      <trkpt lat="48.85014" lon="2.39491">
        <ele>57</ele>
        <time>2016-01-25T21:20:31.000Z</time>
      </trkpt>
      <trkpt lat="48.85033" lon="2.39477">
        <ele>56.400001525879</ele>
        <time>2016-01-25T21:20:35.000Z</time>
      </trkpt>
      <trkpt lat="48.8505" lon="2.39464">
        <ele>56.200000762939</ele>
        <time>2016-01-25T21:20:39.000Z</time>
      </trkpt>
      <trkpt lat="48.85061" lon="2.39454">
        <ele>55.799999237061</ele>
        <time>2016-01-25T21:20:42.000Z</time>
      </trkpt>
      <trkpt lat="48.85081" lon="2.39444">
        <ele>55.400001525879</ele>
        <time>2016-01-25T21:20:47.000Z</time>
      </trkpt>
      <trkpt lat="48.85085" lon="2.39442">
        <ele>55.400001525879</ele>
        <time>2016-01-25T21:20:48.000Z</time>
      </trkpt>
      <trkpt lat="48.85103" lon="2.39434">
        <ele>55</ele>
        <time>2016-01-25T21:20:53.000Z</time>
      </trkpt>
      <trkpt lat="48.85111" lon="2.39429">
        <ele>54.599998474121</ele>
        <time>2016-01-25T21:20:55.000Z</time>
      </trkpt>
      <trkpt lat="48.85129" lon="2.39417">
        <ele>54.799999237061</ele>
        <time>2016-01-25T21:21:00.000Z</time>
      </trkpt>
      <trkpt lat="48.85149" lon="2.39403">
        <ele>55.599998474121</ele>
        <time>2016-01-25T21:21:05.000Z</time>
      </trkpt>
      <trkpt lat="48.85167" lon="2.39389">
        <ele>56.200000762939</ele>
        <time>2016-01-25T21:21:10.000Z</time>
      </trkpt>
      <trkpt lat="48.85186" lon="2.39375">
        <ele>56</ele>
        <time>2016-01-25T21:21:16.000Z</time>
      </trkpt>
      <trkpt lat="48.85192" lon="2.3937">
        <ele>56</ele>
        <time>2016-01-25T21:21:19.000Z</time>
      </trkpt>
      <trkpt lat="48.8521" lon="2.39359">
        <ele>56.200000762939</ele>
        <time>2016-01-25T21:21:27.000Z</time>
      </trkpt>
      <trkpt lat="48.85225" lon="2.39345">
        <ele>56.200000762939</ele>
        <time>2016-01-25T21:21:34.000Z</time>
      </trkpt>
      <trkpt lat="48.85243" lon="2.39338">
        <ele>56.400001525879</ele>
        <time>2016-01-25T21:21:41.000Z</time>
      </trkpt>
      <trkpt lat="48.85257" lon="2.39316">
        <ele>56.400001525879</ele>
        <time>2016-01-25T21:21:50.000Z</time>
      </trkpt>
      <trkpt lat="48.85269" lon="2.39306">
        <ele>56.599998474121</ele>
        <time>2016-01-25T21:21:57.000Z</time>
      </trkpt>
      <trkpt lat="48.8527" lon="2.3928">
        <ele>56.400001525879</ele>
        <time>2016-01-25T21:22:09.000Z</time>
      </trkpt>
      <trkpt lat="48.85263" lon="2.39249">
        <ele>55.799999237061</ele>
        <time>2016-01-25T21:22:15.000Z</time>
      </trkpt>
      <trkpt lat="48.85256" lon="2.39221">
        <ele>55.200000762939</ele>
        <time>2016-01-25T21:22:20.000Z</time>
      </trkpt>
      <trkpt lat="48.85248" lon="2.3919">
        <ele>54.400001525879</ele>
        <time>2016-01-25T21:22:25.000Z</time>
      </trkpt>
      <trkpt lat="48.8524" lon="2.39164">
        <ele>53.599998474121</ele>
        <time>2016-01-25T21:22:29.000Z</time>
      </trkpt>
      <trkpt lat="48.85233" lon="2.39136">
        <ele>53.599998474121</ele>
        <time>2016-01-25T21:22:33.000Z</time>
      </trkpt>
      <trkpt lat="48.85226" lon="2.39104">
        <ele>53.599998474121</ele>
        <time>2016-01-25T21:22:38.000Z</time>
      </trkpt>
      <trkpt lat="48.8522" lon="2.39071">
        <ele>54.200000762939</ele>
        <time>2016-01-25T21:22:43.000Z</time>
      </trkpt>
      <trkpt lat="48.8522" lon="2.39037">
        <ele>55.400001525879</ele>
        <time>2016-01-25T21:22:48.000Z</time>
      </trkpt>
      <trkpt lat="48.85215" lon="2.39005">
        <ele>55.400001525879</ele>
        <time>2016-01-25T21:22:53.000Z</time>
      </trkpt>
      <trkpt lat="48.85222" lon="2.38973">
        <ele>54.599998474121</ele>
        <time>2016-01-25T21:22:58.000Z</time>
      </trkpt>
      <trkpt lat="48.85232" lon="2.38948">
        <ele>53.799999237061</ele>
        <time>2016-01-25T21:23:04.000Z</time>
      </trkpt>
      <trkpt lat="48.85244" lon="2.38926">
        <ele>53.400001525879</ele>
        <time>2016-01-25T21:23:09.000Z</time>
      </trkpt>
      <trkpt lat="48.85258" lon="2.38903">
        <ele>52</ele>
        <time>2016-01-25T21:23:14.000Z</time>
      </trkpt>
      <trkpt lat="48.85272" lon="2.3888">
        <ele>51.799999237061</ele>
        <time>2016-01-25T21:23:19.000Z</time>
      </trkpt>
      <trkpt lat="48.85288" lon="2.38859">
        <ele>50.400001525879</ele>
        <time>2016-01-25T21:23:24.000Z</time>
      </trkpt>
      <trkpt lat="48.85301" lon="2.38839">
        <ele>49.200000762939</ele>
        <time>2016-01-25T21:23:28.000Z</time>
      </trkpt>
      <trkpt lat="48.85314" lon="2.38817">
        <ele>47.599998474121</ele>
        <time>2016-01-25T21:23:32.000Z</time>
      </trkpt>
      <trkpt lat="48.85326" lon="2.38795">
        <ele>46.599998474121</ele>
        <time>2016-01-25T21:23:36.000Z</time>
      </trkpt>
      <trkpt lat="48.85339" lon="2.38772">
        <ele>48.200000762939</ele>
        <time>2016-01-25T21:23:40.000Z</time>
      </trkpt>
      <trkpt lat="48.85352" lon="2.38748">
        <ele>49.799999237061</ele>
        <time>2016-01-25T21:23:44.000Z</time>
      </trkpt>
      <trkpt lat="48.85367" lon="2.38728">
        <ele>49.799999237061</ele>
        <time>2016-01-25T21:23:48.000Z</time>
      </trkpt>
      <trkpt lat="48.85379" lon="2.38706">
        <ele>49.599998474121</ele>
        <time>2016-01-25T21:23:52.000Z</time>
      </trkpt>
      <trkpt lat="48.85393" lon="2.38684">
        <ele>49.400001525879</ele>
        <time>2016-01-25T21:23:56.000Z</time>
      </trkpt>
      <trkpt lat="48.85405" lon="2.38663">
        <ele>49</ele>
        <time>2016-01-25T21:24:00.000Z</time>
      </trkpt>
      <trkpt lat="48.85418" lon="2.3864">
        <ele>47</ele>
        <time>2016-01-25T21:24:04.000Z</time>
      </trkpt>
      <trkpt lat="48.85431" lon="2.38616">
        <ele>47</ele>
        <time>2016-01-25T21:24:08.000Z</time>
      </trkpt>
      <trkpt lat="48.85443" lon="2.38592">
        <ele>47</ele>
        <time>2016-01-25T21:24:12.000Z</time>
      </trkpt>
      <trkpt lat="48.85456" lon="2.38569">
        <ele>47.200000762939</ele>
        <time>2016-01-25T21:24:16.000Z</time>
      </trkpt>
      <trkpt lat="48.85471" lon="2.38544">
        <ele>47.400001525879</ele>
        <time>2016-01-25T21:24:21.000Z</time>
      </trkpt>
      <trkpt lat="48.85485" lon="2.38518">
        <ele>47.599998474121</ele>
        <time>2016-01-25T21:24:26.000Z</time>
      </trkpt>
      <trkpt lat="48.85497" lon="2.38495">
        <ele>48</ele>
        <time>2016-01-25T21:24:30.000Z</time>
      </trkpt>
      <trkpt lat="48.8551" lon="2.38469">
        <ele>48.400001525879</ele>
        <time>2016-01-25T21:24:34.000Z</time>
      </trkpt>
      <trkpt lat="48.85524" lon="2.38444">
        <ele>48.400001525879</ele>
        <time>2016-01-25T21:24:38.000Z</time>
      </trkpt>
      <trkpt lat="48.85538" lon="2.38422">
        <ele>47.400001525879</ele>
        <time>2016-01-25T21:24:42.000Z</time>
      </trkpt>
      <trkpt lat="48.85552" lon="2.38397">
        <ele>46.599998474121</ele>
        <time>2016-01-25T21:24:46.000Z</time>
      </trkpt>
      <trkpt lat="48.85565" lon="2.38373">
        <ele>46</ele>
        <time>2016-01-25T21:24:50.000Z</time>
      </trkpt>
      <trkpt lat="48.8558" lon="2.38349">
        <ele>45.200000762939</ele>
        <time>2016-01-25T21:24:54.000Z</time>
      </trkpt>
      <trkpt lat="48.85591" lon="2.38334">
        <ele>44.799999237061</ele>
        <time>2016-01-25T21:24:57.000Z</time>
      </trkpt>
      <trkpt lat="48.85605" lon="2.38311">
        <ele>44.400001525879</ele>
        <time>2016-01-25T21:25:01.000Z</time>
      </trkpt>
      <trkpt lat="48.85619" lon="2.38288">
        <ele>45.599998474121</ele>
        <time>2016-01-25T21:25:05.000Z</time>
      </trkpt>
      <trkpt lat="48.85632" lon="2.38265">
        <ele>46.599998474121</ele>
        <time>2016-01-25T21:25:09.000Z</time>
      </trkpt>
      <trkpt lat="48.85647" lon="2.38242">
        <ele>47.200000762939</ele>
        <time>2016-01-25T21:25:13.000Z</time>
      </trkpt>
      <trkpt lat="48.85662" lon="2.38221">
        <ele>48</ele>
        <time>2016-01-25T21:25:17.000Z</time>
      </trkpt>
      <trkpt lat="48.85676" lon="2.38197">
        <ele>48</ele>
        <time>2016-01-25T21:25:21.000Z</time>
      </trkpt>
      <trkpt lat="48.85691" lon="2.38173">
        <ele>48</ele>
        <time>2016-01-25T21:25:25.000Z</time>
      </trkpt>
      <trkpt lat="48.85705" lon="2.38149">
        <ele>47.599998474121</ele>
        <time>2016-01-25T21:25:29.000Z</time>
      </trkpt>
      <trkpt lat="48.85719" lon="2.38128">
        <ele>47.200000762939</ele>
        <time>2016-01-25T21:25:33.000Z</time>
      </trkpt>
      <trkpt lat="48.85722" lon="2.38122">
        <ele>47</ele>
        <time>2016-01-25T21:25:34.000Z</time>
      </trkpt>
      <trkpt lat="48.85731" lon="2.38108">
        <ele>46.799999237061</ele>
        <time>2016-01-25T21:25:37.000Z</time>
      </trkpt>
      <trkpt lat="48.85745" lon="2.38087">
        <ele>46.799999237061</ele>
        <time>2016-01-25T21:25:41.000Z</time>
      </trkpt>
      <trkpt lat="48.85757" lon="2.38066">
        <ele>46.599998474121</ele>
        <time>2016-01-25T21:25:45.000Z</time>
      </trkpt>
      <trkpt lat="48.85761" lon="2.38062">
        <ele>46.400001525879</ele>
        <time>2016-01-25T21:25:46.000Z</time>
      </trkpt>
      <trkpt lat="48.85769" lon="2.38055">
        <ele>46</ele>
        <time>2016-01-25T21:25:48.000Z</time>
      </trkpt>
      <trkpt lat="48.85783" lon="2.38045">
        <ele>45.799999237061</ele>
        <time>2016-01-25T21:25:52.000Z</time>
      </trkpt>
      <trkpt lat="48.85795" lon="2.38023">
        <ele>45</ele>
        <time>2016-01-25T21:25:57.000Z</time>
      </trkpt>
      <trkpt lat="48.85795" lon="2.38017">
        <ele>44.599998474121</ele>
        <time>2016-01-25T21:25:58.000Z</time>
      </trkpt>
      <trkpt lat="48.85798" lon="2.37998">
        <ele>44</ele>
        <time>2016-01-25T21:26:01.000Z</time>
      </trkpt>
      <trkpt lat="48.85809" lon="2.37975">
        <ele>43.799999237061</ele>
        <time>2016-01-25T21:26:05.000Z</time>
      </trkpt>
      <trkpt lat="48.85823" lon="2.37954">
        <ele>43.799999237061</ele>
        <time>2016-01-25T21:26:09.000Z</time>
      </trkpt>
      <trkpt lat="48.85837" lon="2.37934">
        <ele>44.799999237061</ele>
        <time>2016-01-25T21:26:13.000Z</time>
      </trkpt>
      <trkpt lat="48.8585" lon="2.37913">
        <ele>45.799999237061</ele>
        <time>2016-01-25T21:26:17.000Z</time>
      </trkpt>
      <trkpt lat="48.85863" lon="2.37891">
        <ele>46.200000762939</ele>
        <time>2016-01-25T21:26:21.000Z</time>
      </trkpt>
      <trkpt lat="48.85877" lon="2.37869">
        <ele>46.599998474121</ele>
        <time>2016-01-25T21:26:25.000Z</time>
      </trkpt>
      <trkpt lat="48.85891" lon="2.37847">
        <ele>46.599998474121</ele>
        <time>2016-01-25T21:26:29.000Z</time>
      </trkpt>
      <trkpt lat="48.85899" lon="2.37837">
        <ele>46.599998474121</ele>
        <time>2016-01-25T21:26:31.000Z</time>
      </trkpt>
      <trkpt lat="48.85907" lon="2.37826">
        <ele>46.599998474121</ele>
        <time>2016-01-25T21:26:33.000Z</time>
      </trkpt>
      <trkpt lat="48.85915" lon="2.37813">
        <ele>46.400001525879</ele>
        <time>2016-01-25T21:26:35.000Z</time>
      </trkpt>
      <trkpt lat="48.85928" lon="2.37792">
        <ele>46.799999237061</ele>
        <time>2016-01-25T21:26:38.000Z</time>
      </trkpt>
      <trkpt lat="48.85932" lon="2.37785">
        <ele>46.799999237061</ele>
        <time>2016-01-25T21:26:39.000Z</time>
      </trkpt>
      <trkpt lat="48.85944" lon="2.37761">
        <ele>47.200000762939</ele>
        <time>2016-01-25T21:26:42.000Z</time>
      </trkpt>
      <trkpt lat="48.85955" lon="2.37739">
        <ele>47.200000762939</ele>
        <time>2016-01-25T21:26:45.000Z</time>
      </trkpt>
      <trkpt lat="48.85968" lon="2.37716">
        <ele>46.799999237061</ele>
        <time>2016-01-25T21:26:49.000Z</time>
      </trkpt>
      <trkpt lat="48.85977" lon="2.37698">
        <ele>46.599998474121</ele>
        <time>2016-01-25T21:26:53.000Z</time>
      </trkpt>
      <trkpt lat="48.85989" lon="2.37675">
        <ele>46.599998474121</ele>
        <time>2016-01-25T21:26:58.000Z</time>
      </trkpt>
      <trkpt lat="48.85998" lon="2.37657">
        <ele>46.599998474121</ele>
        <time>2016-01-25T21:27:01.000Z</time>
      </trkpt>
      <trkpt lat="48.86012" lon="2.37634">
        <ele>47</ele>
        <time>2016-01-25T21:27:05.000Z</time>
      </trkpt>
      <trkpt lat="48.86026" lon="2.37611">
        <ele>47.400001525879</ele>
        <time>2016-01-25T21:27:09.000Z</time>
      </trkpt>
      <trkpt lat="48.86029" lon="2.37605">
        <ele>47.200000762939</ele>
        <time>2016-01-25T21:27:10.000Z</time>
      </trkpt>
      <trkpt lat="48.86043" lon="2.37582">
        <ele>46</ele>
        <time>2016-01-25T21:27:14.000Z</time>
      </trkpt>
      <trkpt lat="48.86053" lon="2.37566">
        <ele>45</ele>
        <time>2016-01-25T21:27:17.000Z</time>
      </trkpt>
      <trkpt lat="48.86066" lon="2.37544">
        <ele>43.599998474121</ele>
        <time>2016-01-25T21:27:21.000Z</time>
      </trkpt>
      <trkpt lat="48.86078" lon="2.37522">
        <ele>43</ele>
        <time>2016-01-25T21:27:25.000Z</time>
      </trkpt>
      <trkpt lat="48.8609" lon="2.37499">
        <ele>42.400001525879</ele>
        <time>2016-01-25T21:27:29.000Z</time>
      </trkpt>
      <trkpt lat="48.86104" lon="2.37475">
        <ele>42.599998474121</ele>
        <time>2016-01-25T21:27:33.000Z</time>
      </trkpt>
      <trkpt lat="48.86118" lon="2.37453">
        <ele>43.599998474121</ele>
        <time>2016-01-25T21:27:37.000Z</time>
      </trkpt>
      <trkpt lat="48.86133" lon="2.3743">
        <ele>44.400001525879</ele>
        <time>2016-01-25T21:27:41.000Z</time>
      </trkpt>
      <trkpt lat="48.86147" lon="2.37406">
        <ele>44.599998474121</ele>
        <time>2016-01-25T21:27:45.000Z</time>
      </trkpt>
      <trkpt lat="48.86161" lon="2.3738">
        <ele>45.200000762939</ele>
        <time>2016-01-25T21:27:49.000Z</time>
      </trkpt>
      <trkpt lat="48.86177" lon="2.37358">
        <ele>46</ele>
        <time>2016-01-25T21:27:53.000Z</time>
      </trkpt>
      <trkpt lat="48.86193" lon="2.37335">
        <ele>46.799999237061</ele>
        <time>2016-01-25T21:27:57.000Z</time>
      </trkpt>
      <trkpt lat="48.86208" lon="2.37311">
        <ele>46.200000762939</ele>
        <time>2016-01-25T21:28:01.000Z</time>
      </trkpt>
      <trkpt lat="48.86222" lon="2.37287">
        <ele>45.599998474121</ele>
        <time>2016-01-25T21:28:05.000Z</time>
      </trkpt>
      <trkpt lat="48.86237" lon="2.37262">
        <ele>45.200000762939</ele>
        <time>2016-01-25T21:28:09.000Z</time>
      </trkpt>
      <trkpt lat="48.86252" lon="2.37238">
        <ele>44.799999237061</ele>
        <time>2016-01-25T21:28:13.000Z</time>
      </trkpt>
      <trkpt lat="48.86264" lon="2.37212">
        <ele>44.599998474121</ele>
        <time>2016-01-25T21:28:17.000Z</time>
      </trkpt>
      <trkpt lat="48.86277" lon="2.37189">
        <ele>44.400001525879</ele>
        <time>2016-01-25T21:28:21.000Z</time>
      </trkpt>
      <trkpt lat="48.86287" lon="2.37164">
        <ele>44</ele>
        <time>2016-01-25T21:28:26.000Z</time>
      </trkpt>
      <trkpt lat="48.86301" lon="2.37139">
        <ele>43.599998474121</ele>
        <time>2016-01-25T21:28:32.000Z</time>
      </trkpt>
      <trkpt lat="48.86304" lon="2.37134">
        <ele>43.599998474121</ele>
        <time>2016-01-25T21:28:33.000Z</time>
      </trkpt>
      <trkpt lat="48.86316" lon="2.37114">
        <ele>43.599998474121</ele>
        <time>2016-01-25T21:28:37.000Z</time>
      </trkpt>
      <trkpt lat="48.86331" lon="2.37091">
        <ele>43.599998474121</ele>
        <time>2016-01-25T21:28:41.000Z</time>
      </trkpt>
      <trkpt lat="48.86339" lon="2.3708">
        <ele>43.799999237061</ele>
        <time>2016-01-25T21:28:43.000Z</time>
      </trkpt>
      <trkpt lat="48.86356" lon="2.37056">
        <ele>44.599998474121</ele>
        <time>2016-01-25T21:28:47.000Z</time>
      </trkpt>
      <trkpt lat="48.86371" lon="2.3703">
        <ele>44.599998474121</ele>
        <time>2016-01-25T21:28:51.000Z</time>
      </trkpt>
      <trkpt lat="48.86375" lon="2.37023">
        <ele>44.799999237061</ele>
        <time>2016-01-25T21:28:52.000Z</time>
      </trkpt>
      <trkpt lat="48.8639" lon="2.36997">
        <ele>45.200000762939</ele>
        <time>2016-01-25T21:28:56.000Z</time>
      </trkpt>
      <trkpt lat="48.86406" lon="2.36972">
        <ele>44.599998474121</ele>
        <time>2016-01-25T21:29:00.000Z</time>
      </trkpt>
      <trkpt lat="48.86422" lon="2.36947">
        <ele>45</ele>
        <time>2016-01-25T21:29:04.000Z</time>
      </trkpt>
      <trkpt lat="48.86435" lon="2.36924">
        <ele>45.799999237061</ele>
        <time>2016-01-25T21:29:08.000Z</time>
      </trkpt>
      <trkpt lat="48.86448" lon="2.36902">
        <ele>46.200000762939</ele>
        <time>2016-01-25T21:29:12.000Z</time>
      </trkpt>
      <trkpt lat="48.86462" lon="2.36877">
        <ele>46.200000762939</ele>
        <time>2016-01-25T21:29:16.000Z</time>
      </trkpt>
      <trkpt lat="48.86469" lon="2.36866">
        <ele>46.400001525879</ele>
        <time>2016-01-25T21:29:18.000Z</time>
      </trkpt>
      <trkpt lat="48.86483" lon="2.36844">
        <ele>46.799999237061</ele>
        <time>2016-01-25T21:29:22.000Z</time>
      </trkpt>
      <trkpt lat="48.86487" lon="2.36838">
        <ele>47</ele>
        <time>2016-01-25T21:29:23.000Z</time>
      </trkpt>
      <trkpt lat="48.86501" lon="2.36817">
        <ele>47.400001525879</ele>
        <time>2016-01-25T21:29:27.000Z</time>
      </trkpt>
      <trkpt lat="48.86515" lon="2.36795">
        <ele>47.200000762939</ele>
        <time>2016-01-25T21:29:31.000Z</time>
      </trkpt>
      <trkpt lat="48.86528" lon="2.36769">
        <ele>46.599998474121</ele>
        <time>2016-01-25T21:29:35.000Z</time>
      </trkpt>
      <trkpt lat="48.86543" lon="2.36744">
        <ele>46.200000762939</ele>
        <time>2016-01-25T21:29:39.000Z</time>
      </trkpt>
      <trkpt lat="48.86556" lon="2.3672">
        <ele>46</ele>
        <time>2016-01-25T21:29:43.000Z</time>
      </trkpt>
      <trkpt lat="48.8657" lon="2.36696">
        <ele>46</ele>
        <time>2016-01-25T21:29:47.000Z</time>
      </trkpt>
      <trkpt lat="48.86584" lon="2.3667">
        <ele>45.799999237061</ele>
        <time>2016-01-25T21:29:51.000Z</time>
      </trkpt>
      <trkpt lat="48.86596" lon="2.36647">
        <ele>46.200000762939</ele>
        <time>2016-01-25T21:29:55.000Z</time>
      </trkpt>
      <trkpt lat="48.86609" lon="2.36626">
        <ele>46.400001525879</ele>
        <time>2016-01-25T21:29:59.000Z</time>
      </trkpt>
      <trkpt lat="48.86621" lon="2.36605">
        <ele>46.599998474121</ele>
        <time>2016-01-25T21:30:03.000Z</time>
      </trkpt>
      <trkpt lat="48.86624" lon="2.366">
        <ele>46.599998474121</ele>
        <time>2016-01-25T21:30:04.000Z</time>
      </trkpt>
      <trkpt lat="48.86637" lon="2.36579">
        <ele>46</ele>
        <time>2016-01-25T21:30:08.000Z</time>
      </trkpt>
      <trkpt lat="48.86651" lon="2.36555">
        <ele>45.599998474121</ele>
        <time>2016-01-25T21:30:13.000Z</time>
      </trkpt>
      <trkpt lat="48.86664" lon="2.36532">
        <ele>44</ele>
        <time>2016-01-25T21:30:18.000Z</time>
      </trkpt>
      <trkpt lat="48.86673" lon="2.36514">
        <ele>42.400001525879</ele>
        <time>2016-01-25T21:30:22.000Z</time>
      </trkpt>
      <trkpt lat="48.86671" lon="2.36491">
        <ele>42</ele>
        <time>2016-01-25T21:30:27.000Z</time>
      </trkpt>
      <trkpt lat="48.86669" lon="2.36486">
        <ele>42.200000762939</ele>
        <time>2016-01-25T21:30:28.000Z</time>
      </trkpt>
      <trkpt lat="48.86671" lon="2.36459">
        <ele>43</ele>
        <time>2016-01-25T21:30:33.000Z</time>
      </trkpt>
      <trkpt lat="48.8668" lon="2.36445">
        <ele>42.799999237061</ele>
        <time>2016-01-25T21:30:36.000Z</time>
      </trkpt>
      <trkpt lat="48.86688" lon="2.36431">
        <ele>42.599998474121</ele>
        <time>2016-01-25T21:30:39.000Z</time>
      </trkpt>
      <trkpt lat="48.867" lon="2.36404">
        <ele>43.200000762939</ele>
        <time>2016-01-25T21:30:44.000Z</time>
      </trkpt>
      <trkpt lat="48.86705" lon="2.36394">
        <ele>43.799999237061</ele>
        <time>2016-01-25T21:30:46.000Z</time>
      </trkpt>
      <trkpt lat="48.86714" lon="2.36379">
        <ele>44.400001525879</ele>
        <time>2016-01-25T21:30:50.000Z</time>
      </trkpt>
      <trkpt lat="48.8672" lon="2.36363">
        <ele>45.200000762939</ele>
        <time>2016-01-25T21:30:54.000Z</time>
      </trkpt>
      <trkpt lat="48.86734" lon="2.3634">
        <ele>44.599998474121</ele>
        <time>2016-01-25T21:31:00.000Z</time>
      </trkpt>
      <trkpt lat="48.86741" lon="2.36326">
        <ele>44</ele>
        <time>2016-01-25T21:31:04.000Z</time>
      </trkpt>
      <trkpt lat="48.86743" lon="2.36323">
        <ele>43.599998474121</ele>
        <time>2016-01-25T21:31:08.000Z</time>
      </trkpt>
      <trkpt lat="48.86731" lon="2.36309">
        <ele>44.400001525879</ele>
        <time>2016-01-25T21:31:35.000Z</time>
      </trkpt>
      <trkpt lat="48.86719" lon="2.36283">
        <ele>45</ele>
        <time>2016-01-25T21:31:40.000Z</time>
      </trkpt>
      <trkpt lat="48.86706" lon="2.36254">
        <ele>46.599998474121</ele>
        <time>2016-01-25T21:31:45.000Z</time>
      </trkpt>
      <trkpt lat="48.86695" lon="2.36231">
        <ele>46.799999237061</ele>
        <time>2016-01-25T21:31:49.000Z</time>
      </trkpt>
      <trkpt lat="48.86684" lon="2.36209">
        <ele>46.400001525879</ele>
        <time>2016-01-25T21:31:53.000Z</time>
      </trkpt>
      <trkpt lat="48.86674" lon="2.36184">
        <ele>45.799999237061</ele>
        <time>2016-01-25T21:31:57.000Z</time>
      </trkpt>
      <trkpt lat="48.86665" lon="2.36158">
        <ele>45.400001525879</ele>
        <time>2016-01-25T21:32:01.000Z</time>
      </trkpt>
      <trkpt lat="48.86657" lon="2.36132">
        <ele>44.799999237061</ele>
        <time>2016-01-25T21:32:05.000Z</time>
      </trkpt>
      <trkpt lat="48.86649" lon="2.36107">
        <ele>44.599998474121</ele>
        <time>2016-01-25T21:32:09.000Z</time>
      </trkpt>
      <trkpt lat="48.86639" lon="2.36076">
        <ele>44.200000762939</ele>
        <time>2016-01-25T21:32:14.000Z</time>
      </trkpt>
      <trkpt lat="48.86636" lon="2.36062">
        <ele>44.200000762939</ele>
        <time>2016-01-25T21:32:16.000Z</time>
      </trkpt>
      <trkpt lat="48.86631" lon="2.36035">
        <ele>44.400001525879</ele>
        <time>2016-01-25T21:32:20.000Z</time>
      </trkpt>
      <trkpt lat="48.86624" lon="2.36008">
        <ele>44.200000762939</ele>
        <time>2016-01-25T21:32:24.000Z</time>
      </trkpt>
      <trkpt lat="48.86616" lon="2.35979">
        <ele>44.200000762939</ele>
        <time>2016-01-25T21:32:28.000Z</time>
      </trkpt>
      <trkpt lat="48.8661" lon="2.35951">
        <ele>44.599998474121</ele>
        <time>2016-01-25T21:32:32.000Z</time>
      </trkpt>
      <trkpt lat="48.86603" lon="2.35924">
        <ele>44.799999237061</ele>
        <time>2016-01-25T21:32:36.000Z</time>
      </trkpt>
      <trkpt lat="48.86598" lon="2.35897">
        <ele>45</ele>
        <time>2016-01-25T21:32:40.000Z</time>
      </trkpt>
      <trkpt lat="48.86591" lon="2.3587">
        <ele>44.799999237061</ele>
        <time>2016-01-25T21:32:44.000Z</time>
      </trkpt>
      <trkpt lat="48.86588" lon="2.35856">
        <ele>44.799999237061</ele>
        <time>2016-01-25T21:32:46.000Z</time>
      </trkpt>
      <trkpt lat="48.86581" lon="2.35828">
        <ele>44.599998474121</ele>
        <time>2016-01-25T21:32:50.000Z</time>
      </trkpt>
      <trkpt lat="48.8658" lon="2.35821">
        <ele>44.599998474121</ele>
        <time>2016-01-25T21:32:51.000Z</time>
      </trkpt>
      <trkpt lat="48.86575" lon="2.3579">
        <ele>44.400001525879</ele>
        <time>2016-01-25T21:32:55.000Z</time>
      </trkpt>
      <trkpt lat="48.86567" lon="2.35762">
        <ele>44.799999237061</ele>
        <time>2016-01-25T21:32:59.000Z</time>
      </trkpt>
      <trkpt lat="48.86559" lon="2.35736">
        <ele>45.200000762939</ele>
        <time>2016-01-25T21:33:03.000Z</time>
      </trkpt>
      <trkpt lat="48.86558" lon="2.35729">
        <ele>45.200000762939</ele>
        <time>2016-01-25T21:33:04.000Z</time>
      </trkpt>
      <trkpt lat="48.86553" lon="2.35699">
        <ele>45.599998474121</ele>
        <time>2016-01-25T21:33:08.000Z</time>
      </trkpt>
      <trkpt lat="48.86547" lon="2.35667">
        <ele>45.200000762939</ele>
        <time>2016-01-25T21:33:13.000Z</time>
      </trkpt>
      <trkpt lat="48.86546" lon="2.35662">
        <ele>45.200000762939</ele>
        <time>2016-01-25T21:33:14.000Z</time>
      </trkpt>
      <trkpt lat="48.86543" lon="2.35643">
        <ele>45.200000762939</ele>
        <time>2016-01-25T21:33:18.000Z</time>
      </trkpt>
      <trkpt lat="48.86542" lon="2.35637">
        <ele>45.400001525879</ele>
        <time>2016-01-25T21:33:20.000Z</time>
      </trkpt>
      <trkpt lat="48.86541" lon="2.35629">
        <ele>45.400001525879</ele>
        <time>2016-01-25T21:33:24.000Z</time>
      </trkpt>
      <trkpt lat="48.8654" lon="2.35603">
        <ele>45.400001525879</ele>
        <time>2016-01-25T21:33:47.000Z</time>
      </trkpt>
      <trkpt lat="48.8653" lon="2.35578">
        <ele>45.599998474121</ele>
        <time>2016-01-25T21:33:53.000Z</time>
      </trkpt>
      <trkpt lat="48.86512" lon="2.35565">
        <ele>46</ele>
        <time>2016-01-25T21:33:59.000Z</time>
      </trkpt>
      <trkpt lat="48.86493" lon="2.35557">
        <ele>45.599998474121</ele>
        <time>2016-01-25T21:34:04.000Z</time>
      </trkpt>
      <trkpt lat="48.86474" lon="2.35554">
        <ele>45.400001525879</ele>
        <time>2016-01-25T21:34:09.000Z</time>
      </trkpt>
      <trkpt lat="48.86455" lon="2.35547">
        <ele>45.200000762939</ele>
        <time>2016-01-25T21:34:14.000Z</time>
      </trkpt>
      <trkpt lat="48.86436" lon="2.35541">
        <ele>45</ele>
        <time>2016-01-25T21:34:18.000Z</time>
      </trkpt>
      <trkpt lat="48.86418" lon="2.35536">
        <ele>44.799999237061</ele>
        <time>2016-01-25T21:34:22.000Z</time>
      </trkpt>
      <trkpt lat="48.86398" lon="2.35525">
        <ele>44.599998474121</ele>
        <time>2016-01-25T21:34:27.000Z</time>
      </trkpt>
      <trkpt lat="48.86377" lon="2.35515">
        <ele>44.200000762939</ele>
        <time>2016-01-25T21:34:32.000Z</time>
      </trkpt>
      <trkpt lat="48.86369" lon="2.35511">
        <ele>44.200000762939</ele>
        <time>2016-01-25T21:34:34.000Z</time>
      </trkpt>
      <trkpt lat="48.86348" lon="2.35504">
        <ele>44.400001525879</ele>
        <time>2016-01-25T21:34:39.000Z</time>
      </trkpt>
      <trkpt lat="48.86327" lon="2.35497">
        <ele>45</ele>
        <time>2016-01-25T21:34:44.000Z</time>
      </trkpt>
      <trkpt lat="48.86315" lon="2.35497">
        <ele>45.400001525879</ele>
        <time>2016-01-25T21:34:47.000Z</time>
      </trkpt>
      <trkpt lat="48.86296" lon="2.35488">
        <ele>46</ele>
        <time>2016-01-25T21:34:51.000Z</time>
      </trkpt>
      <trkpt lat="48.8628" lon="2.3548">
        <ele>46.599998474121</ele>
        <time>2016-01-25T21:34:55.000Z</time>
      </trkpt>
      <trkpt lat="48.86271" lon="2.35474">
        <ele>46.799999237061</ele>
        <time>2016-01-25T21:34:58.000Z</time>
      </trkpt>
      <trkpt lat="48.86262" lon="2.35469">
        <ele>46.799999237061</ele>
        <time>2016-01-25T21:35:02.000Z</time>
      </trkpt>
      <trkpt lat="48.86273" lon="2.35434">
        <ele>46.200000762939</ele>
        <time>2016-01-25T21:35:13.000Z</time>
      </trkpt>
      <trkpt lat="48.86279" lon="2.35415">
        <ele>46</ele>
        <time>2016-01-25T21:35:15.000Z</time>
      </trkpt>
      <trkpt lat="48.86288" lon="2.35389">
        <ele>46.200000762939</ele>
        <time>2016-01-25T21:35:19.000Z</time>
      </trkpt>
      <trkpt lat="48.86292" lon="2.35361">
        <ele>46.400001525879</ele>
        <time>2016-01-25T21:35:23.000Z</time>
      </trkpt>
      <trkpt lat="48.86306" lon="2.35338">
        <ele>45.799999237061</ele>
        <time>2016-01-25T21:35:27.000Z</time>
      </trkpt>
      <trkpt lat="48.86317" lon="2.35315">
        <ele>45.599998474121</ele>
        <time>2016-01-25T21:35:31.000Z</time>
      </trkpt>
      <trkpt lat="48.8632" lon="2.35284">
        <ele>46</ele>
        <time>2016-01-25T21:35:37.000Z</time>
      </trkpt>
      <trkpt lat="48.86318" lon="2.3527">
        <ele>46.400001525879</ele>
        <time>2016-01-25T21:35:40.000Z</time>
      </trkpt>
      <trkpt lat="48.86303" lon="2.3525">
        <ele>47.200000762939</ele>
        <time>2016-01-25T21:35:45.000Z</time>
      </trkpt>
      <trkpt lat="48.86285" lon="2.35241">
        <ele>47.799999237061</ele>
        <time>2016-01-25T21:35:50.000Z</time>
      </trkpt>
      <trkpt lat="48.86268" lon="2.35234">
        <ele>48</ele>
        <time>2016-01-25T21:35:54.000Z</time>
      </trkpt>
      <trkpt lat="48.86248" lon="2.35225">
        <ele>47.400001525879</ele>
        <time>2016-01-25T21:35:58.000Z</time>
      </trkpt>
      <trkpt lat="48.86229" lon="2.35219">
        <ele>46.799999237061</ele>
        <time>2016-01-25T21:36:03.000Z</time>
      </trkpt>
      <trkpt lat="48.8622" lon="2.35215">
        <ele>46.599998474121</ele>
        <time>2016-01-25T21:36:05.000Z</time>
      </trkpt>
      <trkpt lat="48.862" lon="2.35209">
        <ele>45.799999237061</ele>
        <time>2016-01-25T21:36:10.000Z</time>
      </trkpt>
      <trkpt lat="48.8618" lon="2.35203">
        <ele>45.599998474121</ele>
        <time>2016-01-25T21:36:15.000Z</time>
      </trkpt>
      <trkpt lat="48.86168" lon="2.35198">
        <ele>45.799999237061</ele>
        <time>2016-01-25T21:36:19.000Z</time>
      </trkpt>
      <trkpt lat="48.86163" lon="2.35195">
        <ele>46</ele>
        <time>2016-01-25T21:36:21.000Z</time>
      </trkpt>
      <trkpt lat="48.86159" lon="2.35185">
        <ele>46.200000762939</ele>
        <time>2016-01-25T21:36:23.000Z</time>
      </trkpt>
      <trkpt lat="48.86145" lon="2.35165">
        <ele>46.599998474121</ele>
        <time>2016-01-25T21:36:30.000Z</time>
      </trkpt>
      <trkpt lat="48.86142" lon="2.35165">
        <ele>46.599998474121</ele>
        <time>2016-01-25T21:36:31.000Z</time>
      </trkpt>
      <trkpt lat="48.86121" lon="2.35164">
        <ele>46.799999237061</ele>
        <time>2016-01-25T21:36:37.000Z</time>
      </trkpt>
      <trkpt lat="48.86099" lon="2.35168">
        <ele>47.599998474121</ele>
        <time>2016-01-25T21:36:43.000Z</time>
      </trkpt>
      <trkpt lat="48.86077" lon="2.35167">
        <ele>47.599998474121</ele>
        <time>2016-01-25T21:36:48.000Z</time>
      </trkpt>
      <trkpt lat="48.86058" lon="2.35159">
        <ele>47.400001525879</ele>
        <time>2016-01-25T21:36:53.000Z</time>
      </trkpt>
      <trkpt lat="48.86038" lon="2.35158">
        <ele>47.599998474121</ele>
        <time>2016-01-25T21:36:58.000Z</time>
      </trkpt>
      <trkpt lat="48.86021" lon="2.3515">
        <ele>47.400001525879</ele>
        <time>2016-01-25T21:37:05.000Z</time>
      </trkpt>
      <trkpt lat="48.86011" lon="2.35122">
        <ele>46.599998474121</ele>
        <time>2016-01-25T21:37:09.000Z</time>
      </trkpt>
      <trkpt lat="48.8601" lon="2.35102">
        <ele>45.799999237061</ele>
        <time>2016-01-25T21:37:12.000Z</time>
      </trkpt>
      <trkpt lat="48.8602" lon="2.35074">
        <ele>44.400001525879</ele>
        <time>2016-01-25T21:37:17.000Z</time>
      </trkpt>
      <trkpt lat="48.8603" lon="2.35047">
        <ele>45.599998474121</ele>
        <time>2016-01-25T21:37:23.000Z</time>
      </trkpt>
      <trkpt lat="48.8604" lon="2.35019">
        <ele>47</ele>
        <time>2016-01-25T21:37:32.000Z</time>
      </trkpt>
      <trkpt lat="48.86051" lon="2.34993">
        <ele>47.400001525879</ele>
        <time>2016-01-25T21:37:40.000Z</time>
      </trkpt>
      <trkpt lat="48.86057" lon="2.34966">
        <ele>47.599998474121</ele>
        <time>2016-01-25T21:37:50.000Z</time>
      </trkpt>
      <trkpt lat="48.86057" lon="2.34962">
        <ele>47.599998474121</ele>
        <time>2016-01-25T21:37:52.000Z</time>
      </trkpt>
      <trkpt lat="48.86055" lon="2.3493">
        <ele>48</ele>
        <time>2016-01-25T21:38:00.000Z</time>
      </trkpt>
      <trkpt lat="48.86047" lon="2.3492">
        <ele>48.400001525879</ele>
        <time>2016-01-25T21:38:03.000Z</time>
      </trkpt>
      <trkpt lat="48.86027" lon="2.34914">
        <ele>48.799999237061</ele>
        <time>2016-01-25T21:38:10.000Z</time>
      </trkpt>
      <trkpt lat="48.86009" lon="2.34908">
        <ele>48.799999237061</ele>
        <time>2016-01-25T21:38:17.000Z</time>
      </trkpt>
      <trkpt lat="48.86007" lon="2.34903">
        <ele>48.799999237061</ele>
        <time>2016-01-25T21:38:19.000Z</time>
      </trkpt>
      <trkpt lat="48.86006" lon="2.34873">
        <ele>48.599998474121</ele>
        <time>2016-01-25T21:38:28.000Z</time>
      </trkpt>
      <trkpt lat="48.86001" lon="2.34851">
        <ele>48.200000762939</ele>
        <time>2016-01-25T21:38:36.000Z</time>
      </trkpt>
      <trkpt lat="48.85983" lon="2.34836">
        <ele>48</ele>
        <time>2016-01-25T21:38:43.000Z</time>
      </trkpt>
      <trkpt lat="48.85967" lon="2.34818">
        <ele>47.400001525879</ele>
        <time>2016-01-25T21:38:50.000Z</time>
      </trkpt>
      <trkpt lat="48.85952" lon="2.34803">
        <ele>46.599998474121</ele>
        <time>2016-01-25T21:39:00.000Z</time>
      </trkpt>
      <trkpt lat="48.85953" lon="2.348">
        <ele>46.599998474121</ele>
        <time>2016-01-25T21:39:03.000Z</time>
      </trkpt>
      <trkpt lat="48.85958" lon="2.34793">
        <ele>46.200000762939</ele>
        <time>2016-01-25T21:39:07.000Z</time>
      </trkpt>
      <trkpt lat="48.85963" lon="2.34769">
        <ele>45</ele>
        <time>2016-01-25T21:39:19.000Z</time>
      </trkpt>
      <trkpt lat="48.85963" lon="2.34752">
        <ele>44.400001525879</ele>
        <time>2016-01-25T21:39:28.000Z</time>
      </trkpt>
      <trkpt lat="48.85963" lon="2.34747">
        <ele>44.200000762939</ele>
        <time>2016-01-25T21:39:30.000Z</time>
      </trkpt>
    </trkseg>
  </trk>
</gpx>